<?xml version="1.0" encoding="UTF-8" standalone="no" ?>
<gpx xmlns="http://www.topografix.com/GPX/1/1" xmlns:xsi="http://www.w3.org/2001/XMLSchema-instance" xsi:schemaLocation="http://www.topografix.com/GPX/1/1 http://www.topografix.com/GPX/1/1/gpx.xsd" version="1.1" creator="VisuGPX - https://www.visugpx.com">
  <metadata>
    <name>83-Ma-Lorgues</name>
    <desc><![CDATA[83-Ma-Lorgues : les Terres Blanches
2021-10-26]]></desc>
  </metadata>
  <trk>
    <name><![CDATA[2021-10-26-Ma-lorgues]]></name>
    <extensions>
      <line xmlns="http://www.topografix.com/GPX/gpx_style/0/2">
        <width>4</width>
      </line>
    </extensions>
    <trkseg>
      <trkpt lat="43.51722" lon="6.32685">
        <ele>349.2</ele>
        <time>2021-10-26T11:52:23.000Z</time>
      </trkpt>
      <trkpt lat="43.51722" lon="6.32685">
        <ele>349.2</ele>
        <time>2021-10-26T11:52:24.000Z</time>
      </trkpt>
      <trkpt lat="43.51725" lon="6.32691">
        <ele>349.6</ele>
        <time>2021-10-26T11:53:37.000Z</time>
      </trkpt>
      <trkpt lat="43.51728" lon="6.32695">
        <ele>349.5</ele>
        <time>2021-10-26T11:53:44.000Z</time>
      </trkpt>
      <trkpt lat="43.51733" lon="6.32697">
        <ele>349.3</ele>
        <time>2021-10-26T11:53:48.000Z</time>
      </trkpt>
      <trkpt lat="43.51738" lon="6.327">
        <ele>348.9</ele>
        <time>2021-10-26T11:53:53.000Z</time>
      </trkpt>
      <trkpt lat="43.51741" lon="6.32705">
        <ele>348.8</ele>
        <time>2021-10-26T11:53:58.000Z</time>
      </trkpt>
      <trkpt lat="43.51743" lon="6.32712">
        <ele>348.7</ele>
        <time>2021-10-26T11:54:03.000Z</time>
      </trkpt>
      <trkpt lat="43.51748" lon="6.32715">
        <ele>348.5</ele>
        <time>2021-10-26T11:54:08.000Z</time>
      </trkpt>
      <trkpt lat="43.51752" lon="6.32716">
        <ele>348.4</ele>
        <time>2021-10-26T11:54:12.000Z</time>
      </trkpt>
      <trkpt lat="43.51757" lon="6.32717">
        <ele>348.3</ele>
        <time>2021-10-26T11:54:16.000Z</time>
      </trkpt>
      <trkpt lat="43.51762" lon="6.3272">
        <ele>348.1</ele>
        <time>2021-10-26T11:54:19.000Z</time>
      </trkpt>
      <trkpt lat="43.51767" lon="6.32724">
        <ele>347.5</ele>
        <time>2021-10-26T11:54:23.000Z</time>
      </trkpt>
      <trkpt lat="43.51771" lon="6.32728">
        <ele>347.1</ele>
        <time>2021-10-26T11:54:27.000Z</time>
      </trkpt>
      <trkpt lat="43.51775" lon="6.32732">
        <ele>346.9</ele>
        <time>2021-10-26T11:54:30.000Z</time>
      </trkpt>
      <trkpt lat="43.51779" lon="6.32737">
        <ele>346.5</ele>
        <time>2021-10-26T11:54:34.000Z</time>
      </trkpt>
      <trkpt lat="43.51784" lon="6.32742">
        <ele>346.2</ele>
        <time>2021-10-26T11:54:38.000Z</time>
      </trkpt>
      <trkpt lat="43.51788" lon="6.32747">
        <ele>346.1</ele>
        <time>2021-10-26T11:54:42.000Z</time>
      </trkpt>
      <trkpt lat="43.51792" lon="6.3275">
        <ele>346.1</ele>
        <time>2021-10-26T11:54:46.000Z</time>
      </trkpt>
      <trkpt lat="43.51797" lon="6.32753">
        <ele>346.1</ele>
        <time>2021-10-26T11:54:50.000Z</time>
      </trkpt>
      <trkpt lat="43.51802" lon="6.32754">
        <ele>346</ele>
        <time>2021-10-26T11:54:54.000Z</time>
      </trkpt>
      <trkpt lat="43.51807" lon="6.32755">
        <ele>345.7</ele>
        <time>2021-10-26T11:54:58.000Z</time>
      </trkpt>
      <trkpt lat="43.51812" lon="6.32757">
        <ele>345.7</ele>
        <time>2021-10-26T11:55:01.000Z</time>
      </trkpt>
      <trkpt lat="43.51817" lon="6.32759">
        <ele>345.8</ele>
        <time>2021-10-26T11:55:04.000Z</time>
      </trkpt>
      <trkpt lat="43.51823" lon="6.32763">
        <ele>345.6</ele>
        <time>2021-10-26T11:55:08.000Z</time>
      </trkpt>
      <trkpt lat="43.51826" lon="6.32768">
        <ele>345.5</ele>
        <time>2021-10-26T11:55:11.000Z</time>
      </trkpt>
      <trkpt lat="43.5183" lon="6.32773">
        <ele>345.1</ele>
        <time>2021-10-26T11:55:15.000Z</time>
      </trkpt>
      <trkpt lat="43.51835" lon="6.32778">
        <ele>344.9</ele>
        <time>2021-10-26T11:55:19.000Z</time>
      </trkpt>
      <trkpt lat="43.51838" lon="6.32782">
        <ele>344.7</ele>
        <time>2021-10-26T11:55:22.000Z</time>
      </trkpt>
      <trkpt lat="43.51842" lon="6.32786">
        <ele>344.4</ele>
        <time>2021-10-26T11:55:26.000Z</time>
      </trkpt>
      <trkpt lat="43.51847" lon="6.32789">
        <ele>343.9</ele>
        <time>2021-10-26T11:55:30.000Z</time>
      </trkpt>
      <trkpt lat="43.51852" lon="6.32792">
        <ele>343.6</ele>
        <time>2021-10-26T11:55:34.000Z</time>
      </trkpt>
      <trkpt lat="43.51857" lon="6.32795">
        <ele>343.2</ele>
        <time>2021-10-26T11:55:38.000Z</time>
      </trkpt>
      <trkpt lat="43.51861" lon="6.32796">
        <ele>343.2</ele>
        <time>2021-10-26T11:55:41.000Z</time>
      </trkpt>
      <trkpt lat="43.51866" lon="6.32799">
        <ele>342.9</ele>
        <time>2021-10-26T11:55:44.000Z</time>
      </trkpt>
      <trkpt lat="43.5187" lon="6.32802">
        <ele>342.7</ele>
        <time>2021-10-26T11:55:47.000Z</time>
      </trkpt>
      <trkpt lat="43.51874" lon="6.32805">
        <ele>342.3</ele>
        <time>2021-10-26T11:55:50.000Z</time>
      </trkpt>
      <trkpt lat="43.51879" lon="6.32808">
        <ele>341.8</ele>
        <time>2021-10-26T11:55:54.000Z</time>
      </trkpt>
      <trkpt lat="43.51885" lon="6.3281">
        <ele>341</ele>
        <time>2021-10-26T11:55:59.000Z</time>
      </trkpt>
      <trkpt lat="43.5189" lon="6.32813">
        <ele>340.5</ele>
        <time>2021-10-26T11:56:03.000Z</time>
      </trkpt>
      <trkpt lat="43.51895" lon="6.32816">
        <ele>340.2</ele>
        <time>2021-10-26T11:56:06.000Z</time>
      </trkpt>
      <trkpt lat="43.519" lon="6.32818">
        <ele>339.6</ele>
        <time>2021-10-26T11:56:10.000Z</time>
      </trkpt>
      <trkpt lat="43.51905" lon="6.32821">
        <ele>339.4</ele>
        <time>2021-10-26T11:56:13.000Z</time>
      </trkpt>
      <trkpt lat="43.51911" lon="6.32821">
        <ele>339.3</ele>
        <time>2021-10-26T11:56:17.000Z</time>
      </trkpt>
      <trkpt lat="43.51916" lon="6.32822">
        <ele>338.7</ele>
        <time>2021-10-26T11:56:21.000Z</time>
      </trkpt>
      <trkpt lat="43.51921" lon="6.32823">
        <ele>338.1</ele>
        <time>2021-10-26T11:56:27.000Z</time>
      </trkpt>
      <trkpt lat="43.51925" lon="6.32824">
        <ele>337.8</ele>
        <time>2021-10-26T11:56:32.000Z</time>
      </trkpt>
      <trkpt lat="43.5193" lon="6.32825">
        <ele>337.6</ele>
        <time>2021-10-26T11:56:36.000Z</time>
      </trkpt>
      <trkpt lat="43.51936" lon="6.32825">
        <ele>337.5</ele>
        <time>2021-10-26T11:56:40.000Z</time>
      </trkpt>
      <trkpt lat="43.51941" lon="6.32827">
        <ele>337.1</ele>
        <time>2021-10-26T11:56:43.000Z</time>
      </trkpt>
      <trkpt lat="43.51945" lon="6.32829">
        <ele>336.8</ele>
        <time>2021-10-26T11:56:46.000Z</time>
      </trkpt>
      <trkpt lat="43.51951" lon="6.3283">
        <ele>336.4</ele>
        <time>2021-10-26T11:56:50.000Z</time>
      </trkpt>
      <trkpt lat="43.51956" lon="6.32832">
        <ele>336.3</ele>
        <time>2021-10-26T11:56:53.000Z</time>
      </trkpt>
      <trkpt lat="43.51961" lon="6.32835">
        <ele>335.8</ele>
        <time>2021-10-26T11:56:57.000Z</time>
      </trkpt>
      <trkpt lat="43.51966" lon="6.32839">
        <ele>335.6</ele>
        <time>2021-10-26T11:57:01.000Z</time>
      </trkpt>
      <trkpt lat="43.5197" lon="6.32843">
        <ele>335.4</ele>
        <time>2021-10-26T11:57:04.000Z</time>
      </trkpt>
      <trkpt lat="43.51974" lon="6.32848">
        <ele>335.2</ele>
        <time>2021-10-26T11:57:08.000Z</time>
      </trkpt>
      <trkpt lat="43.51978" lon="6.32852">
        <ele>335.2</ele>
        <time>2021-10-26T11:57:11.000Z</time>
      </trkpt>
      <trkpt lat="43.51982" lon="6.32857">
        <ele>335.3</ele>
        <time>2021-10-26T11:57:14.000Z</time>
      </trkpt>
      <trkpt lat="43.51986" lon="6.32863">
        <ele>335.3</ele>
        <time>2021-10-26T11:57:17.000Z</time>
      </trkpt>
      <trkpt lat="43.51988" lon="6.32869">
        <ele>335.3</ele>
        <time>2021-10-26T11:57:20.000Z</time>
      </trkpt>
      <trkpt lat="43.51991" lon="6.32876">
        <ele>335.2</ele>
        <time>2021-10-26T11:57:24.000Z</time>
      </trkpt>
      <trkpt lat="43.51993" lon="6.32882">
        <ele>334.9</ele>
        <time>2021-10-26T11:57:28.000Z</time>
      </trkpt>
      <trkpt lat="43.51996" lon="6.32888">
        <ele>334.7</ele>
        <time>2021-10-26T11:57:32.000Z</time>
      </trkpt>
      <trkpt lat="43.51997" lon="6.32895">
        <ele>334.5</ele>
        <time>2021-10-26T11:57:36.000Z</time>
      </trkpt>
      <trkpt lat="43.52" lon="6.329">
        <ele>334.4</ele>
        <time>2021-10-26T11:57:39.000Z</time>
      </trkpt>
      <trkpt lat="43.52003" lon="6.32905">
        <ele>334.5</ele>
        <time>2021-10-26T11:57:43.000Z</time>
      </trkpt>
      <trkpt lat="43.52006" lon="6.32911">
        <ele>334.6</ele>
        <time>2021-10-26T11:57:46.000Z</time>
      </trkpt>
      <trkpt lat="43.52008" lon="6.32917">
        <ele>334.6</ele>
        <time>2021-10-26T11:57:49.000Z</time>
      </trkpt>
      <trkpt lat="43.5201" lon="6.32923">
        <ele>334.5</ele>
        <time>2021-10-26T11:57:52.000Z</time>
      </trkpt>
      <trkpt lat="43.52013" lon="6.32931">
        <ele>334.6</ele>
        <time>2021-10-26T11:57:56.000Z</time>
      </trkpt>
      <trkpt lat="43.52016" lon="6.32938">
        <ele>334.6</ele>
        <time>2021-10-26T11:57:59.000Z</time>
      </trkpt>
      <trkpt lat="43.52019" lon="6.32943">
        <ele>334.5</ele>
        <time>2021-10-26T11:58:02.000Z</time>
      </trkpt>
      <trkpt lat="43.52023" lon="6.32949">
        <ele>334.3</ele>
        <time>2021-10-26T11:58:05.000Z</time>
      </trkpt>
      <trkpt lat="43.52026" lon="6.32954">
        <ele>334.4</ele>
        <time>2021-10-26T11:58:08.000Z</time>
      </trkpt>
      <trkpt lat="43.5203" lon="6.32959">
        <ele>334.7</ele>
        <time>2021-10-26T11:58:12.000Z</time>
      </trkpt>
      <trkpt lat="43.52034" lon="6.32963">
        <ele>334.8</ele>
        <time>2021-10-26T11:58:16.000Z</time>
      </trkpt>
      <trkpt lat="43.52038" lon="6.32963">
        <ele>335</ele>
        <time>2021-10-26T11:58:20.000Z</time>
      </trkpt>
      <trkpt lat="43.52044" lon="6.32962">
        <ele>335.7</ele>
        <time>2021-10-26T11:58:24.000Z</time>
      </trkpt>
      <trkpt lat="43.52049" lon="6.32959">
        <ele>336.2</ele>
        <time>2021-10-26T11:58:28.000Z</time>
      </trkpt>
      <trkpt lat="43.52052" lon="6.32955">
        <ele>336.7</ele>
        <time>2021-10-26T11:58:31.000Z</time>
      </trkpt>
      <trkpt lat="43.52055" lon="6.32951">
        <ele>337.1</ele>
        <time>2021-10-26T11:58:35.000Z</time>
      </trkpt>
      <trkpt lat="43.52059" lon="6.32946">
        <ele>337.6</ele>
        <time>2021-10-26T11:58:40.000Z</time>
      </trkpt>
      <trkpt lat="43.52063" lon="6.32942">
        <ele>338.1</ele>
        <time>2021-10-26T11:58:45.000Z</time>
      </trkpt>
      <trkpt lat="43.52067" lon="6.32936">
        <ele>338.7</ele>
        <time>2021-10-26T11:58:49.000Z</time>
      </trkpt>
      <trkpt lat="43.5207" lon="6.32929">
        <ele>339.1</ele>
        <time>2021-10-26T11:58:53.000Z</time>
      </trkpt>
      <trkpt lat="43.52074" lon="6.32925">
        <ele>339.4</ele>
        <time>2021-10-26T11:58:57.000Z</time>
      </trkpt>
      <trkpt lat="43.52076" lon="6.32918">
        <ele>339.6</ele>
        <time>2021-10-26T11:59:00.000Z</time>
      </trkpt>
      <trkpt lat="43.52079" lon="6.32913">
        <ele>339.7</ele>
        <time>2021-10-26T11:59:03.000Z</time>
      </trkpt>
      <trkpt lat="43.52082" lon="6.32907">
        <ele>339.9</ele>
        <time>2021-10-26T11:59:07.000Z</time>
      </trkpt>
      <trkpt lat="43.52085" lon="6.32901">
        <ele>340.1</ele>
        <time>2021-10-26T11:59:10.000Z</time>
      </trkpt>
      <trkpt lat="43.52089" lon="6.32895">
        <ele>340.4</ele>
        <time>2021-10-26T11:59:14.000Z</time>
      </trkpt>
      <trkpt lat="43.52092" lon="6.32891">
        <ele>340.6</ele>
        <time>2021-10-26T11:59:18.000Z</time>
      </trkpt>
      <trkpt lat="43.52095" lon="6.32887">
        <ele>340.6</ele>
        <time>2021-10-26T11:59:22.000Z</time>
      </trkpt>
      <trkpt lat="43.52099" lon="6.32881">
        <ele>340.7</ele>
        <time>2021-10-26T11:59:25.000Z</time>
      </trkpt>
      <trkpt lat="43.52102" lon="6.32876">
        <ele>340.8</ele>
        <time>2021-10-26T11:59:27.000Z</time>
      </trkpt>
      <trkpt lat="43.52105" lon="6.32869">
        <ele>341</ele>
        <time>2021-10-26T11:59:30.000Z</time>
      </trkpt>
      <trkpt lat="43.52108" lon="6.32865">
        <ele>341.4</ele>
        <time>2021-10-26T11:59:33.000Z</time>
      </trkpt>
      <trkpt lat="43.5211" lon="6.32859">
        <ele>341.5</ele>
        <time>2021-10-26T11:59:36.000Z</time>
      </trkpt>
      <trkpt lat="43.52112" lon="6.32853">
        <ele>341.6</ele>
        <time>2021-10-26T11:59:39.000Z</time>
      </trkpt>
      <trkpt lat="43.52114" lon="6.32844">
        <ele>341.3</ele>
        <time>2021-10-26T11:59:42.000Z</time>
      </trkpt>
      <trkpt lat="43.52115" lon="6.32836">
        <ele>341.2</ele>
        <time>2021-10-26T11:59:45.000Z</time>
      </trkpt>
      <trkpt lat="43.52117" lon="6.32829">
        <ele>341.2</ele>
        <time>2021-10-26T11:59:48.000Z</time>
      </trkpt>
      <trkpt lat="43.5212" lon="6.32823">
        <ele>341.3</ele>
        <time>2021-10-26T11:59:52.000Z</time>
      </trkpt>
      <trkpt lat="43.52123" lon="6.32817">
        <ele>341.7</ele>
        <time>2021-10-26T11:59:56.000Z</time>
      </trkpt>
      <trkpt lat="43.52126" lon="6.32811">
        <ele>341.6</ele>
        <time>2021-10-26T11:59:59.000Z</time>
      </trkpt>
      <trkpt lat="43.52129" lon="6.32806">
        <ele>341.4</ele>
        <time>2021-10-26T12:00:02.000Z</time>
      </trkpt>
      <trkpt lat="43.52132" lon="6.32799">
        <ele>341.4</ele>
        <time>2021-10-26T12:00:05.000Z</time>
      </trkpt>
      <trkpt lat="43.52135" lon="6.32792">
        <ele>341.4</ele>
        <time>2021-10-26T12:00:08.000Z</time>
      </trkpt>
      <trkpt lat="43.52138" lon="6.32787">
        <ele>341.4</ele>
        <time>2021-10-26T12:00:11.000Z</time>
      </trkpt>
      <trkpt lat="43.52142" lon="6.32782">
        <ele>341.3</ele>
        <time>2021-10-26T12:00:14.000Z</time>
      </trkpt>
      <trkpt lat="43.52146" lon="6.32777">
        <ele>341.3</ele>
        <time>2021-10-26T12:00:17.000Z</time>
      </trkpt>
      <trkpt lat="43.5215" lon="6.32773">
        <ele>341.3</ele>
        <time>2021-10-26T12:00:20.000Z</time>
      </trkpt>
      <trkpt lat="43.52154" lon="6.3277">
        <ele>341.4</ele>
        <time>2021-10-26T12:00:23.000Z</time>
      </trkpt>
      <trkpt lat="43.52159" lon="6.32768">
        <ele>341.6</ele>
        <time>2021-10-26T12:00:26.000Z</time>
      </trkpt>
      <trkpt lat="43.52164" lon="6.32767">
        <ele>341.7</ele>
        <time>2021-10-26T12:00:29.000Z</time>
      </trkpt>
      <trkpt lat="43.52169" lon="6.32764">
        <ele>341.9</ele>
        <time>2021-10-26T12:00:33.000Z</time>
      </trkpt>
      <trkpt lat="43.52174" lon="6.32764">
        <ele>342.2</ele>
        <time>2021-10-26T12:00:37.000Z</time>
      </trkpt>
      <trkpt lat="43.5218" lon="6.32765">
        <ele>342.5</ele>
        <time>2021-10-26T12:00:41.000Z</time>
      </trkpt>
      <trkpt lat="43.52184" lon="6.32767">
        <ele>342.9</ele>
        <time>2021-10-26T12:00:45.000Z</time>
      </trkpt>
      <trkpt lat="43.52189" lon="6.32769">
        <ele>343.2</ele>
        <time>2021-10-26T12:00:49.000Z</time>
      </trkpt>
      <trkpt lat="43.52194" lon="6.32769">
        <ele>343.4</ele>
        <time>2021-10-26T12:00:52.000Z</time>
      </trkpt>
      <trkpt lat="43.52199" lon="6.32768">
        <ele>343.8</ele>
        <time>2021-10-26T12:00:55.000Z</time>
      </trkpt>
      <trkpt lat="43.52204" lon="6.32769">
        <ele>344.2</ele>
        <time>2021-10-26T12:00:58.000Z</time>
      </trkpt>
      <trkpt lat="43.52209" lon="6.32768">
        <ele>344.5</ele>
        <time>2021-10-26T12:01:01.000Z</time>
      </trkpt>
      <trkpt lat="43.52215" lon="6.32768">
        <ele>344.9</ele>
        <time>2021-10-26T12:01:05.000Z</time>
      </trkpt>
      <trkpt lat="43.5222" lon="6.32769">
        <ele>345.2</ele>
        <time>2021-10-26T12:01:09.000Z</time>
      </trkpt>
      <trkpt lat="43.52226" lon="6.32769">
        <ele>345.7</ele>
        <time>2021-10-26T12:01:13.000Z</time>
      </trkpt>
      <trkpt lat="43.5223" lon="6.32769">
        <ele>346</ele>
        <time>2021-10-26T12:01:16.000Z</time>
      </trkpt>
      <trkpt lat="43.52235" lon="6.32767">
        <ele>346</ele>
        <time>2021-10-26T12:01:20.000Z</time>
      </trkpt>
      <trkpt lat="43.5224" lon="6.32767">
        <ele>346.1</ele>
        <time>2021-10-26T12:01:24.000Z</time>
      </trkpt>
      <trkpt lat="43.52246" lon="6.32765">
        <ele>346.3</ele>
        <time>2021-10-26T12:01:27.000Z</time>
      </trkpt>
      <trkpt lat="43.52251" lon="6.32763">
        <ele>345.8</ele>
        <time>2021-10-26T12:01:32.000Z</time>
      </trkpt>
      <trkpt lat="43.52255" lon="6.32759">
        <ele>345.5</ele>
        <time>2021-10-26T12:01:35.000Z</time>
      </trkpt>
      <trkpt lat="43.5226" lon="6.32757">
        <ele>345.4</ele>
        <time>2021-10-26T12:01:39.000Z</time>
      </trkpt>
      <trkpt lat="43.52264" lon="6.32753">
        <ele>344.8</ele>
        <time>2021-10-26T12:01:43.000Z</time>
      </trkpt>
      <trkpt lat="43.52268" lon="6.3275">
        <ele>344.6</ele>
        <time>2021-10-26T12:01:47.000Z</time>
      </trkpt>
      <trkpt lat="43.52272" lon="6.32747">
        <ele>344.6</ele>
        <time>2021-10-26T12:01:50.000Z</time>
      </trkpt>
      <trkpt lat="43.52277" lon="6.32746">
        <ele>344.5</ele>
        <time>2021-10-26T12:01:53.000Z</time>
      </trkpt>
      <trkpt lat="43.52282" lon="6.32743">
        <ele>344.6</ele>
        <time>2021-10-26T12:01:57.000Z</time>
      </trkpt>
      <trkpt lat="43.52288" lon="6.3274">
        <ele>344.4</ele>
        <time>2021-10-26T12:02:01.000Z</time>
      </trkpt>
      <trkpt lat="43.52292" lon="6.32741">
        <ele>344.4</ele>
        <time>2021-10-26T12:02:05.000Z</time>
      </trkpt>
      <trkpt lat="43.52298" lon="6.32741">
        <ele>344.3</ele>
        <time>2021-10-26T12:02:08.000Z</time>
      </trkpt>
      <trkpt lat="43.52303" lon="6.32741">
        <ele>344.4</ele>
        <time>2021-10-26T12:02:12.000Z</time>
      </trkpt>
      <trkpt lat="43.52309" lon="6.32738">
        <ele>344.5</ele>
        <time>2021-10-26T12:02:15.000Z</time>
      </trkpt>
      <trkpt lat="43.52314" lon="6.32735">
        <ele>344.5</ele>
        <time>2021-10-26T12:02:17.000Z</time>
      </trkpt>
      <trkpt lat="43.52319" lon="6.32731">
        <ele>344.3</ele>
        <time>2021-10-26T12:02:20.000Z</time>
      </trkpt>
      <trkpt lat="43.52325" lon="6.32727">
        <ele>344.1</ele>
        <time>2021-10-26T12:02:23.000Z</time>
      </trkpt>
      <trkpt lat="43.52331" lon="6.32724">
        <ele>344.2</ele>
        <time>2021-10-26T12:02:26.000Z</time>
      </trkpt>
      <trkpt lat="43.52337" lon="6.32722">
        <ele>344.4</ele>
        <time>2021-10-26T12:02:29.000Z</time>
      </trkpt>
      <trkpt lat="43.52342" lon="6.32719">
        <ele>344.5</ele>
        <time>2021-10-26T12:02:32.000Z</time>
      </trkpt>
      <trkpt lat="43.52347" lon="6.32717">
        <ele>344.3</ele>
        <time>2021-10-26T12:02:35.000Z</time>
      </trkpt>
      <trkpt lat="43.52352" lon="6.32714">
        <ele>344.1</ele>
        <time>2021-10-26T12:02:38.000Z</time>
      </trkpt>
      <trkpt lat="43.52357" lon="6.32712">
        <ele>344</ele>
        <time>2021-10-26T12:02:41.000Z</time>
      </trkpt>
      <trkpt lat="43.52363" lon="6.3271">
        <ele>344</ele>
        <time>2021-10-26T12:02:45.000Z</time>
      </trkpt>
      <trkpt lat="43.52367" lon="6.32707">
        <ele>344.2</ele>
        <time>2021-10-26T12:02:48.000Z</time>
      </trkpt>
      <trkpt lat="43.52372" lon="6.32705">
        <ele>344.3</ele>
        <time>2021-10-26T12:02:51.000Z</time>
      </trkpt>
      <trkpt lat="43.52376" lon="6.32703">
        <ele>344.3</ele>
        <time>2021-10-26T12:02:54.000Z</time>
      </trkpt>
      <trkpt lat="43.5238" lon="6.327">
        <ele>344.6</ele>
        <time>2021-10-26T12:02:57.000Z</time>
      </trkpt>
      <trkpt lat="43.52385" lon="6.32698">
        <ele>344.5</ele>
        <time>2021-10-26T12:03:00.000Z</time>
      </trkpt>
      <trkpt lat="43.52391" lon="6.32695">
        <ele>344.3</ele>
        <time>2021-10-26T12:03:04.000Z</time>
      </trkpt>
      <trkpt lat="43.52396" lon="6.32693">
        <ele>344.3</ele>
        <time>2021-10-26T12:03:08.000Z</time>
      </trkpt>
      <trkpt lat="43.52401" lon="6.32691">
        <ele>344.4</ele>
        <time>2021-10-26T12:03:11.000Z</time>
      </trkpt>
      <trkpt lat="43.52406" lon="6.3269">
        <ele>344.4</ele>
        <time>2021-10-26T12:03:14.000Z</time>
      </trkpt>
      <trkpt lat="43.5241" lon="6.32688">
        <ele>344.3</ele>
        <time>2021-10-26T12:03:17.000Z</time>
      </trkpt>
      <trkpt lat="43.52415" lon="6.32686">
        <ele>344.5</ele>
        <time>2021-10-26T12:03:20.000Z</time>
      </trkpt>
      <trkpt lat="43.5242" lon="6.32683">
        <ele>344.6</ele>
        <time>2021-10-26T12:03:24.000Z</time>
      </trkpt>
      <trkpt lat="43.52425" lon="6.32681">
        <ele>344.4</ele>
        <time>2021-10-26T12:03:27.000Z</time>
      </trkpt>
      <trkpt lat="43.52431" lon="6.32679">
        <ele>344.6</ele>
        <time>2021-10-26T12:03:31.000Z</time>
      </trkpt>
      <trkpt lat="43.52436" lon="6.32677">
        <ele>344.7</ele>
        <time>2021-10-26T12:03:34.000Z</time>
      </trkpt>
      <trkpt lat="43.52441" lon="6.32674">
        <ele>344.8</ele>
        <time>2021-10-26T12:03:38.000Z</time>
      </trkpt>
      <trkpt lat="43.52446" lon="6.32671">
        <ele>344.9</ele>
        <time>2021-10-26T12:03:42.000Z</time>
      </trkpt>
      <trkpt lat="43.5245" lon="6.32668">
        <ele>344.9</ele>
        <time>2021-10-26T12:03:45.000Z</time>
      </trkpt>
      <trkpt lat="43.52455" lon="6.32665">
        <ele>345.1</ele>
        <time>2021-10-26T12:03:49.000Z</time>
      </trkpt>
      <trkpt lat="43.5246" lon="6.32663">
        <ele>345.2</ele>
        <time>2021-10-26T12:03:52.000Z</time>
      </trkpt>
      <trkpt lat="43.52465" lon="6.3266">
        <ele>345.3</ele>
        <time>2021-10-26T12:03:56.000Z</time>
      </trkpt>
      <trkpt lat="43.5247" lon="6.32658">
        <ele>345.6</ele>
        <time>2021-10-26T12:03:59.000Z</time>
      </trkpt>
      <trkpt lat="43.52475" lon="6.32655">
        <ele>345.5</ele>
        <time>2021-10-26T12:04:03.000Z</time>
      </trkpt>
      <trkpt lat="43.5248" lon="6.32653">
        <ele>345.6</ele>
        <time>2021-10-26T12:04:06.000Z</time>
      </trkpt>
      <trkpt lat="43.52484" lon="6.3265">
        <ele>345.9</ele>
        <time>2021-10-26T12:04:09.000Z</time>
      </trkpt>
      <trkpt lat="43.52489" lon="6.32648">
        <ele>346</ele>
        <time>2021-10-26T12:04:13.000Z</time>
      </trkpt>
      <trkpt lat="43.52493" lon="6.32645">
        <ele>346</ele>
        <time>2021-10-26T12:04:16.000Z</time>
      </trkpt>
      <trkpt lat="43.52498" lon="6.32642">
        <ele>346.1</ele>
        <time>2021-10-26T12:04:19.000Z</time>
      </trkpt>
      <trkpt lat="43.52502" lon="6.3264">
        <ele>346.1</ele>
        <time>2021-10-26T12:04:22.000Z</time>
      </trkpt>
      <trkpt lat="43.52507" lon="6.32637">
        <ele>346.4</ele>
        <time>2021-10-26T12:04:26.000Z</time>
      </trkpt>
      <trkpt lat="43.52512" lon="6.32637">
        <ele>346.6</ele>
        <time>2021-10-26T12:04:29.000Z</time>
      </trkpt>
      <trkpt lat="43.52516" lon="6.32634">
        <ele>346.5</ele>
        <time>2021-10-26T12:04:32.000Z</time>
      </trkpt>
      <trkpt lat="43.52522" lon="6.32632">
        <ele>346.3</ele>
        <time>2021-10-26T12:04:36.000Z</time>
      </trkpt>
      <trkpt lat="43.52526" lon="6.32629">
        <ele>346.1</ele>
        <time>2021-10-26T12:04:39.000Z</time>
      </trkpt>
      <trkpt lat="43.52531" lon="6.32625">
        <ele>346.1</ele>
        <time>2021-10-26T12:04:43.000Z</time>
      </trkpt>
      <trkpt lat="43.52536" lon="6.32621">
        <ele>346</ele>
        <time>2021-10-26T12:04:47.000Z</time>
      </trkpt>
      <trkpt lat="43.52541" lon="6.3262">
        <ele>346.1</ele>
        <time>2021-10-26T12:04:50.000Z</time>
      </trkpt>
      <trkpt lat="43.52546" lon="6.32617">
        <ele>345.9</ele>
        <time>2021-10-26T12:04:54.000Z</time>
      </trkpt>
      <trkpt lat="43.52552" lon="6.32617">
        <ele>345.8</ele>
        <time>2021-10-26T12:04:58.000Z</time>
      </trkpt>
      <trkpt lat="43.52556" lon="6.32613">
        <ele>345.9</ele>
        <time>2021-10-26T12:05:03.000Z</time>
      </trkpt>
      <trkpt lat="43.52558" lon="6.32607">
        <ele>346.3</ele>
        <time>2021-10-26T12:05:08.000Z</time>
      </trkpt>
      <trkpt lat="43.52561" lon="6.326">
        <ele>346.6</ele>
        <time>2021-10-26T12:05:12.000Z</time>
      </trkpt>
      <trkpt lat="43.52565" lon="6.32595">
        <ele>347</ele>
        <time>2021-10-26T12:05:16.000Z</time>
      </trkpt>
      <trkpt lat="43.52568" lon="6.32589">
        <ele>347.5</ele>
        <time>2021-10-26T12:05:20.000Z</time>
      </trkpt>
      <trkpt lat="43.52573" lon="6.32585">
        <ele>347.8</ele>
        <time>2021-10-26T12:05:24.000Z</time>
      </trkpt>
      <trkpt lat="43.52577" lon="6.32582">
        <ele>348</ele>
        <time>2021-10-26T12:05:27.000Z</time>
      </trkpt>
      <trkpt lat="43.52582" lon="6.32579">
        <ele>348.2</ele>
        <time>2021-10-26T12:05:30.000Z</time>
      </trkpt>
      <trkpt lat="43.52586" lon="6.32576">
        <ele>348.4</ele>
        <time>2021-10-26T12:05:34.000Z</time>
      </trkpt>
      <trkpt lat="43.52589" lon="6.3257">
        <ele>348.4</ele>
        <time>2021-10-26T12:05:40.000Z</time>
      </trkpt>
      <trkpt lat="43.52591" lon="6.32564">
        <ele>348.3</ele>
        <time>2021-10-26T12:05:45.000Z</time>
      </trkpt>
      <trkpt lat="43.52591" lon="6.32558">
        <ele>348.2</ele>
        <time>2021-10-26T12:05:48.000Z</time>
      </trkpt>
      <trkpt lat="43.52591" lon="6.32551">
        <ele>348.1</ele>
        <time>2021-10-26T12:05:51.000Z</time>
      </trkpt>
      <trkpt lat="43.52591" lon="6.32545">
        <ele>348.1</ele>
        <time>2021-10-26T12:05:54.000Z</time>
      </trkpt>
      <trkpt lat="43.52591" lon="6.32537">
        <ele>348</ele>
        <time>2021-10-26T12:05:58.000Z</time>
      </trkpt>
      <trkpt lat="43.5259" lon="6.3253">
        <ele>348</ele>
        <time>2021-10-26T12:06:01.000Z</time>
      </trkpt>
      <trkpt lat="43.52588" lon="6.32524">
        <ele>348</ele>
        <time>2021-10-26T12:06:04.000Z</time>
      </trkpt>
      <trkpt lat="43.52585" lon="6.32518">
        <ele>348</ele>
        <time>2021-10-26T12:06:09.000Z</time>
      </trkpt>
      <trkpt lat="43.52583" lon="6.32511">
        <ele>348.2</ele>
        <time>2021-10-26T12:06:13.000Z</time>
      </trkpt>
      <trkpt lat="43.52582" lon="6.32505">
        <ele>348.4</ele>
        <time>2021-10-26T12:06:17.000Z</time>
      </trkpt>
      <trkpt lat="43.52579" lon="6.32498">
        <ele>348.2</ele>
        <time>2021-10-26T12:06:22.000Z</time>
      </trkpt>
      <trkpt lat="43.52581" lon="6.32492">
        <ele>348.3</ele>
        <time>2021-10-26T12:06:25.000Z</time>
      </trkpt>
      <trkpt lat="43.52583" lon="6.32486">
        <ele>348.3</ele>
        <time>2021-10-26T12:06:28.000Z</time>
      </trkpt>
      <trkpt lat="43.52581" lon="6.3248">
        <ele>348.1</ele>
        <time>2021-10-26T12:06:31.000Z</time>
      </trkpt>
      <trkpt lat="43.52581" lon="6.32473">
        <ele>348</ele>
        <time>2021-10-26T12:06:34.000Z</time>
      </trkpt>
      <trkpt lat="43.52582" lon="6.32467">
        <ele>347.8</ele>
        <time>2021-10-26T12:06:37.000Z</time>
      </trkpt>
      <trkpt lat="43.52584" lon="6.32461">
        <ele>347.9</ele>
        <time>2021-10-26T12:06:40.000Z</time>
      </trkpt>
      <trkpt lat="43.52586" lon="6.32455">
        <ele>348.2</ele>
        <time>2021-10-26T12:06:43.000Z</time>
      </trkpt>
      <trkpt lat="43.52587" lon="6.32446">
        <ele>348.2</ele>
        <time>2021-10-26T12:06:47.000Z</time>
      </trkpt>
      <trkpt lat="43.52588" lon="6.32439">
        <ele>348</ele>
        <time>2021-10-26T12:06:50.000Z</time>
      </trkpt>
      <trkpt lat="43.52589" lon="6.32433">
        <ele>347.7</ele>
        <time>2021-10-26T12:06:53.000Z</time>
      </trkpt>
      <trkpt lat="43.52591" lon="6.32426">
        <ele>347.5</ele>
        <time>2021-10-26T12:07:00.000Z</time>
      </trkpt>
      <trkpt lat="43.52594" lon="6.32419">
        <ele>347.6</ele>
        <time>2021-10-26T12:07:04.000Z</time>
      </trkpt>
      <trkpt lat="43.52596" lon="6.32413">
        <ele>347.7</ele>
        <time>2021-10-26T12:07:07.000Z</time>
      </trkpt>
      <trkpt lat="43.52599" lon="6.32408">
        <ele>347.8</ele>
        <time>2021-10-26T12:07:09.000Z</time>
      </trkpt>
      <trkpt lat="43.52601" lon="6.32401">
        <ele>347.7</ele>
        <time>2021-10-26T12:07:12.000Z</time>
      </trkpt>
      <trkpt lat="43.52604" lon="6.32394">
        <ele>347.6</ele>
        <time>2021-10-26T12:07:16.000Z</time>
      </trkpt>
      <trkpt lat="43.52605" lon="6.32388">
        <ele>347.6</ele>
        <time>2021-10-26T12:07:19.000Z</time>
      </trkpt>
      <trkpt lat="43.52607" lon="6.3238">
        <ele>347.8</ele>
        <time>2021-10-26T12:07:22.000Z</time>
      </trkpt>
      <trkpt lat="43.52608" lon="6.32373">
        <ele>347.8</ele>
        <time>2021-10-26T12:07:25.000Z</time>
      </trkpt>
      <trkpt lat="43.52606" lon="6.32367">
        <ele>347.8</ele>
        <time>2021-10-26T12:07:29.000Z</time>
      </trkpt>
      <trkpt lat="43.52605" lon="6.32361">
        <ele>347.8</ele>
        <time>2021-10-26T12:07:32.000Z</time>
      </trkpt>
      <trkpt lat="43.52606" lon="6.32354">
        <ele>347.7</ele>
        <time>2021-10-26T12:07:36.000Z</time>
      </trkpt>
      <trkpt lat="43.52605" lon="6.32347">
        <ele>347.7</ele>
        <time>2021-10-26T12:07:40.000Z</time>
      </trkpt>
      <trkpt lat="43.52603" lon="6.3234">
        <ele>348.2</ele>
        <time>2021-10-26T12:07:45.000Z</time>
      </trkpt>
      <trkpt lat="43.52602" lon="6.32332">
        <ele>348.5</ele>
        <time>2021-10-26T12:07:49.000Z</time>
      </trkpt>
      <trkpt lat="43.52602" lon="6.32325">
        <ele>349</ele>
        <time>2021-10-26T12:07:55.000Z</time>
      </trkpt>
      <trkpt lat="43.52604" lon="6.32319">
        <ele>349.3</ele>
        <time>2021-10-26T12:08:00.000Z</time>
      </trkpt>
      <trkpt lat="43.52602" lon="6.32312">
        <ele>349.6</ele>
        <time>2021-10-26T12:08:04.000Z</time>
      </trkpt>
      <trkpt lat="43.52599" lon="6.32305">
        <ele>350.2</ele>
        <time>2021-10-26T12:08:07.000Z</time>
      </trkpt>
      <trkpt lat="43.52597" lon="6.32299">
        <ele>350.5</ele>
        <time>2021-10-26T12:08:10.000Z</time>
      </trkpt>
      <trkpt lat="43.52595" lon="6.32294">
        <ele>350.8</ele>
        <time>2021-10-26T12:08:13.000Z</time>
      </trkpt>
      <trkpt lat="43.52597" lon="6.32288">
        <ele>351</ele>
        <time>2021-10-26T12:08:16.000Z</time>
      </trkpt>
      <trkpt lat="43.526" lon="6.32282">
        <ele>350.8</ele>
        <time>2021-10-26T12:08:20.000Z</time>
      </trkpt>
      <trkpt lat="43.52602" lon="6.32276">
        <ele>351</ele>
        <time>2021-10-26T12:08:24.000Z</time>
      </trkpt>
      <trkpt lat="43.52602" lon="6.3227">
        <ele>351.2</ele>
        <time>2021-10-26T12:08:26.000Z</time>
      </trkpt>
      <trkpt lat="43.52605" lon="6.32263">
        <ele>351.6</ele>
        <time>2021-10-26T12:08:30.000Z</time>
      </trkpt>
      <trkpt lat="43.52609" lon="6.32256">
        <ele>352</ele>
        <time>2021-10-26T12:08:34.000Z</time>
      </trkpt>
      <trkpt lat="43.52613" lon="6.32252">
        <ele>352.5</ele>
        <time>2021-10-26T12:08:39.000Z</time>
      </trkpt>
      <trkpt lat="43.52617" lon="6.32251">
        <ele>352.6</ele>
        <time>2021-10-26T12:08:42.000Z</time>
      </trkpt>
      <trkpt lat="43.52622" lon="6.32248">
        <ele>352.7</ele>
        <time>2021-10-26T12:08:45.000Z</time>
      </trkpt>
      <trkpt lat="43.52626" lon="6.32243">
        <ele>352.8</ele>
        <time>2021-10-26T12:08:49.000Z</time>
      </trkpt>
      <trkpt lat="43.52631" lon="6.32237">
        <ele>352.9</ele>
        <time>2021-10-26T12:08:53.000Z</time>
      </trkpt>
      <trkpt lat="43.52635" lon="6.32232">
        <ele>353.1</ele>
        <time>2021-10-26T12:08:56.000Z</time>
      </trkpt>
      <trkpt lat="43.52639" lon="6.32227">
        <ele>353.2</ele>
        <time>2021-10-26T12:09:00.000Z</time>
      </trkpt>
      <trkpt lat="43.52641" lon="6.3222">
        <ele>353.2</ele>
        <time>2021-10-26T12:09:03.000Z</time>
      </trkpt>
      <trkpt lat="43.52644" lon="6.32213">
        <ele>353.5</ele>
        <time>2021-10-26T12:09:07.000Z</time>
      </trkpt>
      <trkpt lat="43.52645" lon="6.32206">
        <ele>353.8</ele>
        <time>2021-10-26T12:09:12.000Z</time>
      </trkpt>
      <trkpt lat="43.52648" lon="6.32199">
        <ele>354.1</ele>
        <time>2021-10-26T12:09:16.000Z</time>
      </trkpt>
      <trkpt lat="43.5265" lon="6.32191">
        <ele>354.2</ele>
        <time>2021-10-26T12:09:19.000Z</time>
      </trkpt>
      <trkpt lat="43.52654" lon="6.32185">
        <ele>354.2</ele>
        <time>2021-10-26T12:09:21.000Z</time>
      </trkpt>
      <trkpt lat="43.52655" lon="6.32179">
        <ele>354.2</ele>
        <time>2021-10-26T12:09:24.000Z</time>
      </trkpt>
      <trkpt lat="43.52657" lon="6.32172">
        <ele>354.3</ele>
        <time>2021-10-26T12:09:28.000Z</time>
      </trkpt>
      <trkpt lat="43.52659" lon="6.32164">
        <ele>354.4</ele>
        <time>2021-10-26T12:09:31.000Z</time>
      </trkpt>
      <trkpt lat="43.52662" lon="6.32159">
        <ele>354.4</ele>
        <time>2021-10-26T12:09:33.000Z</time>
      </trkpt>
      <trkpt lat="43.52664" lon="6.32152">
        <ele>354.7</ele>
        <time>2021-10-26T12:09:38.000Z</time>
      </trkpt>
      <trkpt lat="43.52666" lon="6.32145">
        <ele>354.8</ele>
        <time>2021-10-26T12:09:42.000Z</time>
      </trkpt>
      <trkpt lat="43.52668" lon="6.32139">
        <ele>355</ele>
        <time>2021-10-26T12:09:46.000Z</time>
      </trkpt>
      <trkpt lat="43.52671" lon="6.32133">
        <ele>355.1</ele>
        <time>2021-10-26T12:09:49.000Z</time>
      </trkpt>
      <trkpt lat="43.52672" lon="6.32126">
        <ele>355.7</ele>
        <time>2021-10-26T12:09:54.000Z</time>
      </trkpt>
      <trkpt lat="43.52675" lon="6.3212">
        <ele>356.2</ele>
        <time>2021-10-26T12:09:58.000Z</time>
      </trkpt>
      <trkpt lat="43.52677" lon="6.32115">
        <ele>356.5</ele>
        <time>2021-10-26T12:10:01.000Z</time>
      </trkpt>
      <trkpt lat="43.52679" lon="6.32107">
        <ele>357</ele>
        <time>2021-10-26T12:10:06.000Z</time>
      </trkpt>
      <trkpt lat="43.5268" lon="6.321">
        <ele>357.7</ele>
        <time>2021-10-26T12:10:10.000Z</time>
      </trkpt>
      <trkpt lat="43.52681" lon="6.32094">
        <ele>358.4</ele>
        <time>2021-10-26T12:10:15.000Z</time>
      </trkpt>
      <trkpt lat="43.52682" lon="6.32087">
        <ele>359</ele>
        <time>2021-10-26T12:10:21.000Z</time>
      </trkpt>
      <trkpt lat="43.52685" lon="6.32081">
        <ele>359.4</ele>
        <time>2021-10-26T12:10:26.000Z</time>
      </trkpt>
      <trkpt lat="43.52689" lon="6.32077">
        <ele>359.6</ele>
        <time>2021-10-26T12:10:29.000Z</time>
      </trkpt>
      <trkpt lat="43.52693" lon="6.32072">
        <ele>359.9</ele>
        <time>2021-10-26T12:10:32.000Z</time>
      </trkpt>
      <trkpt lat="43.52696" lon="6.32066">
        <ele>360</ele>
        <time>2021-10-26T12:10:36.000Z</time>
      </trkpt>
      <trkpt lat="43.52699" lon="6.32062">
        <ele>359.7</ele>
        <time>2021-10-26T12:10:42.000Z</time>
      </trkpt>
      <trkpt lat="43.52705" lon="6.32059">
        <ele>359.5</ele>
        <time>2021-10-26T12:10:46.000Z</time>
      </trkpt>
      <trkpt lat="43.5271" lon="6.32053">
        <ele>359.5</ele>
        <time>2021-10-26T12:10:49.000Z</time>
      </trkpt>
      <trkpt lat="43.52714" lon="6.32048">
        <ele>359.5</ele>
        <time>2021-10-26T12:10:51.000Z</time>
      </trkpt>
      <trkpt lat="43.52718" lon="6.32042">
        <ele>359.3</ele>
        <time>2021-10-26T12:10:55.000Z</time>
      </trkpt>
      <trkpt lat="43.52721" lon="6.32037">
        <ele>359.2</ele>
        <time>2021-10-26T12:10:59.000Z</time>
      </trkpt>
      <trkpt lat="43.52721" lon="6.3203">
        <ele>359.1</ele>
        <time>2021-10-26T12:11:04.000Z</time>
      </trkpt>
      <trkpt lat="43.52723" lon="6.32022">
        <ele>358.6</ele>
        <time>2021-10-26T12:11:08.000Z</time>
      </trkpt>
      <trkpt lat="43.52727" lon="6.32016">
        <ele>358.6</ele>
        <time>2021-10-26T12:11:11.000Z</time>
      </trkpt>
      <trkpt lat="43.52729" lon="6.3201">
        <ele>358.4</ele>
        <time>2021-10-26T12:11:14.000Z</time>
      </trkpt>
      <trkpt lat="43.52731" lon="6.32004">
        <ele>358.1</ele>
        <time>2021-10-26T12:11:18.000Z</time>
      </trkpt>
      <trkpt lat="43.52733" lon="6.31998">
        <ele>357.6</ele>
        <time>2021-10-26T12:11:21.000Z</time>
      </trkpt>
      <trkpt lat="43.52733" lon="6.31991">
        <ele>357.3</ele>
        <time>2021-10-26T12:11:24.000Z</time>
      </trkpt>
      <trkpt lat="43.52735" lon="6.31984">
        <ele>357</ele>
        <time>2021-10-26T12:11:27.000Z</time>
      </trkpt>
      <trkpt lat="43.52735" lon="6.31977">
        <ele>356.8</ele>
        <time>2021-10-26T12:11:31.000Z</time>
      </trkpt>
      <trkpt lat="43.52738" lon="6.3197">
        <ele>356.6</ele>
        <time>2021-10-26T12:11:36.000Z</time>
      </trkpt>
      <trkpt lat="43.52743" lon="6.31965">
        <ele>356.6</ele>
        <time>2021-10-26T12:11:39.000Z</time>
      </trkpt>
      <trkpt lat="43.52745" lon="6.31959">
        <ele>356.6</ele>
        <time>2021-10-26T12:11:41.000Z</time>
      </trkpt>
      <trkpt lat="43.52749" lon="6.31952">
        <ele>356.6</ele>
        <time>2021-10-26T12:11:44.000Z</time>
      </trkpt>
      <trkpt lat="43.52752" lon="6.31946">
        <ele>356.5</ele>
        <time>2021-10-26T12:11:47.000Z</time>
      </trkpt>
      <trkpt lat="43.52754" lon="6.31939">
        <ele>356.4</ele>
        <time>2021-10-26T12:11:51.000Z</time>
      </trkpt>
      <trkpt lat="43.52756" lon="6.31933">
        <ele>356.3</ele>
        <time>2021-10-26T12:11:55.000Z</time>
      </trkpt>
      <trkpt lat="43.52757" lon="6.31925">
        <ele>356.3</ele>
        <time>2021-10-26T12:11:58.000Z</time>
      </trkpt>
      <trkpt lat="43.52758" lon="6.31919">
        <ele>356.3</ele>
        <time>2021-10-26T12:12:00.000Z</time>
      </trkpt>
      <trkpt lat="43.52761" lon="6.31911">
        <ele>356.2</ele>
        <time>2021-10-26T12:12:03.000Z</time>
      </trkpt>
      <trkpt lat="43.52763" lon="6.31903">
        <ele>356.4</ele>
        <time>2021-10-26T12:12:08.000Z</time>
      </trkpt>
      <trkpt lat="43.52767" lon="6.31898">
        <ele>356.4</ele>
        <time>2021-10-26T12:12:12.000Z</time>
      </trkpt>
      <trkpt lat="43.52769" lon="6.3189">
        <ele>356.4</ele>
        <time>2021-10-26T12:12:16.000Z</time>
      </trkpt>
      <trkpt lat="43.5277" lon="6.31884">
        <ele>356.6</ele>
        <time>2021-10-26T12:12:20.000Z</time>
      </trkpt>
      <trkpt lat="43.52771" lon="6.31877">
        <ele>356.8</ele>
        <time>2021-10-26T12:12:24.000Z</time>
      </trkpt>
      <trkpt lat="43.52773" lon="6.3187">
        <ele>357</ele>
        <time>2021-10-26T12:12:27.000Z</time>
      </trkpt>
      <trkpt lat="43.52775" lon="6.31864">
        <ele>357.4</ele>
        <time>2021-10-26T12:12:30.000Z</time>
      </trkpt>
      <trkpt lat="43.52778" lon="6.31857">
        <ele>357.9</ele>
        <time>2021-10-26T12:12:34.000Z</time>
      </trkpt>
      <trkpt lat="43.5278" lon="6.31851">
        <ele>358.3</ele>
        <time>2021-10-26T12:12:37.000Z</time>
      </trkpt>
      <trkpt lat="43.52782" lon="6.31845">
        <ele>358.5</ele>
        <time>2021-10-26T12:12:40.000Z</time>
      </trkpt>
      <trkpt lat="43.52785" lon="6.31841">
        <ele>358.7</ele>
        <time>2021-10-26T12:12:43.000Z</time>
      </trkpt>
      <trkpt lat="43.52789" lon="6.31836">
        <ele>358.6</ele>
        <time>2021-10-26T12:12:46.000Z</time>
      </trkpt>
      <trkpt lat="43.52792" lon="6.31829">
        <ele>358.5</ele>
        <time>2021-10-26T12:12:49.000Z</time>
      </trkpt>
      <trkpt lat="43.52793" lon="6.31822">
        <ele>358.9</ele>
        <time>2021-10-26T12:12:53.000Z</time>
      </trkpt>
      <trkpt lat="43.52793" lon="6.31816">
        <ele>359.7</ele>
        <time>2021-10-26T12:12:59.000Z</time>
      </trkpt>
      <trkpt lat="43.52793" lon="6.31809">
        <ele>360.1</ele>
        <time>2021-10-26T12:13:04.000Z</time>
      </trkpt>
      <trkpt lat="43.52795" lon="6.31804">
        <ele>360.1</ele>
        <time>2021-10-26T12:13:08.000Z</time>
      </trkpt>
      <trkpt lat="43.528" lon="6.31798">
        <ele>360.4</ele>
        <time>2021-10-26T12:13:13.000Z</time>
      </trkpt>
      <trkpt lat="43.52803" lon="6.3179">
        <ele>360.4</ele>
        <time>2021-10-26T12:13:16.000Z</time>
      </trkpt>
      <trkpt lat="43.52805" lon="6.31784">
        <ele>360.6</ele>
        <time>2021-10-26T12:13:19.000Z</time>
      </trkpt>
      <trkpt lat="43.52807" lon="6.31778">
        <ele>360.7</ele>
        <time>2021-10-26T12:13:23.000Z</time>
      </trkpt>
      <trkpt lat="43.5281" lon="6.3177">
        <ele>360.9</ele>
        <time>2021-10-26T12:13:27.000Z</time>
      </trkpt>
      <trkpt lat="43.52813" lon="6.31765">
        <ele>360.9</ele>
        <time>2021-10-26T12:13:30.000Z</time>
      </trkpt>
      <trkpt lat="43.52815" lon="6.31759">
        <ele>360.9</ele>
        <time>2021-10-26T12:13:34.000Z</time>
      </trkpt>
      <trkpt lat="43.52816" lon="6.31751">
        <ele>361.1</ele>
        <time>2021-10-26T12:13:39.000Z</time>
      </trkpt>
      <trkpt lat="43.52819" lon="6.31745">
        <ele>361.3</ele>
        <time>2021-10-26T12:13:42.000Z</time>
      </trkpt>
      <trkpt lat="43.52821" lon="6.31739">
        <ele>361.3</ele>
        <time>2021-10-26T12:13:47.000Z</time>
      </trkpt>
      <trkpt lat="43.52824" lon="6.31732">
        <ele>361.3</ele>
        <time>2021-10-26T12:13:51.000Z</time>
      </trkpt>
      <trkpt lat="43.52828" lon="6.31729">
        <ele>361.3</ele>
        <time>2021-10-26T12:13:54.000Z</time>
      </trkpt>
      <trkpt lat="43.52831" lon="6.31723">
        <ele>361.4</ele>
        <time>2021-10-26T12:13:58.000Z</time>
      </trkpt>
      <trkpt lat="43.52835" lon="6.31717">
        <ele>361.5</ele>
        <time>2021-10-26T12:14:01.000Z</time>
      </trkpt>
      <trkpt lat="43.52836" lon="6.3171">
        <ele>361.5</ele>
        <time>2021-10-26T12:14:03.000Z</time>
      </trkpt>
      <trkpt lat="43.52838" lon="6.31703">
        <ele>361.6</ele>
        <time>2021-10-26T12:14:06.000Z</time>
      </trkpt>
      <trkpt lat="43.52839" lon="6.31695">
        <ele>361.6</ele>
        <time>2021-10-26T12:14:09.000Z</time>
      </trkpt>
      <trkpt lat="43.52839" lon="6.31689">
        <ele>361.7</ele>
        <time>2021-10-26T12:14:12.000Z</time>
      </trkpt>
      <trkpt lat="43.52839" lon="6.31682">
        <ele>362.1</ele>
        <time>2021-10-26T12:14:18.000Z</time>
      </trkpt>
      <trkpt lat="43.52841" lon="6.31675">
        <ele>362.3</ele>
        <time>2021-10-26T12:14:22.000Z</time>
      </trkpt>
      <trkpt lat="43.52843" lon="6.31669">
        <ele>362.6</ele>
        <time>2021-10-26T12:14:25.000Z</time>
      </trkpt>
      <trkpt lat="43.52843" lon="6.31661">
        <ele>363.1</ele>
        <time>2021-10-26T12:14:29.000Z</time>
      </trkpt>
      <trkpt lat="43.52846" lon="6.31654">
        <ele>363.4</ele>
        <time>2021-10-26T12:14:32.000Z</time>
      </trkpt>
      <trkpt lat="43.52849" lon="6.31649">
        <ele>363.6</ele>
        <time>2021-10-26T12:14:34.000Z</time>
      </trkpt>
      <trkpt lat="43.52852" lon="6.31642">
        <ele>363.7</ele>
        <time>2021-10-26T12:14:37.000Z</time>
      </trkpt>
      <trkpt lat="43.52854" lon="6.31636">
        <ele>363.9</ele>
        <time>2021-10-26T12:14:42.000Z</time>
      </trkpt>
      <trkpt lat="43.52857" lon="6.31628">
        <ele>364</ele>
        <time>2021-10-26T12:14:46.000Z</time>
      </trkpt>
      <trkpt lat="43.52859" lon="6.31621">
        <ele>364.1</ele>
        <time>2021-10-26T12:14:50.000Z</time>
      </trkpt>
      <trkpt lat="43.52859" lon="6.31615">
        <ele>364.3</ele>
        <time>2021-10-26T12:14:53.000Z</time>
      </trkpt>
      <trkpt lat="43.52858" lon="6.31608">
        <ele>364.7</ele>
        <time>2021-10-26T12:14:56.000Z</time>
      </trkpt>
      <trkpt lat="43.52858" lon="6.316">
        <ele>364.9</ele>
        <time>2021-10-26T12:14:59.000Z</time>
      </trkpt>
      <trkpt lat="43.52858" lon="6.31594">
        <ele>364.9</ele>
        <time>2021-10-26T12:15:03.000Z</time>
      </trkpt>
      <trkpt lat="43.5286" lon="6.31588">
        <ele>364.9</ele>
        <time>2021-10-26T12:15:07.000Z</time>
      </trkpt>
      <trkpt lat="43.52861" lon="6.31581">
        <ele>364.8</ele>
        <time>2021-10-26T12:15:10.000Z</time>
      </trkpt>
      <trkpt lat="43.52863" lon="6.31575">
        <ele>364.8</ele>
        <time>2021-10-26T12:15:13.000Z</time>
      </trkpt>
      <trkpt lat="43.52865" lon="6.31568">
        <ele>364.7</ele>
        <time>2021-10-26T12:15:16.000Z</time>
      </trkpt>
      <trkpt lat="43.52864" lon="6.3156">
        <ele>364.4</ele>
        <time>2021-10-26T12:15:21.000Z</time>
      </trkpt>
      <trkpt lat="43.52866" lon="6.31554">
        <ele>364.2</ele>
        <time>2021-10-26T12:15:24.000Z</time>
      </trkpt>
      <trkpt lat="43.52867" lon="6.31548">
        <ele>364.3</ele>
        <time>2021-10-26T12:15:27.000Z</time>
      </trkpt>
      <trkpt lat="43.52868" lon="6.3154">
        <ele>364.4</ele>
        <time>2021-10-26T12:15:30.000Z</time>
      </trkpt>
      <trkpt lat="43.52871" lon="6.31533">
        <ele>364.2</ele>
        <time>2021-10-26T12:15:33.000Z</time>
      </trkpt>
      <trkpt lat="43.52876" lon="6.31528">
        <ele>364.4</ele>
        <time>2021-10-26T12:15:36.000Z</time>
      </trkpt>
      <trkpt lat="43.52878" lon="6.31523">
        <ele>364.5</ele>
        <time>2021-10-26T12:15:39.000Z</time>
      </trkpt>
      <trkpt lat="43.5288" lon="6.31517">
        <ele>364.6</ele>
        <time>2021-10-26T12:15:43.000Z</time>
      </trkpt>
      <trkpt lat="43.52882" lon="6.31509">
        <ele>364.7</ele>
        <time>2021-10-26T12:15:48.000Z</time>
      </trkpt>
      <trkpt lat="43.52883" lon="6.31501">
        <ele>364.6</ele>
        <time>2021-10-26T12:15:51.000Z</time>
      </trkpt>
      <trkpt lat="43.52884" lon="6.31495">
        <ele>364.5</ele>
        <time>2021-10-26T12:15:54.000Z</time>
      </trkpt>
      <trkpt lat="43.52886" lon="6.31489">
        <ele>364.5</ele>
        <time>2021-10-26T12:15:57.000Z</time>
      </trkpt>
      <trkpt lat="43.52888" lon="6.31482">
        <ele>364.7</ele>
        <time>2021-10-26T12:16:00.000Z</time>
      </trkpt>
      <trkpt lat="43.52889" lon="6.31475">
        <ele>365</ele>
        <time>2021-10-26T12:16:04.000Z</time>
      </trkpt>
      <trkpt lat="43.52892" lon="6.31469">
        <ele>365.2</ele>
        <time>2021-10-26T12:16:08.000Z</time>
      </trkpt>
      <trkpt lat="43.52893" lon="6.31462">
        <ele>365.3</ele>
        <time>2021-10-26T12:16:13.000Z</time>
      </trkpt>
      <trkpt lat="43.52894" lon="6.31455">
        <ele>365.4</ele>
        <time>2021-10-26T12:16:17.000Z</time>
      </trkpt>
      <trkpt lat="43.52895" lon="6.31448">
        <ele>365.6</ele>
        <time>2021-10-26T12:16:20.000Z</time>
      </trkpt>
      <trkpt lat="43.52895" lon="6.3144">
        <ele>365.7</ele>
        <time>2021-10-26T12:16:24.000Z</time>
      </trkpt>
      <trkpt lat="43.52897" lon="6.31433">
        <ele>366</ele>
        <time>2021-10-26T12:16:27.000Z</time>
      </trkpt>
      <trkpt lat="43.52899" lon="6.31427">
        <ele>366.2</ele>
        <time>2021-10-26T12:16:30.000Z</time>
      </trkpt>
      <trkpt lat="43.52897" lon="6.3142">
        <ele>366.5</ele>
        <time>2021-10-26T12:16:35.000Z</time>
      </trkpt>
      <trkpt lat="43.52897" lon="6.31411">
        <ele>366.5</ele>
        <time>2021-10-26T12:16:39.000Z</time>
      </trkpt>
      <trkpt lat="43.52895" lon="6.31404">
        <ele>366.5</ele>
        <time>2021-10-26T12:16:43.000Z</time>
      </trkpt>
      <trkpt lat="43.52897" lon="6.31397">
        <ele>366.6</ele>
        <time>2021-10-26T12:16:48.000Z</time>
      </trkpt>
      <trkpt lat="43.52897" lon="6.31391">
        <ele>366.7</ele>
        <time>2021-10-26T12:16:54.000Z</time>
      </trkpt>
      <trkpt lat="43.52896" lon="6.31385">
        <ele>367</ele>
        <time>2021-10-26T12:17:04.000Z</time>
      </trkpt>
      <trkpt lat="43.52892" lon="6.31381">
        <ele>367.4</ele>
        <time>2021-10-26T12:17:10.000Z</time>
      </trkpt>
      <trkpt lat="43.52886" lon="6.31381">
        <ele>367.7</ele>
        <time>2021-10-26T12:17:15.000Z</time>
      </trkpt>
      <trkpt lat="43.5288" lon="6.31379">
        <ele>368.1</ele>
        <time>2021-10-26T12:17:20.000Z</time>
      </trkpt>
      <trkpt lat="43.52876" lon="6.31377">
        <ele>369.7</ele>
        <time>2021-10-26T12:17:29.000Z</time>
      </trkpt>
      <trkpt lat="43.52874" lon="6.31371">
        <ele>370.9</ele>
        <time>2021-10-26T12:17:35.000Z</time>
      </trkpt>
      <trkpt lat="43.52874" lon="6.31364">
        <ele>371.8</ele>
        <time>2021-10-26T12:17:39.000Z</time>
      </trkpt>
      <trkpt lat="43.52872" lon="6.31358">
        <ele>372.4</ele>
        <time>2021-10-26T12:17:43.000Z</time>
      </trkpt>
      <trkpt lat="43.5287" lon="6.31351">
        <ele>372.9</ele>
        <time>2021-10-26T12:17:47.000Z</time>
      </trkpt>
      <trkpt lat="43.5287" lon="6.31344">
        <ele>373.6</ele>
        <time>2021-10-26T12:17:51.000Z</time>
      </trkpt>
      <trkpt lat="43.52869" lon="6.31338">
        <ele>374.7</ele>
        <time>2021-10-26T12:17:56.000Z</time>
      </trkpt>
      <trkpt lat="43.52869" lon="6.31331">
        <ele>375.4</ele>
        <time>2021-10-26T12:18:00.000Z</time>
      </trkpt>
      <trkpt lat="43.52872" lon="6.31324">
        <ele>375.8</ele>
        <time>2021-10-26T12:18:03.000Z</time>
      </trkpt>
      <trkpt lat="43.52871" lon="6.31317">
        <ele>376.7</ele>
        <time>2021-10-26T12:18:08.000Z</time>
      </trkpt>
      <trkpt lat="43.52873" lon="6.3131">
        <ele>377.4</ele>
        <time>2021-10-26T12:18:12.000Z</time>
      </trkpt>
      <trkpt lat="43.52873" lon="6.31304">
        <ele>378.6</ele>
        <time>2021-10-26T12:18:18.000Z</time>
      </trkpt>
      <trkpt lat="43.52872" lon="6.31297">
        <ele>379.3</ele>
        <time>2021-10-26T12:18:22.000Z</time>
      </trkpt>
      <trkpt lat="43.52871" lon="6.3129">
        <ele>380.6</ele>
        <time>2021-10-26T12:18:27.000Z</time>
      </trkpt>
      <trkpt lat="43.52871" lon="6.31284">
        <ele>381.4</ele>
        <time>2021-10-26T12:18:31.000Z</time>
      </trkpt>
      <trkpt lat="43.52869" lon="6.31278">
        <ele>382</ele>
        <time>2021-10-26T12:18:35.000Z</time>
      </trkpt>
      <trkpt lat="43.52865" lon="6.31273">
        <ele>383</ele>
        <time>2021-10-26T12:18:40.000Z</time>
      </trkpt>
      <trkpt lat="43.52861" lon="6.3127">
        <ele>383.9</ele>
        <time>2021-10-26T12:18:45.000Z</time>
      </trkpt>
      <trkpt lat="43.52857" lon="6.31266">
        <ele>384.8</ele>
        <time>2021-10-26T12:18:50.000Z</time>
      </trkpt>
      <trkpt lat="43.52852" lon="6.31261">
        <ele>385.8</ele>
        <time>2021-10-26T12:18:56.000Z</time>
      </trkpt>
      <trkpt lat="43.52848" lon="6.31258">
        <ele>386.7</ele>
        <time>2021-10-26T12:19:02.000Z</time>
      </trkpt>
      <trkpt lat="43.52843" lon="6.31256">
        <ele>387.4</ele>
        <time>2021-10-26T12:19:07.000Z</time>
      </trkpt>
      <trkpt lat="43.52838" lon="6.31256">
        <ele>387.9</ele>
        <time>2021-10-26T12:19:11.000Z</time>
      </trkpt>
      <trkpt lat="43.52833" lon="6.31256">
        <ele>388.2</ele>
        <time>2021-10-26T12:19:15.000Z</time>
      </trkpt>
      <trkpt lat="43.52828" lon="6.31254">
        <ele>388.6</ele>
        <time>2021-10-26T12:19:19.000Z</time>
      </trkpt>
      <trkpt lat="43.52824" lon="6.3125">
        <ele>389.2</ele>
        <time>2021-10-26T12:19:24.000Z</time>
      </trkpt>
      <trkpt lat="43.52821" lon="6.31246">
        <ele>389.8</ele>
        <time>2021-10-26T12:19:30.000Z</time>
      </trkpt>
      <trkpt lat="43.52816" lon="6.31247">
        <ele>390.2</ele>
        <time>2021-10-26T12:19:36.000Z</time>
      </trkpt>
      <trkpt lat="43.52815" lon="6.3124">
        <ele>390.6</ele>
        <time>2021-10-26T12:20:19.000Z</time>
      </trkpt>
      <trkpt lat="43.52813" lon="6.31246">
        <ele>390.8</ele>
        <time>2021-10-26T12:20:29.000Z</time>
      </trkpt>
      <trkpt lat="43.52809" lon="6.31243">
        <ele>390.6</ele>
        <time>2021-10-26T12:20:46.000Z</time>
      </trkpt>
      <trkpt lat="43.52806" lon="6.31238">
        <ele>390.7</ele>
        <time>2021-10-26T12:20:57.000Z</time>
      </trkpt>
      <trkpt lat="43.52804" lon="6.31231">
        <ele>390.9</ele>
        <time>2021-10-26T12:21:01.000Z</time>
      </trkpt>
      <trkpt lat="43.52801" lon="6.31226">
        <ele>391</ele>
        <time>2021-10-26T12:21:05.000Z</time>
      </trkpt>
      <trkpt lat="43.52798" lon="6.31221">
        <ele>391</ele>
        <time>2021-10-26T12:21:09.000Z</time>
      </trkpt>
      <trkpt lat="43.52793" lon="6.31218">
        <ele>391</ele>
        <time>2021-10-26T12:21:13.000Z</time>
      </trkpt>
      <trkpt lat="43.52788" lon="6.31216">
        <ele>391</ele>
        <time>2021-10-26T12:21:18.000Z</time>
      </trkpt>
      <trkpt lat="43.52784" lon="6.31212">
        <ele>390.7</ele>
        <time>2021-10-26T12:21:22.000Z</time>
      </trkpt>
      <trkpt lat="43.52781" lon="6.31207">
        <ele>390.3</ele>
        <time>2021-10-26T12:21:26.000Z</time>
      </trkpt>
      <trkpt lat="43.52778" lon="6.31201">
        <ele>390.1</ele>
        <time>2021-10-26T12:21:29.000Z</time>
      </trkpt>
      <trkpt lat="43.52774" lon="6.31199">
        <ele>389.6</ele>
        <time>2021-10-26T12:21:35.000Z</time>
      </trkpt>
      <trkpt lat="43.5277" lon="6.31204">
        <ele>389.1</ele>
        <time>2021-10-26T12:21:43.000Z</time>
      </trkpt>
      <trkpt lat="43.52767" lon="6.31209">
        <ele>388.9</ele>
        <time>2021-10-26T12:21:47.000Z</time>
      </trkpt>
      <trkpt lat="43.52765" lon="6.31215">
        <ele>388.7</ele>
        <time>2021-10-26T12:21:51.000Z</time>
      </trkpt>
      <trkpt lat="43.52762" lon="6.3122">
        <ele>388.3</ele>
        <time>2021-10-26T12:21:55.000Z</time>
      </trkpt>
      <trkpt lat="43.52759" lon="6.31226">
        <ele>388</ele>
        <time>2021-10-26T12:21:59.000Z</time>
      </trkpt>
      <trkpt lat="43.52756" lon="6.31232">
        <ele>387.6</ele>
        <time>2021-10-26T12:22:03.000Z</time>
      </trkpt>
      <trkpt lat="43.52755" lon="6.31239">
        <ele>387.4</ele>
        <time>2021-10-26T12:22:07.000Z</time>
      </trkpt>
      <trkpt lat="43.52752" lon="6.31246">
        <ele>387.2</ele>
        <time>2021-10-26T12:22:11.000Z</time>
      </trkpt>
      <trkpt lat="43.5275" lon="6.31251">
        <ele>386.9</ele>
        <time>2021-10-26T12:22:14.000Z</time>
      </trkpt>
      <trkpt lat="43.52748" lon="6.31257">
        <ele>386.4</ele>
        <time>2021-10-26T12:22:18.000Z</time>
      </trkpt>
      <trkpt lat="43.52746" lon="6.31264">
        <ele>386.1</ele>
        <time>2021-10-26T12:22:22.000Z</time>
      </trkpt>
      <trkpt lat="43.52744" lon="6.31271">
        <ele>386.2</ele>
        <time>2021-10-26T12:22:25.000Z</time>
      </trkpt>
      <trkpt lat="43.52741" lon="6.31277">
        <ele>386.2</ele>
        <time>2021-10-26T12:22:28.000Z</time>
      </trkpt>
      <trkpt lat="43.52738" lon="6.31283">
        <ele>386.1</ele>
        <time>2021-10-26T12:22:31.000Z</time>
      </trkpt>
      <trkpt lat="43.52735" lon="6.31288">
        <ele>385.9</ele>
        <time>2021-10-26T12:22:34.000Z</time>
      </trkpt>
      <trkpt lat="43.52733" lon="6.31295">
        <ele>385.7</ele>
        <time>2021-10-26T12:22:38.000Z</time>
      </trkpt>
      <trkpt lat="43.52731" lon="6.31301">
        <ele>385.5</ele>
        <time>2021-10-26T12:22:41.000Z</time>
      </trkpt>
      <trkpt lat="43.52729" lon="6.31307">
        <ele>385.4</ele>
        <time>2021-10-26T12:22:45.000Z</time>
      </trkpt>
      <trkpt lat="43.52728" lon="6.31315">
        <ele>385.2</ele>
        <time>2021-10-26T12:22:49.000Z</time>
      </trkpt>
      <trkpt lat="43.52726" lon="6.31321">
        <ele>385.1</ele>
        <time>2021-10-26T12:22:52.000Z</time>
      </trkpt>
      <trkpt lat="43.52723" lon="6.31327">
        <ele>385.1</ele>
        <time>2021-10-26T12:22:55.000Z</time>
      </trkpt>
      <trkpt lat="43.52721" lon="6.31332">
        <ele>385.1</ele>
        <time>2021-10-26T12:22:58.000Z</time>
      </trkpt>
      <trkpt lat="43.5272" lon="6.31339">
        <ele>385</ele>
        <time>2021-10-26T12:23:01.000Z</time>
      </trkpt>
      <trkpt lat="43.52717" lon="6.31346">
        <ele>384.7</ele>
        <time>2021-10-26T12:23:05.000Z</time>
      </trkpt>
      <trkpt lat="43.52715" lon="6.31353">
        <ele>384.6</ele>
        <time>2021-10-26T12:23:09.000Z</time>
      </trkpt>
      <trkpt lat="43.52714" lon="6.31359">
        <ele>384.5</ele>
        <time>2021-10-26T12:23:12.000Z</time>
      </trkpt>
      <trkpt lat="43.52712" lon="6.31366">
        <ele>384.5</ele>
        <time>2021-10-26T12:23:15.000Z</time>
      </trkpt>
      <trkpt lat="43.52709" lon="6.31373">
        <ele>384.4</ele>
        <time>2021-10-26T12:23:19.000Z</time>
      </trkpt>
      <trkpt lat="43.52706" lon="6.3138">
        <ele>384.3</ele>
        <time>2021-10-26T12:23:23.000Z</time>
      </trkpt>
      <trkpt lat="43.52703" lon="6.31387">
        <ele>384</ele>
        <time>2021-10-26T12:23:27.000Z</time>
      </trkpt>
      <trkpt lat="43.52702" lon="6.31394">
        <ele>383.7</ele>
        <time>2021-10-26T12:23:31.000Z</time>
      </trkpt>
      <trkpt lat="43.52701" lon="6.314">
        <ele>383.6</ele>
        <time>2021-10-26T12:23:35.000Z</time>
      </trkpt>
      <trkpt lat="43.52699" lon="6.31407">
        <ele>383.5</ele>
        <time>2021-10-26T12:23:39.000Z</time>
      </trkpt>
      <trkpt lat="43.52697" lon="6.31414">
        <ele>383</ele>
        <time>2021-10-26T12:23:42.000Z</time>
      </trkpt>
      <trkpt lat="43.52694" lon="6.31419">
        <ele>383.1</ele>
        <time>2021-10-26T12:23:45.000Z</time>
      </trkpt>
      <trkpt lat="43.52691" lon="6.31425">
        <ele>382.9</ele>
        <time>2021-10-26T12:23:48.000Z</time>
      </trkpt>
      <trkpt lat="43.52689" lon="6.31432">
        <ele>382.8</ele>
        <time>2021-10-26T12:23:51.000Z</time>
      </trkpt>
      <trkpt lat="43.52687" lon="6.31439">
        <ele>382.8</ele>
        <time>2021-10-26T12:23:55.000Z</time>
      </trkpt>
      <trkpt lat="43.52685" lon="6.31445">
        <ele>382.8</ele>
        <time>2021-10-26T12:23:58.000Z</time>
      </trkpt>
      <trkpt lat="43.52683" lon="6.3145">
        <ele>382.7</ele>
        <time>2021-10-26T12:24:02.000Z</time>
      </trkpt>
      <trkpt lat="43.52682" lon="6.31457">
        <ele>382.5</ele>
        <time>2021-10-26T12:24:06.000Z</time>
      </trkpt>
      <trkpt lat="43.52679" lon="6.31464">
        <ele>382.5</ele>
        <time>2021-10-26T12:24:09.000Z</time>
      </trkpt>
      <trkpt lat="43.52676" lon="6.31471">
        <ele>382.4</ele>
        <time>2021-10-26T12:24:13.000Z</time>
      </trkpt>
      <trkpt lat="43.52674" lon="6.31477">
        <ele>382.4</ele>
        <time>2021-10-26T12:24:16.000Z</time>
      </trkpt>
      <trkpt lat="43.52673" lon="6.31483">
        <ele>382.3</ele>
        <time>2021-10-26T12:24:20.000Z</time>
      </trkpt>
      <trkpt lat="43.52672" lon="6.31489">
        <ele>382</ele>
        <time>2021-10-26T12:24:24.000Z</time>
      </trkpt>
      <trkpt lat="43.5267" lon="6.31496">
        <ele>382</ele>
        <time>2021-10-26T12:24:27.000Z</time>
      </trkpt>
      <trkpt lat="43.52668" lon="6.31503">
        <ele>382.1</ele>
        <time>2021-10-26T12:24:30.000Z</time>
      </trkpt>
      <trkpt lat="43.52667" lon="6.3151">
        <ele>382</ele>
        <time>2021-10-26T12:24:33.000Z</time>
      </trkpt>
      <trkpt lat="43.52665" lon="6.31519">
        <ele>381.7</ele>
        <time>2021-10-26T12:24:36.000Z</time>
      </trkpt>
      <trkpt lat="43.52663" lon="6.31526">
        <ele>381.6</ele>
        <time>2021-10-26T12:24:39.000Z</time>
      </trkpt>
      <trkpt lat="43.52661" lon="6.31534">
        <ele>381.5</ele>
        <time>2021-10-26T12:24:44.000Z</time>
      </trkpt>
      <trkpt lat="43.52659" lon="6.31542">
        <ele>381.3</ele>
        <time>2021-10-26T12:24:48.000Z</time>
      </trkpt>
      <trkpt lat="43.52656" lon="6.31548">
        <ele>381.2</ele>
        <time>2021-10-26T12:24:51.000Z</time>
      </trkpt>
      <trkpt lat="43.52654" lon="6.31554">
        <ele>381</ele>
        <time>2021-10-26T12:24:54.000Z</time>
      </trkpt>
      <trkpt lat="43.52652" lon="6.3156">
        <ele>381</ele>
        <time>2021-10-26T12:24:57.000Z</time>
      </trkpt>
      <trkpt lat="43.5265" lon="6.31567">
        <ele>380.9</ele>
        <time>2021-10-26T12:25:00.000Z</time>
      </trkpt>
      <trkpt lat="43.52648" lon="6.31573">
        <ele>380.8</ele>
        <time>2021-10-26T12:25:03.000Z</time>
      </trkpt>
      <trkpt lat="43.52646" lon="6.3158">
        <ele>380.9</ele>
        <time>2021-10-26T12:25:07.000Z</time>
      </trkpt>
      <trkpt lat="43.52644" lon="6.31587">
        <ele>381</ele>
        <time>2021-10-26T12:25:11.000Z</time>
      </trkpt>
      <trkpt lat="43.52641" lon="6.31594">
        <ele>380.9</ele>
        <time>2021-10-26T12:25:15.000Z</time>
      </trkpt>
      <trkpt lat="43.52639" lon="6.31601">
        <ele>381.1</ele>
        <time>2021-10-26T12:25:19.000Z</time>
      </trkpt>
      <trkpt lat="43.52638" lon="6.31608">
        <ele>380.7</ele>
        <time>2021-10-26T12:25:23.000Z</time>
      </trkpt>
      <trkpt lat="43.52636" lon="6.31614">
        <ele>380.9</ele>
        <time>2021-10-26T12:25:26.000Z</time>
      </trkpt>
      <trkpt lat="43.52633" lon="6.3162">
        <ele>381</ele>
        <time>2021-10-26T12:25:29.000Z</time>
      </trkpt>
      <trkpt lat="43.5263" lon="6.31627">
        <ele>381.1</ele>
        <time>2021-10-26T12:25:33.000Z</time>
      </trkpt>
      <trkpt lat="43.52627" lon="6.31634">
        <ele>381.3</ele>
        <time>2021-10-26T12:25:37.000Z</time>
      </trkpt>
      <trkpt lat="43.52625" lon="6.3164">
        <ele>381.4</ele>
        <time>2021-10-26T12:25:40.000Z</time>
      </trkpt>
      <trkpt lat="43.52622" lon="6.31645">
        <ele>381.5</ele>
        <time>2021-10-26T12:25:43.000Z</time>
      </trkpt>
      <trkpt lat="43.5262" lon="6.31653">
        <ele>381.7</ele>
        <time>2021-10-26T12:25:47.000Z</time>
      </trkpt>
      <trkpt lat="43.52617" lon="6.31659">
        <ele>381.7</ele>
        <time>2021-10-26T12:25:51.000Z</time>
      </trkpt>
      <trkpt lat="43.52614" lon="6.31665">
        <ele>381.7</ele>
        <time>2021-10-26T12:25:54.000Z</time>
      </trkpt>
      <trkpt lat="43.52611" lon="6.31671">
        <ele>381.5</ele>
        <time>2021-10-26T12:25:58.000Z</time>
      </trkpt>
      <trkpt lat="43.52608" lon="6.31676">
        <ele>381.4</ele>
        <time>2021-10-26T12:26:01.000Z</time>
      </trkpt>
      <trkpt lat="43.52605" lon="6.31681">
        <ele>381.7</ele>
        <time>2021-10-26T12:26:04.000Z</time>
      </trkpt>
      <trkpt lat="43.52602" lon="6.31687">
        <ele>381.9</ele>
        <time>2021-10-26T12:26:07.000Z</time>
      </trkpt>
      <trkpt lat="43.52599" lon="6.31693">
        <ele>382</ele>
        <time>2021-10-26T12:26:11.000Z</time>
      </trkpt>
      <trkpt lat="43.52597" lon="6.31699">
        <ele>382.2</ele>
        <time>2021-10-26T12:26:15.000Z</time>
      </trkpt>
      <trkpt lat="43.52594" lon="6.31704">
        <ele>382</ele>
        <time>2021-10-26T12:26:18.000Z</time>
      </trkpt>
      <trkpt lat="43.5259" lon="6.3171">
        <ele>381.9</ele>
        <time>2021-10-26T12:26:21.000Z</time>
      </trkpt>
      <trkpt lat="43.52588" lon="6.31715">
        <ele>382.1</ele>
        <time>2021-10-26T12:26:24.000Z</time>
      </trkpt>
      <trkpt lat="43.52584" lon="6.31721">
        <ele>382.4</ele>
        <time>2021-10-26T12:26:28.000Z</time>
      </trkpt>
      <trkpt lat="43.5258" lon="6.31728">
        <ele>382.5</ele>
        <time>2021-10-26T12:26:32.000Z</time>
      </trkpt>
      <trkpt lat="43.52578" lon="6.31735">
        <ele>382.8</ele>
        <time>2021-10-26T12:26:36.000Z</time>
      </trkpt>
      <trkpt lat="43.52575" lon="6.31741">
        <ele>383</ele>
        <time>2021-10-26T12:26:39.000Z</time>
      </trkpt>
      <trkpt lat="43.52572" lon="6.31747">
        <ele>383.2</ele>
        <time>2021-10-26T12:26:43.000Z</time>
      </trkpt>
      <trkpt lat="43.52569" lon="6.31753">
        <ele>383.7</ele>
        <time>2021-10-26T12:26:47.000Z</time>
      </trkpt>
      <trkpt lat="43.52566" lon="6.31759">
        <ele>383.7</ele>
        <time>2021-10-26T12:26:50.000Z</time>
      </trkpt>
      <trkpt lat="43.52563" lon="6.31765">
        <ele>383.8</ele>
        <time>2021-10-26T12:26:54.000Z</time>
      </trkpt>
      <trkpt lat="43.5256" lon="6.31771">
        <ele>383.8</ele>
        <time>2021-10-26T12:26:58.000Z</time>
      </trkpt>
      <trkpt lat="43.52557" lon="6.31777">
        <ele>383.8</ele>
        <time>2021-10-26T12:27:01.000Z</time>
      </trkpt>
      <trkpt lat="43.52554" lon="6.31782">
        <ele>383.9</ele>
        <time>2021-10-26T12:27:04.000Z</time>
      </trkpt>
      <trkpt lat="43.52551" lon="6.31787">
        <ele>384.1</ele>
        <time>2021-10-26T12:27:07.000Z</time>
      </trkpt>
      <trkpt lat="43.52549" lon="6.31792">
        <ele>384.1</ele>
        <time>2021-10-26T12:27:10.000Z</time>
      </trkpt>
      <trkpt lat="43.52545" lon="6.31798">
        <ele>384.4</ele>
        <time>2021-10-26T12:27:14.000Z</time>
      </trkpt>
      <trkpt lat="43.52543" lon="6.31805">
        <ele>384.5</ele>
        <time>2021-10-26T12:27:18.000Z</time>
      </trkpt>
      <trkpt lat="43.52541" lon="6.31812">
        <ele>384.6</ele>
        <time>2021-10-26T12:27:22.000Z</time>
      </trkpt>
      <trkpt lat="43.52537" lon="6.31817">
        <ele>384.7</ele>
        <time>2021-10-26T12:27:25.000Z</time>
      </trkpt>
      <trkpt lat="43.52535" lon="6.31824">
        <ele>384.5</ele>
        <time>2021-10-26T12:27:28.000Z</time>
      </trkpt>
      <trkpt lat="43.52533" lon="6.3183">
        <ele>384.5</ele>
        <time>2021-10-26T12:27:31.000Z</time>
      </trkpt>
      <trkpt lat="43.52531" lon="6.31835">
        <ele>384.6</ele>
        <time>2021-10-26T12:27:34.000Z</time>
      </trkpt>
      <trkpt lat="43.52527" lon="6.31842">
        <ele>384.8</ele>
        <time>2021-10-26T12:27:38.000Z</time>
      </trkpt>
      <trkpt lat="43.52525" lon="6.31847">
        <ele>385</ele>
        <time>2021-10-26T12:27:41.000Z</time>
      </trkpt>
      <trkpt lat="43.52523" lon="6.31853">
        <ele>385.1</ele>
        <time>2021-10-26T12:27:44.000Z</time>
      </trkpt>
      <trkpt lat="43.5252" lon="6.31859">
        <ele>385.4</ele>
        <time>2021-10-26T12:27:48.000Z</time>
      </trkpt>
      <trkpt lat="43.52518" lon="6.31865">
        <ele>385.6</ele>
        <time>2021-10-26T12:27:51.000Z</time>
      </trkpt>
      <trkpt lat="43.52515" lon="6.3187">
        <ele>385.6</ele>
        <time>2021-10-26T12:27:54.000Z</time>
      </trkpt>
      <trkpt lat="43.52513" lon="6.31876">
        <ele>385.8</ele>
        <time>2021-10-26T12:27:58.000Z</time>
      </trkpt>
      <trkpt lat="43.52509" lon="6.31881">
        <ele>385.9</ele>
        <time>2021-10-26T12:28:01.000Z</time>
      </trkpt>
      <trkpt lat="43.52506" lon="6.31887">
        <ele>386.1</ele>
        <time>2021-10-26T12:28:04.000Z</time>
      </trkpt>
      <trkpt lat="43.52503" lon="6.31892">
        <ele>386.2</ele>
        <time>2021-10-26T12:28:07.000Z</time>
      </trkpt>
      <trkpt lat="43.525" lon="6.31898">
        <ele>386.3</ele>
        <time>2021-10-26T12:28:10.000Z</time>
      </trkpt>
      <trkpt lat="43.52498" lon="6.31904">
        <ele>386.6</ele>
        <time>2021-10-26T12:28:13.000Z</time>
      </trkpt>
      <trkpt lat="43.52495" lon="6.31909">
        <ele>386.7</ele>
        <time>2021-10-26T12:28:16.000Z</time>
      </trkpt>
      <trkpt lat="43.52493" lon="6.31914">
        <ele>386.6</ele>
        <time>2021-10-26T12:28:19.000Z</time>
      </trkpt>
      <trkpt lat="43.5249" lon="6.3192">
        <ele>386.7</ele>
        <time>2021-10-26T12:28:22.000Z</time>
      </trkpt>
      <trkpt lat="43.52488" lon="6.31927">
        <ele>386.6</ele>
        <time>2021-10-26T12:28:26.000Z</time>
      </trkpt>
      <trkpt lat="43.52486" lon="6.31932">
        <ele>386.7</ele>
        <time>2021-10-26T12:28:29.000Z</time>
      </trkpt>
      <trkpt lat="43.52483" lon="6.31937">
        <ele>386.9</ele>
        <time>2021-10-26T12:28:32.000Z</time>
      </trkpt>
      <trkpt lat="43.52481" lon="6.31943">
        <ele>386.9</ele>
        <time>2021-10-26T12:28:35.000Z</time>
      </trkpt>
      <trkpt lat="43.52478" lon="6.31948">
        <ele>387</ele>
        <time>2021-10-26T12:28:38.000Z</time>
      </trkpt>
      <trkpt lat="43.52476" lon="6.31954">
        <ele>386.9</ele>
        <time>2021-10-26T12:28:41.000Z</time>
      </trkpt>
      <trkpt lat="43.52473" lon="6.3196">
        <ele>386.9</ele>
        <time>2021-10-26T12:28:44.000Z</time>
      </trkpt>
      <trkpt lat="43.52469" lon="6.31966">
        <ele>387</ele>
        <time>2021-10-26T12:28:48.000Z</time>
      </trkpt>
      <trkpt lat="43.52466" lon="6.31971">
        <ele>386.9</ele>
        <time>2021-10-26T12:28:51.000Z</time>
      </trkpt>
      <trkpt lat="43.52464" lon="6.31977">
        <ele>386.9</ele>
        <time>2021-10-26T12:28:54.000Z</time>
      </trkpt>
      <trkpt lat="43.5246" lon="6.31983">
        <ele>386.8</ele>
        <time>2021-10-26T12:28:57.000Z</time>
      </trkpt>
      <trkpt lat="43.52459" lon="6.3199">
        <ele>386.6</ele>
        <time>2021-10-26T12:29:01.000Z</time>
      </trkpt>
      <trkpt lat="43.52458" lon="6.31995">
        <ele>386.7</ele>
        <time>2021-10-26T12:29:04.000Z</time>
      </trkpt>
      <trkpt lat="43.52455" lon="6.32001">
        <ele>386.7</ele>
        <time>2021-10-26T12:29:07.000Z</time>
      </trkpt>
      <trkpt lat="43.52452" lon="6.32006">
        <ele>386.7</ele>
        <time>2021-10-26T12:29:10.000Z</time>
      </trkpt>
      <trkpt lat="43.52449" lon="6.32013">
        <ele>386.8</ele>
        <time>2021-10-26T12:29:14.000Z</time>
      </trkpt>
      <trkpt lat="43.52445" lon="6.32018">
        <ele>386.9</ele>
        <time>2021-10-26T12:29:18.000Z</time>
      </trkpt>
      <trkpt lat="43.52441" lon="6.32024">
        <ele>386.9</ele>
        <time>2021-10-26T12:29:22.000Z</time>
      </trkpt>
      <trkpt lat="43.52438" lon="6.32029">
        <ele>386.9</ele>
        <time>2021-10-26T12:29:25.000Z</time>
      </trkpt>
      <trkpt lat="43.52434" lon="6.32033">
        <ele>386.9</ele>
        <time>2021-10-26T12:29:28.000Z</time>
      </trkpt>
      <trkpt lat="43.52431" lon="6.32038">
        <ele>386.9</ele>
        <time>2021-10-26T12:29:31.000Z</time>
      </trkpt>
      <trkpt lat="43.52427" lon="6.32043">
        <ele>386.7</ele>
        <time>2021-10-26T12:29:35.000Z</time>
      </trkpt>
      <trkpt lat="43.52423" lon="6.32049">
        <ele>386.6</ele>
        <time>2021-10-26T12:29:39.000Z</time>
      </trkpt>
      <trkpt lat="43.5242" lon="6.32055">
        <ele>386.7</ele>
        <time>2021-10-26T12:29:43.000Z</time>
      </trkpt>
      <trkpt lat="43.52417" lon="6.3206">
        <ele>386.6</ele>
        <time>2021-10-26T12:29:46.000Z</time>
      </trkpt>
      <trkpt lat="43.52413" lon="6.32065">
        <ele>386.6</ele>
        <time>2021-10-26T12:29:50.000Z</time>
      </trkpt>
      <trkpt lat="43.52409" lon="6.32071">
        <ele>386.6</ele>
        <time>2021-10-26T12:29:54.000Z</time>
      </trkpt>
      <trkpt lat="43.52404" lon="6.32077">
        <ele>386.5</ele>
        <time>2021-10-26T12:29:58.000Z</time>
      </trkpt>
      <trkpt lat="43.524" lon="6.32081">
        <ele>386.6</ele>
        <time>2021-10-26T12:30:02.000Z</time>
      </trkpt>
      <trkpt lat="43.52396" lon="6.32086">
        <ele>386.5</ele>
        <time>2021-10-26T12:30:06.000Z</time>
      </trkpt>
      <trkpt lat="43.52394" lon="6.32094">
        <ele>386.4</ele>
        <time>2021-10-26T12:30:10.000Z</time>
      </trkpt>
      <trkpt lat="43.52391" lon="6.321">
        <ele>386</ele>
        <time>2021-10-26T12:30:13.000Z</time>
      </trkpt>
      <trkpt lat="43.52389" lon="6.32106">
        <ele>385.7</ele>
        <time>2021-10-26T12:30:16.000Z</time>
      </trkpt>
      <trkpt lat="43.52385" lon="6.3211">
        <ele>385.3</ele>
        <time>2021-10-26T12:30:19.000Z</time>
      </trkpt>
      <trkpt lat="43.52382" lon="6.32117">
        <ele>385</ele>
        <time>2021-10-26T12:30:22.000Z</time>
      </trkpt>
      <trkpt lat="43.52378" lon="6.32122">
        <ele>384.8</ele>
        <time>2021-10-26T12:30:25.000Z</time>
      </trkpt>
      <trkpt lat="43.52374" lon="6.32128">
        <ele>384.5</ele>
        <time>2021-10-26T12:30:28.000Z</time>
      </trkpt>
      <trkpt lat="43.52372" lon="6.32136">
        <ele>384.2</ele>
        <time>2021-10-26T12:30:31.000Z</time>
      </trkpt>
      <trkpt lat="43.52369" lon="6.32142">
        <ele>384</ele>
        <time>2021-10-26T12:30:35.000Z</time>
      </trkpt>
      <trkpt lat="43.52367" lon="6.32149">
        <ele>384</ele>
        <time>2021-10-26T12:30:39.000Z</time>
      </trkpt>
      <trkpt lat="43.52364" lon="6.32154">
        <ele>384</ele>
        <time>2021-10-26T12:30:42.000Z</time>
      </trkpt>
      <trkpt lat="43.52362" lon="6.32161">
        <ele>384</ele>
        <time>2021-10-26T12:30:45.000Z</time>
      </trkpt>
      <trkpt lat="43.52359" lon="6.32167">
        <ele>384</ele>
        <time>2021-10-26T12:30:48.000Z</time>
      </trkpt>
      <trkpt lat="43.52357" lon="6.32172">
        <ele>384</ele>
        <time>2021-10-26T12:30:51.000Z</time>
      </trkpt>
      <trkpt lat="43.52354" lon="6.32179">
        <ele>384</ele>
        <time>2021-10-26T12:30:55.000Z</time>
      </trkpt>
      <trkpt lat="43.52354" lon="6.32186">
        <ele>383.9</ele>
        <time>2021-10-26T12:30:59.000Z</time>
      </trkpt>
      <trkpt lat="43.52352" lon="6.32192">
        <ele>384.1</ele>
        <time>2021-10-26T12:31:02.000Z</time>
      </trkpt>
      <trkpt lat="43.52351" lon="6.32199">
        <ele>384.2</ele>
        <time>2021-10-26T12:31:05.000Z</time>
      </trkpt>
      <trkpt lat="43.5235" lon="6.32205">
        <ele>384.2</ele>
        <time>2021-10-26T12:31:08.000Z</time>
      </trkpt>
      <trkpt lat="43.52347" lon="6.32211">
        <ele>384.1</ele>
        <time>2021-10-26T12:31:11.000Z</time>
      </trkpt>
      <trkpt lat="43.52343" lon="6.32216">
        <ele>383.9</ele>
        <time>2021-10-26T12:31:14.000Z</time>
      </trkpt>
      <trkpt lat="43.52339" lon="6.32222">
        <ele>383.7</ele>
        <time>2021-10-26T12:31:17.000Z</time>
      </trkpt>
      <trkpt lat="43.52335" lon="6.32228">
        <ele>383.5</ele>
        <time>2021-10-26T12:31:20.000Z</time>
      </trkpt>
      <trkpt lat="43.52332" lon="6.32232">
        <ele>383.3</ele>
        <time>2021-10-26T12:31:23.000Z</time>
      </trkpt>
      <trkpt lat="43.52329" lon="6.32237">
        <ele>383.5</ele>
        <time>2021-10-26T12:31:26.000Z</time>
      </trkpt>
      <trkpt lat="43.52324" lon="6.32241">
        <ele>383.4</ele>
        <time>2021-10-26T12:31:29.000Z</time>
      </trkpt>
      <trkpt lat="43.52321" lon="6.32246">
        <ele>383.3</ele>
        <time>2021-10-26T12:31:32.000Z</time>
      </trkpt>
      <trkpt lat="43.52318" lon="6.32251">
        <ele>383.2</ele>
        <time>2021-10-26T12:31:35.000Z</time>
      </trkpt>
      <trkpt lat="43.52314" lon="6.32257">
        <ele>383.4</ele>
        <time>2021-10-26T12:31:39.000Z</time>
      </trkpt>
      <trkpt lat="43.5231" lon="6.32262">
        <ele>383.5</ele>
        <time>2021-10-26T12:31:42.000Z</time>
      </trkpt>
      <trkpt lat="43.52305" lon="6.32266">
        <ele>383.6</ele>
        <time>2021-10-26T12:31:45.000Z</time>
      </trkpt>
      <trkpt lat="43.52301" lon="6.32269">
        <ele>383.6</ele>
        <time>2021-10-26T12:31:48.000Z</time>
      </trkpt>
      <trkpt lat="43.52297" lon="6.32274">
        <ele>383.6</ele>
        <time>2021-10-26T12:31:51.000Z</time>
      </trkpt>
      <trkpt lat="43.52292" lon="6.32277">
        <ele>383.6</ele>
        <time>2021-10-26T12:31:54.000Z</time>
      </trkpt>
      <trkpt lat="43.52287" lon="6.3228">
        <ele>383.9</ele>
        <time>2021-10-26T12:31:58.000Z</time>
      </trkpt>
      <trkpt lat="43.52282" lon="6.32282">
        <ele>384.1</ele>
        <time>2021-10-26T12:32:01.000Z</time>
      </trkpt>
      <trkpt lat="43.52277" lon="6.32286">
        <ele>384.3</ele>
        <time>2021-10-26T12:32:04.000Z</time>
      </trkpt>
      <trkpt lat="43.52271" lon="6.32288">
        <ele>384.3</ele>
        <time>2021-10-26T12:32:07.000Z</time>
      </trkpt>
      <trkpt lat="43.52267" lon="6.32289">
        <ele>384.1</ele>
        <time>2021-10-26T12:32:11.000Z</time>
      </trkpt>
      <trkpt lat="43.52261" lon="6.32292">
        <ele>383.9</ele>
        <time>2021-10-26T12:32:15.000Z</time>
      </trkpt>
      <trkpt lat="43.52258" lon="6.32297">
        <ele>383.8</ele>
        <time>2021-10-26T12:32:18.000Z</time>
      </trkpt>
      <trkpt lat="43.52252" lon="6.323">
        <ele>384</ele>
        <time>2021-10-26T12:32:23.000Z</time>
      </trkpt>
      <trkpt lat="43.52248" lon="6.32301">
        <ele>384.2</ele>
        <time>2021-10-26T12:32:25.000Z</time>
      </trkpt>
      <trkpt lat="43.52242" lon="6.32302">
        <ele>384.3</ele>
        <time>2021-10-26T12:32:27.000Z</time>
      </trkpt>
      <trkpt lat="43.52237" lon="6.32305">
        <ele>384.4</ele>
        <time>2021-10-26T12:32:30.000Z</time>
      </trkpt>
      <trkpt lat="43.52232" lon="6.32308">
        <ele>384.2</ele>
        <time>2021-10-26T12:32:33.000Z</time>
      </trkpt>
      <trkpt lat="43.52228" lon="6.32312">
        <ele>384.1</ele>
        <time>2021-10-26T12:32:36.000Z</time>
      </trkpt>
      <trkpt lat="43.52223" lon="6.32315">
        <ele>383.8</ele>
        <time>2021-10-26T12:32:39.000Z</time>
      </trkpt>
      <trkpt lat="43.52219" lon="6.3232">
        <ele>384</ele>
        <time>2021-10-26T12:32:43.000Z</time>
      </trkpt>
      <trkpt lat="43.52215" lon="6.32324">
        <ele>383.9</ele>
        <time>2021-10-26T12:32:47.000Z</time>
      </trkpt>
      <trkpt lat="43.52211" lon="6.3233">
        <ele>384.2</ele>
        <time>2021-10-26T12:32:51.000Z</time>
      </trkpt>
      <trkpt lat="43.52208" lon="6.32334">
        <ele>384.2</ele>
        <time>2021-10-26T12:32:54.000Z</time>
      </trkpt>
      <trkpt lat="43.52203" lon="6.32338">
        <ele>383.9</ele>
        <time>2021-10-26T12:32:58.000Z</time>
      </trkpt>
      <trkpt lat="43.52199" lon="6.32341">
        <ele>383.7</ele>
        <time>2021-10-26T12:33:01.000Z</time>
      </trkpt>
      <trkpt lat="43.52196" lon="6.32346">
        <ele>383.5</ele>
        <time>2021-10-26T12:33:05.000Z</time>
      </trkpt>
      <trkpt lat="43.52192" lon="6.32351">
        <ele>383.3</ele>
        <time>2021-10-26T12:33:09.000Z</time>
      </trkpt>
      <trkpt lat="43.52188" lon="6.32355">
        <ele>383.1</ele>
        <time>2021-10-26T12:33:13.000Z</time>
      </trkpt>
      <trkpt lat="43.52184" lon="6.32359">
        <ele>383.1</ele>
        <time>2021-10-26T12:33:16.000Z</time>
      </trkpt>
      <trkpt lat="43.5218" lon="6.32364">
        <ele>383.1</ele>
        <time>2021-10-26T12:33:20.000Z</time>
      </trkpt>
      <trkpt lat="43.52175" lon="6.32369">
        <ele>383.1</ele>
        <time>2021-10-26T12:33:23.000Z</time>
      </trkpt>
      <trkpt lat="43.52172" lon="6.32374">
        <ele>383.1</ele>
        <time>2021-10-26T12:33:26.000Z</time>
      </trkpt>
      <trkpt lat="43.52167" lon="6.32377">
        <ele>383</ele>
        <time>2021-10-26T12:33:29.000Z</time>
      </trkpt>
      <trkpt lat="43.52163" lon="6.3238">
        <ele>382.9</ele>
        <time>2021-10-26T12:33:32.000Z</time>
      </trkpt>
      <trkpt lat="43.52158" lon="6.32384">
        <ele>382.9</ele>
        <time>2021-10-26T12:33:35.000Z</time>
      </trkpt>
      <trkpt lat="43.52153" lon="6.3239">
        <ele>383</ele>
        <time>2021-10-26T12:33:39.000Z</time>
      </trkpt>
      <trkpt lat="43.52149" lon="6.32395">
        <ele>383</ele>
        <time>2021-10-26T12:33:42.000Z</time>
      </trkpt>
      <trkpt lat="43.52145" lon="6.324">
        <ele>382.8</ele>
        <time>2021-10-26T12:33:45.000Z</time>
      </trkpt>
      <trkpt lat="43.52141" lon="6.32406">
        <ele>382.6</ele>
        <time>2021-10-26T12:33:49.000Z</time>
      </trkpt>
      <trkpt lat="43.52138" lon="6.32411">
        <ele>382.5</ele>
        <time>2021-10-26T12:33:53.000Z</time>
      </trkpt>
      <trkpt lat="43.52134" lon="6.32415">
        <ele>382.5</ele>
        <time>2021-10-26T12:33:56.000Z</time>
      </trkpt>
      <trkpt lat="43.5213" lon="6.3242">
        <ele>382.4</ele>
        <time>2021-10-26T12:34:00.000Z</time>
      </trkpt>
      <trkpt lat="43.52125" lon="6.32424">
        <ele>382.5</ele>
        <time>2021-10-26T12:34:03.000Z</time>
      </trkpt>
      <trkpt lat="43.52121" lon="6.32431">
        <ele>382.4</ele>
        <time>2021-10-26T12:34:07.000Z</time>
      </trkpt>
      <trkpt lat="43.52117" lon="6.32434">
        <ele>382.3</ele>
        <time>2021-10-26T12:34:10.000Z</time>
      </trkpt>
      <trkpt lat="43.52112" lon="6.32438">
        <ele>381.8</ele>
        <time>2021-10-26T12:34:15.000Z</time>
      </trkpt>
      <trkpt lat="43.52108" lon="6.3244">
        <ele>381.9</ele>
        <time>2021-10-26T12:34:17.000Z</time>
      </trkpt>
      <trkpt lat="43.52102" lon="6.32443">
        <ele>381.9</ele>
        <time>2021-10-26T12:34:20.000Z</time>
      </trkpt>
      <trkpt lat="43.52098" lon="6.32445">
        <ele>381.7</ele>
        <time>2021-10-26T12:34:22.000Z</time>
      </trkpt>
      <trkpt lat="43.52093" lon="6.32447">
        <ele>381.5</ele>
        <time>2021-10-26T12:34:25.000Z</time>
      </trkpt>
      <trkpt lat="43.52088" lon="6.32449">
        <ele>381.2</ele>
        <time>2021-10-26T12:34:28.000Z</time>
      </trkpt>
      <trkpt lat="43.52084" lon="6.32452">
        <ele>381</ele>
        <time>2021-10-26T12:34:31.000Z</time>
      </trkpt>
      <trkpt lat="43.5208" lon="6.32455">
        <ele>380.7</ele>
        <time>2021-10-26T12:34:34.000Z</time>
      </trkpt>
      <trkpt lat="43.52075" lon="6.32459">
        <ele>380.9</ele>
        <time>2021-10-26T12:34:38.000Z</time>
      </trkpt>
      <trkpt lat="43.5207" lon="6.32463">
        <ele>380.8</ele>
        <time>2021-10-26T12:34:41.000Z</time>
      </trkpt>
      <trkpt lat="43.52065" lon="6.32468">
        <ele>380.5</ele>
        <time>2021-10-26T12:34:45.000Z</time>
      </trkpt>
      <trkpt lat="43.52062" lon="6.32473">
        <ele>380.4</ele>
        <time>2021-10-26T12:34:48.000Z</time>
      </trkpt>
      <trkpt lat="43.52057" lon="6.32477">
        <ele>380.1</ele>
        <time>2021-10-26T12:34:52.000Z</time>
      </trkpt>
      <trkpt lat="43.52053" lon="6.32481">
        <ele>380</ele>
        <time>2021-10-26T12:34:55.000Z</time>
      </trkpt>
      <trkpt lat="43.52048" lon="6.32484">
        <ele>379.9</ele>
        <time>2021-10-26T12:34:58.000Z</time>
      </trkpt>
      <trkpt lat="43.52043" lon="6.32486">
        <ele>379.7</ele>
        <time>2021-10-26T12:35:01.000Z</time>
      </trkpt>
      <trkpt lat="43.52038" lon="6.32489">
        <ele>379.7</ele>
        <time>2021-10-26T12:35:03.000Z</time>
      </trkpt>
      <trkpt lat="43.52034" lon="6.32491">
        <ele>379.8</ele>
        <time>2021-10-26T12:35:05.000Z</time>
      </trkpt>
      <trkpt lat="43.52028" lon="6.32493">
        <ele>379.4</ele>
        <time>2021-10-26T12:35:08.000Z</time>
      </trkpt>
      <trkpt lat="43.52022" lon="6.32495">
        <ele>379.2</ele>
        <time>2021-10-26T12:35:11.000Z</time>
      </trkpt>
      <trkpt lat="43.52016" lon="6.32494">
        <ele>378.9</ele>
        <time>2021-10-26T12:35:15.000Z</time>
      </trkpt>
      <trkpt lat="43.52012" lon="6.32494">
        <ele>378.6</ele>
        <time>2021-10-26T12:35:19.000Z</time>
      </trkpt>
      <trkpt lat="43.52007" lon="6.32495">
        <ele>378.1</ele>
        <time>2021-10-26T12:35:22.000Z</time>
      </trkpt>
      <trkpt lat="43.52002" lon="6.32494">
        <ele>377.7</ele>
        <time>2021-10-26T12:35:26.000Z</time>
      </trkpt>
      <trkpt lat="43.51997" lon="6.32492">
        <ele>377.5</ele>
        <time>2021-10-26T12:35:29.000Z</time>
      </trkpt>
      <trkpt lat="43.51991" lon="6.3249">
        <ele>377.2</ele>
        <time>2021-10-26T12:35:33.000Z</time>
      </trkpt>
      <trkpt lat="43.51987" lon="6.32489">
        <ele>376.9</ele>
        <time>2021-10-26T12:35:36.000Z</time>
      </trkpt>
      <trkpt lat="43.51981" lon="6.32487">
        <ele>376.5</ele>
        <time>2021-10-26T12:35:40.000Z</time>
      </trkpt>
      <trkpt lat="43.51976" lon="6.32486">
        <ele>376.2</ele>
        <time>2021-10-26T12:35:43.000Z</time>
      </trkpt>
      <trkpt lat="43.51971" lon="6.32486">
        <ele>376</ele>
        <time>2021-10-26T12:35:46.000Z</time>
      </trkpt>
      <trkpt lat="43.51966" lon="6.32485">
        <ele>375.9</ele>
        <time>2021-10-26T12:35:49.000Z</time>
      </trkpt>
      <trkpt lat="43.51961" lon="6.32483">
        <ele>375.7</ele>
        <time>2021-10-26T12:35:53.000Z</time>
      </trkpt>
      <trkpt lat="43.51956" lon="6.32482">
        <ele>375.5</ele>
        <time>2021-10-26T12:35:57.000Z</time>
      </trkpt>
      <trkpt lat="43.5195" lon="6.32482">
        <ele>375.2</ele>
        <time>2021-10-26T12:36:00.000Z</time>
      </trkpt>
      <trkpt lat="43.51945" lon="6.3248">
        <ele>374.9</ele>
        <time>2021-10-26T12:36:03.000Z</time>
      </trkpt>
      <trkpt lat="43.5194" lon="6.3248">
        <ele>374.8</ele>
        <time>2021-10-26T12:36:06.000Z</time>
      </trkpt>
      <trkpt lat="43.51935" lon="6.32479">
        <ele>374.6</ele>
        <time>2021-10-26T12:36:11.000Z</time>
      </trkpt>
      <trkpt lat="43.51929" lon="6.32478">
        <ele>374.5</ele>
        <time>2021-10-26T12:36:14.000Z</time>
      </trkpt>
      <trkpt lat="43.51923" lon="6.32477">
        <ele>374.2</ele>
        <time>2021-10-26T12:36:17.000Z</time>
      </trkpt>
      <trkpt lat="43.51919" lon="6.32476">
        <ele>374</ele>
        <time>2021-10-26T12:36:20.000Z</time>
      </trkpt>
      <trkpt lat="43.51914" lon="6.32476">
        <ele>373.9</ele>
        <time>2021-10-26T12:36:23.000Z</time>
      </trkpt>
      <trkpt lat="43.51909" lon="6.32475">
        <ele>373.5</ele>
        <time>2021-10-26T12:36:26.000Z</time>
      </trkpt>
      <trkpt lat="43.51904" lon="6.32476">
        <ele>372.9</ele>
        <time>2021-10-26T12:36:29.000Z</time>
      </trkpt>
      <trkpt lat="43.51898" lon="6.32476">
        <ele>372.7</ele>
        <time>2021-10-26T12:36:33.000Z</time>
      </trkpt>
      <trkpt lat="43.51893" lon="6.32474">
        <ele>372.4</ele>
        <time>2021-10-26T12:36:37.000Z</time>
      </trkpt>
      <trkpt lat="43.51887" lon="6.32473">
        <ele>372.2</ele>
        <time>2021-10-26T12:36:42.000Z</time>
      </trkpt>
      <trkpt lat="43.51881" lon="6.32473">
        <ele>371.9</ele>
        <time>2021-10-26T12:36:45.000Z</time>
      </trkpt>
      <trkpt lat="43.51877" lon="6.32472">
        <ele>371.6</ele>
        <time>2021-10-26T12:36:48.000Z</time>
      </trkpt>
      <trkpt lat="43.51872" lon="6.32469">
        <ele>370.9</ele>
        <time>2021-10-26T12:36:52.000Z</time>
      </trkpt>
      <trkpt lat="43.51866" lon="6.32469">
        <ele>370.8</ele>
        <time>2021-10-26T12:36:55.000Z</time>
      </trkpt>
      <trkpt lat="43.5186" lon="6.32468">
        <ele>370.4</ele>
        <time>2021-10-26T12:36:58.000Z</time>
      </trkpt>
      <trkpt lat="43.51856" lon="6.32467">
        <ele>369.9</ele>
        <time>2021-10-26T12:37:01.000Z</time>
      </trkpt>
      <trkpt lat="43.5185" lon="6.32466">
        <ele>369.5</ele>
        <time>2021-10-26T12:37:04.000Z</time>
      </trkpt>
      <trkpt lat="43.51845" lon="6.32465">
        <ele>369.2</ele>
        <time>2021-10-26T12:37:07.000Z</time>
      </trkpt>
      <trkpt lat="43.51839" lon="6.32465">
        <ele>369</ele>
        <time>2021-10-26T12:37:10.000Z</time>
      </trkpt>
      <trkpt lat="43.51833" lon="6.32465">
        <ele>368.8</ele>
        <time>2021-10-26T12:37:13.000Z</time>
      </trkpt>
      <trkpt lat="43.51829" lon="6.32465">
        <ele>368.7</ele>
        <time>2021-10-26T12:37:15.000Z</time>
      </trkpt>
      <trkpt lat="43.51824" lon="6.32467">
        <ele>368.3</ele>
        <time>2021-10-26T12:37:18.000Z</time>
      </trkpt>
      <trkpt lat="43.51819" lon="6.32471">
        <ele>367.9</ele>
        <time>2021-10-26T12:37:21.000Z</time>
      </trkpt>
      <trkpt lat="43.51815" lon="6.32473">
        <ele>367.7</ele>
        <time>2021-10-26T12:37:23.000Z</time>
      </trkpt>
      <trkpt lat="43.5181" lon="6.32478">
        <ele>367.7</ele>
        <time>2021-10-26T12:37:26.000Z</time>
      </trkpt>
      <trkpt lat="43.51807" lon="6.32484">
        <ele>367.5</ele>
        <time>2021-10-26T12:37:29.000Z</time>
      </trkpt>
      <trkpt lat="43.51804" lon="6.32488">
        <ele>367.2</ele>
        <time>2021-10-26T12:37:32.000Z</time>
      </trkpt>
      <trkpt lat="43.51801" lon="6.32495">
        <ele>367</ele>
        <time>2021-10-26T12:37:36.000Z</time>
      </trkpt>
      <trkpt lat="43.51798" lon="6.32502">
        <ele>366.6</ele>
        <time>2021-10-26T12:37:41.000Z</time>
      </trkpt>
      <trkpt lat="43.51797" lon="6.3251">
        <ele>366.2</ele>
        <time>2021-10-26T12:37:45.000Z</time>
      </trkpt>
      <trkpt lat="43.51795" lon="6.32517">
        <ele>365.7</ele>
        <time>2021-10-26T12:37:49.000Z</time>
      </trkpt>
      <trkpt lat="43.51794" lon="6.32524">
        <ele>365.4</ele>
        <time>2021-10-26T12:37:52.000Z</time>
      </trkpt>
      <trkpt lat="43.51793" lon="6.3253">
        <ele>365.3</ele>
        <time>2021-10-26T12:37:55.000Z</time>
      </trkpt>
      <trkpt lat="43.51792" lon="6.32537">
        <ele>365</ele>
        <time>2021-10-26T12:37:58.000Z</time>
      </trkpt>
      <trkpt lat="43.51791" lon="6.32545">
        <ele>364.3</ele>
        <time>2021-10-26T12:38:02.000Z</time>
      </trkpt>
      <trkpt lat="43.5179" lon="6.32552">
        <ele>363.7</ele>
        <time>2021-10-26T12:38:05.000Z</time>
      </trkpt>
      <trkpt lat="43.51789" lon="6.32559">
        <ele>363.1</ele>
        <time>2021-10-26T12:38:08.000Z</time>
      </trkpt>
      <trkpt lat="43.51789" lon="6.32566">
        <ele>362.6</ele>
        <time>2021-10-26T12:38:11.000Z</time>
      </trkpt>
      <trkpt lat="43.51788" lon="6.32572">
        <ele>362.1</ele>
        <time>2021-10-26T12:38:14.000Z</time>
      </trkpt>
      <trkpt lat="43.51785" lon="6.32579">
        <ele>361.7</ele>
        <time>2021-10-26T12:38:17.000Z</time>
      </trkpt>
      <trkpt lat="43.51782" lon="6.32584">
        <ele>361.2</ele>
        <time>2021-10-26T12:38:20.000Z</time>
      </trkpt>
      <trkpt lat="43.51779" lon="6.32589">
        <ele>360.8</ele>
        <time>2021-10-26T12:38:23.000Z</time>
      </trkpt>
      <trkpt lat="43.51775" lon="6.32593">
        <ele>360.1</ele>
        <time>2021-10-26T12:38:26.000Z</time>
      </trkpt>
      <trkpt lat="43.51771" lon="6.32599">
        <ele>359.5</ele>
        <time>2021-10-26T12:38:30.000Z</time>
      </trkpt>
      <trkpt lat="43.51767" lon="6.32603">
        <ele>359.1</ele>
        <time>2021-10-26T12:38:33.000Z</time>
      </trkpt>
      <trkpt lat="43.51764" lon="6.32607">
        <ele>358.8</ele>
        <time>2021-10-26T12:38:36.000Z</time>
      </trkpt>
      <trkpt lat="43.5176" lon="6.32612">
        <ele>358.4</ele>
        <time>2021-10-26T12:38:39.000Z</time>
      </trkpt>
      <trkpt lat="43.51755" lon="6.32617">
        <ele>357.6</ele>
        <time>2021-10-26T12:38:43.000Z</time>
      </trkpt>
      <trkpt lat="43.51751" lon="6.3262">
        <ele>357.2</ele>
        <time>2021-10-26T12:38:46.000Z</time>
      </trkpt>
      <trkpt lat="43.51747" lon="6.32624">
        <ele>356.9</ele>
        <time>2021-10-26T12:38:49.000Z</time>
      </trkpt>
      <trkpt lat="43.51743" lon="6.32628">
        <ele>356.7</ele>
        <time>2021-10-26T12:38:52.000Z</time>
      </trkpt>
      <trkpt lat="43.51738" lon="6.32633">
        <ele>356.1</ele>
        <time>2021-10-26T12:38:55.000Z</time>
      </trkpt>
      <trkpt lat="43.51735" lon="6.32637">
        <ele>355.9</ele>
        <time>2021-10-26T12:38:58.000Z</time>
      </trkpt>
      <trkpt lat="43.5173" lon="6.32642">
        <ele>355.7</ele>
        <time>2021-10-26T12:39:02.000Z</time>
      </trkpt>
      <trkpt lat="43.51725" lon="6.32646">
        <ele>355.2</ele>
        <time>2021-10-26T12:39:06.000Z</time>
      </trkpt>
      <trkpt lat="43.51721" lon="6.32648">
        <ele>354.7</ele>
        <time>2021-10-26T12:39:11.000Z</time>
      </trkpt>
      <trkpt lat="43.51717" lon="6.32651">
        <ele>353.4</ele>
        <time>2021-10-26T12:39:52.000Z</time>
      </trkpt>
      <trkpt lat="43.51715" lon="6.32646">
        <ele>353.5</ele>
        <time>2021-10-26T12:40:03.000Z</time>
      </trkpt>
      <trkpt lat="43.51712" lon="6.3264">
        <ele>353.6</ele>
        <time>2021-10-26T12:40:07.000Z</time>
      </trkpt>
      <trkpt lat="43.51709" lon="6.32635">
        <ele>353.3</ele>
        <time>2021-10-26T12:40:13.000Z</time>
      </trkpt>
      <trkpt lat="43.51708" lon="6.32628">
        <ele>353.1</ele>
        <time>2021-10-26T12:40:18.000Z</time>
      </trkpt>
      <trkpt lat="43.51706" lon="6.32622">
        <ele>352.7</ele>
        <time>2021-10-26T12:40:22.000Z</time>
      </trkpt>
      <trkpt lat="43.51704" lon="6.32614">
        <ele>352.5</ele>
        <time>2021-10-26T12:40:26.000Z</time>
      </trkpt>
      <trkpt lat="43.51701" lon="6.32607">
        <ele>352.4</ele>
        <time>2021-10-26T12:40:30.000Z</time>
      </trkpt>
      <trkpt lat="43.51698" lon="6.32602">
        <ele>352.3</ele>
        <time>2021-10-26T12:40:33.000Z</time>
      </trkpt>
      <trkpt lat="43.51695" lon="6.32595">
        <ele>352</ele>
        <time>2021-10-26T12:40:37.000Z</time>
      </trkpt>
      <trkpt lat="43.51691" lon="6.32588">
        <ele>351.9</ele>
        <time>2021-10-26T12:40:41.000Z</time>
      </trkpt>
      <trkpt lat="43.51687" lon="6.32584">
        <ele>351.7</ele>
        <time>2021-10-26T12:40:44.000Z</time>
      </trkpt>
      <trkpt lat="43.51683" lon="6.32579">
        <ele>351.4</ele>
        <time>2021-10-26T12:40:48.000Z</time>
      </trkpt>
      <trkpt lat="43.51678" lon="6.32575">
        <ele>351.3</ele>
        <time>2021-10-26T12:40:52.000Z</time>
      </trkpt>
      <trkpt lat="43.51672" lon="6.32574">
        <ele>351.1</ele>
        <time>2021-10-26T12:40:56.000Z</time>
      </trkpt>
      <trkpt lat="43.51667" lon="6.32573">
        <ele>350.9</ele>
        <time>2021-10-26T12:40:59.000Z</time>
      </trkpt>
      <trkpt lat="43.51662" lon="6.32571">
        <ele>350.7</ele>
        <time>2021-10-26T12:41:02.000Z</time>
      </trkpt>
      <trkpt lat="43.51658" lon="6.3257">
        <ele>350.6</ele>
        <time>2021-10-26T12:41:05.000Z</time>
      </trkpt>
      <trkpt lat="43.51653" lon="6.32568">
        <ele>350.7</ele>
        <time>2021-10-26T12:41:08.000Z</time>
      </trkpt>
      <trkpt lat="43.51649" lon="6.32567">
        <ele>350.7</ele>
        <time>2021-10-26T12:41:11.000Z</time>
      </trkpt>
      <trkpt lat="43.51645" lon="6.32565">
        <ele>350.8</ele>
        <time>2021-10-26T12:41:14.000Z</time>
      </trkpt>
      <trkpt lat="43.5164" lon="6.32564">
        <ele>350.6</ele>
        <time>2021-10-26T12:41:17.000Z</time>
      </trkpt>
      <trkpt lat="43.51635" lon="6.32562">
        <ele>350.3</ele>
        <time>2021-10-26T12:41:20.000Z</time>
      </trkpt>
      <trkpt lat="43.5163" lon="6.32561">
        <ele>350.2</ele>
        <time>2021-10-26T12:41:23.000Z</time>
      </trkpt>
      <trkpt lat="43.51626" lon="6.32559">
        <ele>350.2</ele>
        <time>2021-10-26T12:41:26.000Z</time>
      </trkpt>
      <trkpt lat="43.51621" lon="6.32553">
        <ele>350.1</ele>
        <time>2021-10-26T12:41:30.000Z</time>
      </trkpt>
      <trkpt lat="43.51617" lon="6.32549">
        <ele>349.8</ele>
        <time>2021-10-26T12:41:34.000Z</time>
      </trkpt>
      <trkpt lat="43.51613" lon="6.32544">
        <ele>349.6</ele>
        <time>2021-10-26T12:41:38.000Z</time>
      </trkpt>
      <trkpt lat="43.51608" lon="6.3254">
        <ele>349.2</ele>
        <time>2021-10-26T12:41:42.000Z</time>
      </trkpt>
      <trkpt lat="43.51602" lon="6.32538">
        <ele>349.4</ele>
        <time>2021-10-26T12:41:46.000Z</time>
      </trkpt>
      <trkpt lat="43.51597" lon="6.32536">
        <ele>349.5</ele>
        <time>2021-10-26T12:41:48.000Z</time>
      </trkpt>
      <trkpt lat="43.51593" lon="6.32534">
        <ele>349.5</ele>
        <time>2021-10-26T12:41:52.000Z</time>
      </trkpt>
      <trkpt lat="43.51588" lon="6.32532">
        <ele>349.5</ele>
        <time>2021-10-26T12:41:55.000Z</time>
      </trkpt>
      <trkpt lat="43.51584" lon="6.32529">
        <ele>349.1</ele>
        <time>2021-10-26T12:41:59.000Z</time>
      </trkpt>
      <trkpt lat="43.51578" lon="6.32528">
        <ele>349</ele>
        <time>2021-10-26T12:42:02.000Z</time>
      </trkpt>
      <trkpt lat="43.51574" lon="6.32524">
        <ele>348.9</ele>
        <time>2021-10-26T12:42:06.000Z</time>
      </trkpt>
      <trkpt lat="43.51569" lon="6.3252">
        <ele>349</ele>
        <time>2021-10-26T12:42:09.000Z</time>
      </trkpt>
      <trkpt lat="43.51566" lon="6.32517">
        <ele>349</ele>
        <time>2021-10-26T12:42:12.000Z</time>
      </trkpt>
      <trkpt lat="43.51561" lon="6.32512">
        <ele>348.9</ele>
        <time>2021-10-26T12:42:15.000Z</time>
      </trkpt>
      <trkpt lat="43.51556" lon="6.32508">
        <ele>348.7</ele>
        <time>2021-10-26T12:42:18.000Z</time>
      </trkpt>
      <trkpt lat="43.51552" lon="6.32503">
        <ele>348.7</ele>
        <time>2021-10-26T12:42:21.000Z</time>
      </trkpt>
      <trkpt lat="43.5155" lon="6.32496">
        <ele>348.6</ele>
        <time>2021-10-26T12:42:24.000Z</time>
      </trkpt>
      <trkpt lat="43.51547" lon="6.32489">
        <ele>348.4</ele>
        <time>2021-10-26T12:42:27.000Z</time>
      </trkpt>
      <trkpt lat="43.51544" lon="6.32484">
        <ele>348.3</ele>
        <time>2021-10-26T12:42:30.000Z</time>
      </trkpt>
      <trkpt lat="43.51541" lon="6.32478">
        <ele>348.1</ele>
        <time>2021-10-26T12:42:33.000Z</time>
      </trkpt>
      <trkpt lat="43.51539" lon="6.32473">
        <ele>347.9</ele>
        <time>2021-10-26T12:42:36.000Z</time>
      </trkpt>
      <trkpt lat="43.51535" lon="6.32469">
        <ele>347.6</ele>
        <time>2021-10-26T12:42:39.000Z</time>
      </trkpt>
      <trkpt lat="43.51532" lon="6.32464">
        <ele>347.4</ele>
        <time>2021-10-26T12:42:42.000Z</time>
      </trkpt>
      <trkpt lat="43.51528" lon="6.3246">
        <ele>347.1</ele>
        <time>2021-10-26T12:42:45.000Z</time>
      </trkpt>
      <trkpt lat="43.51523" lon="6.32458">
        <ele>346.9</ele>
        <time>2021-10-26T12:42:48.000Z</time>
      </trkpt>
      <trkpt lat="43.51519" lon="6.32453">
        <ele>346.8</ele>
        <time>2021-10-26T12:42:51.000Z</time>
      </trkpt>
      <trkpt lat="43.51515" lon="6.32448">
        <ele>346.5</ele>
        <time>2021-10-26T12:42:55.000Z</time>
      </trkpt>
      <trkpt lat="43.51511" lon="6.32442">
        <ele>346.5</ele>
        <time>2021-10-26T12:42:58.000Z</time>
      </trkpt>
      <trkpt lat="43.51508" lon="6.32437">
        <ele>346.4</ele>
        <time>2021-10-26T12:43:01.000Z</time>
      </trkpt>
      <trkpt lat="43.51507" lon="6.32429">
        <ele>346.3</ele>
        <time>2021-10-26T12:43:04.000Z</time>
      </trkpt>
      <trkpt lat="43.51506" lon="6.32422">
        <ele>346.2</ele>
        <time>2021-10-26T12:43:07.000Z</time>
      </trkpt>
      <trkpt lat="43.51504" lon="6.32416">
        <ele>346</ele>
        <time>2021-10-26T12:43:10.000Z</time>
      </trkpt>
      <trkpt lat="43.51502" lon="6.32409">
        <ele>345.7</ele>
        <time>2021-10-26T12:43:13.000Z</time>
      </trkpt>
      <trkpt lat="43.51499" lon="6.32402">
        <ele>345.5</ele>
        <time>2021-10-26T12:43:17.000Z</time>
      </trkpt>
      <trkpt lat="43.51496" lon="6.32397">
        <ele>345.5</ele>
        <time>2021-10-26T12:43:20.000Z</time>
      </trkpt>
      <trkpt lat="43.51493" lon="6.32392">
        <ele>345.1</ele>
        <time>2021-10-26T12:43:24.000Z</time>
      </trkpt>
      <trkpt lat="43.5149" lon="6.32386">
        <ele>345</ele>
        <time>2021-10-26T12:43:27.000Z</time>
      </trkpt>
      <trkpt lat="43.51487" lon="6.32381">
        <ele>344.9</ele>
        <time>2021-10-26T12:43:30.000Z</time>
      </trkpt>
      <trkpt lat="43.51484" lon="6.32374">
        <ele>344.8</ele>
        <time>2021-10-26T12:43:34.000Z</time>
      </trkpt>
      <trkpt lat="43.51482" lon="6.32368">
        <ele>344.7</ele>
        <time>2021-10-26T12:43:37.000Z</time>
      </trkpt>
      <trkpt lat="43.51479" lon="6.32363">
        <ele>344.5</ele>
        <time>2021-10-26T12:43:40.000Z</time>
      </trkpt>
      <trkpt lat="43.51476" lon="6.32357">
        <ele>344.2</ele>
        <time>2021-10-26T12:43:43.000Z</time>
      </trkpt>
      <trkpt lat="43.51473" lon="6.32352">
        <ele>344</ele>
        <time>2021-10-26T12:43:47.000Z</time>
      </trkpt>
      <trkpt lat="43.5147" lon="6.32345">
        <ele>343.9</ele>
        <time>2021-10-26T12:43:51.000Z</time>
      </trkpt>
      <trkpt lat="43.51469" lon="6.32337">
        <ele>343.7</ele>
        <time>2021-10-26T12:43:54.000Z</time>
      </trkpt>
      <trkpt lat="43.51469" lon="6.32331">
        <ele>343.5</ele>
        <time>2021-10-26T12:43:56.000Z</time>
      </trkpt>
      <trkpt lat="43.5147" lon="6.32322">
        <ele>343.4</ele>
        <time>2021-10-26T12:43:59.000Z</time>
      </trkpt>
      <trkpt lat="43.51469" lon="6.32315">
        <ele>343.1</ele>
        <time>2021-10-26T12:44:02.000Z</time>
      </trkpt>
      <trkpt lat="43.51468" lon="6.32309">
        <ele>342.7</ele>
        <time>2021-10-26T12:44:05.000Z</time>
      </trkpt>
      <trkpt lat="43.51466" lon="6.32302">
        <ele>342.4</ele>
        <time>2021-10-26T12:44:08.000Z</time>
      </trkpt>
      <trkpt lat="43.51463" lon="6.32296">
        <ele>342.1</ele>
        <time>2021-10-26T12:44:11.000Z</time>
      </trkpt>
      <trkpt lat="43.51462" lon="6.3229">
        <ele>342.4</ele>
        <time>2021-10-26T12:44:14.000Z</time>
      </trkpt>
      <trkpt lat="43.51458" lon="6.32284">
        <ele>342.5</ele>
        <time>2021-10-26T12:44:18.000Z</time>
      </trkpt>
      <trkpt lat="43.51455" lon="6.32277">
        <ele>342.2</ele>
        <time>2021-10-26T12:44:22.000Z</time>
      </trkpt>
      <trkpt lat="43.51453" lon="6.32271">
        <ele>342</ele>
        <time>2021-10-26T12:44:25.000Z</time>
      </trkpt>
      <trkpt lat="43.51451" lon="6.32265">
        <ele>342.3</ele>
        <time>2021-10-26T12:44:28.000Z</time>
      </trkpt>
      <trkpt lat="43.51449" lon="6.32259">
        <ele>342.1</ele>
        <time>2021-10-26T12:44:31.000Z</time>
      </trkpt>
      <trkpt lat="43.51445" lon="6.32253">
        <ele>341.5</ele>
        <time>2021-10-26T12:44:35.000Z</time>
      </trkpt>
      <trkpt lat="43.51441" lon="6.32248">
        <ele>341.6</ele>
        <time>2021-10-26T12:44:39.000Z</time>
      </trkpt>
      <trkpt lat="43.51439" lon="6.32242">
        <ele>341.2</ele>
        <time>2021-10-26T12:44:42.000Z</time>
      </trkpt>
      <trkpt lat="43.51436" lon="6.32236">
        <ele>341.3</ele>
        <time>2021-10-26T12:44:45.000Z</time>
      </trkpt>
      <trkpt lat="43.51434" lon="6.32231">
        <ele>341.5</ele>
        <time>2021-10-26T12:44:48.000Z</time>
      </trkpt>
      <trkpt lat="43.51431" lon="6.32224">
        <ele>341.5</ele>
        <time>2021-10-26T12:44:51.000Z</time>
      </trkpt>
      <trkpt lat="43.51428" lon="6.32219">
        <ele>341.4</ele>
        <time>2021-10-26T12:44:54.000Z</time>
      </trkpt>
      <trkpt lat="43.51424" lon="6.32215">
        <ele>341.3</ele>
        <time>2021-10-26T12:44:57.000Z</time>
      </trkpt>
      <trkpt lat="43.5142" lon="6.3221">
        <ele>341.4</ele>
        <time>2021-10-26T12:45:01.000Z</time>
      </trkpt>
      <trkpt lat="43.51416" lon="6.32203">
        <ele>341.5</ele>
        <time>2021-10-26T12:45:05.000Z</time>
      </trkpt>
      <trkpt lat="43.51412" lon="6.322">
        <ele>341.5</ele>
        <time>2021-10-26T12:45:08.000Z</time>
      </trkpt>
      <trkpt lat="43.51408" lon="6.32195">
        <ele>341.7</ele>
        <time>2021-10-26T12:45:11.000Z</time>
      </trkpt>
      <trkpt lat="43.51405" lon="6.3219">
        <ele>342</ele>
        <time>2021-10-26T12:45:14.000Z</time>
      </trkpt>
      <trkpt lat="43.51401" lon="6.32185">
        <ele>342.2</ele>
        <time>2021-10-26T12:45:17.000Z</time>
      </trkpt>
      <trkpt lat="43.51397" lon="6.3218">
        <ele>342.2</ele>
        <time>2021-10-26T12:45:20.000Z</time>
      </trkpt>
      <trkpt lat="43.51394" lon="6.32175">
        <ele>342.3</ele>
        <time>2021-10-26T12:45:23.000Z</time>
      </trkpt>
      <trkpt lat="43.5139" lon="6.32171">
        <ele>342.1</ele>
        <time>2021-10-26T12:45:26.000Z</time>
      </trkpt>
      <trkpt lat="43.51386" lon="6.32166">
        <ele>342</ele>
        <time>2021-10-26T12:45:29.000Z</time>
      </trkpt>
      <trkpt lat="43.51382" lon="6.32163">
        <ele>342.1</ele>
        <time>2021-10-26T12:45:32.000Z</time>
      </trkpt>
      <trkpt lat="43.51376" lon="6.32159">
        <ele>342.2</ele>
        <time>2021-10-26T12:45:36.000Z</time>
      </trkpt>
      <trkpt lat="43.51371" lon="6.32156">
        <ele>342.3</ele>
        <time>2021-10-26T12:45:40.000Z</time>
      </trkpt>
      <trkpt lat="43.51367" lon="6.32155">
        <ele>342.3</ele>
        <time>2021-10-26T12:45:43.000Z</time>
      </trkpt>
      <trkpt lat="43.51362" lon="6.32154">
        <ele>341.9</ele>
        <time>2021-10-26T12:45:46.000Z</time>
      </trkpt>
      <trkpt lat="43.51356" lon="6.32151">
        <ele>341.3</ele>
        <time>2021-10-26T12:45:51.000Z</time>
      </trkpt>
      <trkpt lat="43.51351" lon="6.3215">
        <ele>341.1</ele>
        <time>2021-10-26T12:45:54.000Z</time>
      </trkpt>
      <trkpt lat="43.51346" lon="6.3215">
        <ele>340.7</ele>
        <time>2021-10-26T12:45:57.000Z</time>
      </trkpt>
      <trkpt lat="43.51342" lon="6.3215">
        <ele>340.5</ele>
        <time>2021-10-26T12:46:00.000Z</time>
      </trkpt>
      <trkpt lat="43.51336" lon="6.32151">
        <ele>340.1</ele>
        <time>2021-10-26T12:46:03.000Z</time>
      </trkpt>
      <trkpt lat="43.51332" lon="6.32151">
        <ele>339.7</ele>
        <time>2021-10-26T12:46:06.000Z</time>
      </trkpt>
      <trkpt lat="43.51326" lon="6.32151">
        <ele>339.2</ele>
        <time>2021-10-26T12:46:11.000Z</time>
      </trkpt>
      <trkpt lat="43.51321" lon="6.32151">
        <ele>338.8</ele>
        <time>2021-10-26T12:46:15.000Z</time>
      </trkpt>
      <trkpt lat="43.51317" lon="6.32153">
        <ele>338.7</ele>
        <time>2021-10-26T12:46:18.000Z</time>
      </trkpt>
      <trkpt lat="43.51312" lon="6.32155">
        <ele>338.4</ele>
        <time>2021-10-26T12:46:21.000Z</time>
      </trkpt>
      <trkpt lat="43.51307" lon="6.32154">
        <ele>338.2</ele>
        <time>2021-10-26T12:46:24.000Z</time>
      </trkpt>
      <trkpt lat="43.51302" lon="6.32153">
        <ele>338.2</ele>
        <time>2021-10-26T12:46:28.000Z</time>
      </trkpt>
      <trkpt lat="43.51298" lon="6.32151">
        <ele>337.9</ele>
        <time>2021-10-26T12:46:31.000Z</time>
      </trkpt>
      <trkpt lat="43.51293" lon="6.3215">
        <ele>337.7</ele>
        <time>2021-10-26T12:46:34.000Z</time>
      </trkpt>
      <trkpt lat="43.51289" lon="6.32148">
        <ele>337.4</ele>
        <time>2021-10-26T12:46:37.000Z</time>
      </trkpt>
      <trkpt lat="43.51284" lon="6.32146">
        <ele>337.1</ele>
        <time>2021-10-26T12:46:40.000Z</time>
      </trkpt>
      <trkpt lat="43.51279" lon="6.32143">
        <ele>336.7</ele>
        <time>2021-10-26T12:46:43.000Z</time>
      </trkpt>
      <trkpt lat="43.51277" lon="6.32137">
        <ele>336.4</ele>
        <time>2021-10-26T12:46:47.000Z</time>
      </trkpt>
      <trkpt lat="43.51273" lon="6.32132">
        <ele>336.3</ele>
        <time>2021-10-26T12:46:51.000Z</time>
      </trkpt>
      <trkpt lat="43.51272" lon="6.32125">
        <ele>336</ele>
        <time>2021-10-26T12:46:55.000Z</time>
      </trkpt>
      <trkpt lat="43.5127" lon="6.32118">
        <ele>335.8</ele>
        <time>2021-10-26T12:46:58.000Z</time>
      </trkpt>
      <trkpt lat="43.51269" lon="6.32111">
        <ele>335.6</ele>
        <time>2021-10-26T12:47:02.000Z</time>
      </trkpt>
      <trkpt lat="43.51268" lon="6.32105">
        <ele>335.5</ele>
        <time>2021-10-26T12:47:05.000Z</time>
      </trkpt>
      <trkpt lat="43.51266" lon="6.32098">
        <ele>335.1</ele>
        <time>2021-10-26T12:47:09.000Z</time>
      </trkpt>
      <trkpt lat="43.51264" lon="6.32091">
        <ele>335</ele>
        <time>2021-10-26T12:47:13.000Z</time>
      </trkpt>
      <trkpt lat="43.51263" lon="6.32083">
        <ele>334.7</ele>
        <time>2021-10-26T12:47:16.000Z</time>
      </trkpt>
      <trkpt lat="43.5126" lon="6.32077">
        <ele>334.4</ele>
        <time>2021-10-26T12:47:20.000Z</time>
      </trkpt>
      <trkpt lat="43.5126" lon="6.32069">
        <ele>334.6</ele>
        <time>2021-10-26T12:47:24.000Z</time>
      </trkpt>
      <trkpt lat="43.5126" lon="6.32063">
        <ele>334.6</ele>
        <time>2021-10-26T12:47:27.000Z</time>
      </trkpt>
      <trkpt lat="43.51258" lon="6.32055">
        <ele>334.7</ele>
        <time>2021-10-26T12:47:31.000Z</time>
      </trkpt>
      <trkpt lat="43.51257" lon="6.32048">
        <ele>334.7</ele>
        <time>2021-10-26T12:47:34.000Z</time>
      </trkpt>
      <trkpt lat="43.51255" lon="6.32041">
        <ele>334.4</ele>
        <time>2021-10-26T12:47:38.000Z</time>
      </trkpt>
      <trkpt lat="43.51255" lon="6.32033">
        <ele>334.3</ele>
        <time>2021-10-26T12:47:42.000Z</time>
      </trkpt>
      <trkpt lat="43.51254" lon="6.32025">
        <ele>334.3</ele>
        <time>2021-10-26T12:47:45.000Z</time>
      </trkpt>
      <trkpt lat="43.51253" lon="6.32019">
        <ele>334.2</ele>
        <time>2021-10-26T12:47:48.000Z</time>
      </trkpt>
      <trkpt lat="43.51252" lon="6.32012">
        <ele>333.8</ele>
        <time>2021-10-26T12:47:51.000Z</time>
      </trkpt>
      <trkpt lat="43.51252" lon="6.32004">
        <ele>333.7</ele>
        <time>2021-10-26T12:47:54.000Z</time>
      </trkpt>
      <trkpt lat="43.51252" lon="6.31996">
        <ele>333.7</ele>
        <time>2021-10-26T12:47:57.000Z</time>
      </trkpt>
      <trkpt lat="43.51251" lon="6.31987">
        <ele>333.9</ele>
        <time>2021-10-26T12:48:01.000Z</time>
      </trkpt>
      <trkpt lat="43.5125" lon="6.31979">
        <ele>334</ele>
        <time>2021-10-26T12:48:04.000Z</time>
      </trkpt>
      <trkpt lat="43.51248" lon="6.31972">
        <ele>333.9</ele>
        <time>2021-10-26T12:48:07.000Z</time>
      </trkpt>
      <trkpt lat="43.51247" lon="6.31966">
        <ele>333.8</ele>
        <time>2021-10-26T12:48:10.000Z</time>
      </trkpt>
      <trkpt lat="43.51245" lon="6.31957">
        <ele>333.7</ele>
        <time>2021-10-26T12:48:14.000Z</time>
      </trkpt>
      <trkpt lat="43.51245" lon="6.3195">
        <ele>333.7</ele>
        <time>2021-10-26T12:48:17.000Z</time>
      </trkpt>
      <trkpt lat="43.51242" lon="6.31944">
        <ele>333.7</ele>
        <time>2021-10-26T12:48:21.000Z</time>
      </trkpt>
      <trkpt lat="43.51239" lon="6.31937">
        <ele>333.9</ele>
        <time>2021-10-26T12:48:25.000Z</time>
      </trkpt>
      <trkpt lat="43.51238" lon="6.3193">
        <ele>333.8</ele>
        <time>2021-10-26T12:48:28.000Z</time>
      </trkpt>
      <trkpt lat="43.51237" lon="6.31924">
        <ele>333.5</ele>
        <time>2021-10-26T12:48:31.000Z</time>
      </trkpt>
      <trkpt lat="43.51237" lon="6.31917">
        <ele>333.5</ele>
        <time>2021-10-26T12:48:34.000Z</time>
      </trkpt>
      <trkpt lat="43.51236" lon="6.3191">
        <ele>333.4</ele>
        <time>2021-10-26T12:48:37.000Z</time>
      </trkpt>
      <trkpt lat="43.51235" lon="6.31902">
        <ele>333.5</ele>
        <time>2021-10-26T12:48:41.000Z</time>
      </trkpt>
      <trkpt lat="43.51234" lon="6.31895">
        <ele>333.6</ele>
        <time>2021-10-26T12:48:45.000Z</time>
      </trkpt>
      <trkpt lat="43.51232" lon="6.31887">
        <ele>333.7</ele>
        <time>2021-10-26T12:48:49.000Z</time>
      </trkpt>
      <trkpt lat="43.51231" lon="6.3188">
        <ele>333.8</ele>
        <time>2021-10-26T12:48:52.000Z</time>
      </trkpt>
      <trkpt lat="43.51231" lon="6.31874">
        <ele>333.6</ele>
        <time>2021-10-26T12:48:54.000Z</time>
      </trkpt>
      <trkpt lat="43.5123" lon="6.31866">
        <ele>333.8</ele>
        <time>2021-10-26T12:48:57.000Z</time>
      </trkpt>
      <trkpt lat="43.5123" lon="6.31858">
        <ele>333.9</ele>
        <time>2021-10-26T12:49:01.000Z</time>
      </trkpt>
      <trkpt lat="43.51227" lon="6.31852">
        <ele>334</ele>
        <time>2021-10-26T12:49:06.000Z</time>
      </trkpt>
      <trkpt lat="43.51225" lon="6.31846">
        <ele>334</ele>
        <time>2021-10-26T12:49:10.000Z</time>
      </trkpt>
      <trkpt lat="43.51224" lon="6.31838">
        <ele>333.8</ele>
        <time>2021-10-26T12:49:13.000Z</time>
      </trkpt>
      <trkpt lat="43.51223" lon="6.31831">
        <ele>333.7</ele>
        <time>2021-10-26T12:49:16.000Z</time>
      </trkpt>
      <trkpt lat="43.51222" lon="6.31825">
        <ele>333</ele>
        <time>2021-10-26T12:49:21.000Z</time>
      </trkpt>
      <trkpt lat="43.51221" lon="6.31818">
        <ele>332.6</ele>
        <time>2021-10-26T12:49:24.000Z</time>
      </trkpt>
      <trkpt lat="43.51218" lon="6.31812">
        <ele>332.3</ele>
        <time>2021-10-26T12:49:27.000Z</time>
      </trkpt>
      <trkpt lat="43.51213" lon="6.31807">
        <ele>331.4</ele>
        <time>2021-10-26T12:49:31.000Z</time>
      </trkpt>
      <trkpt lat="43.51211" lon="6.31799">
        <ele>330.8</ele>
        <time>2021-10-26T12:49:35.000Z</time>
      </trkpt>
      <trkpt lat="43.51211" lon="6.31793">
        <ele>330.3</ele>
        <time>2021-10-26T12:49:38.000Z</time>
      </trkpt>
      <trkpt lat="43.5121" lon="6.31786">
        <ele>330</ele>
        <time>2021-10-26T12:49:41.000Z</time>
      </trkpt>
      <trkpt lat="43.5121" lon="6.31779">
        <ele>329.6</ele>
        <time>2021-10-26T12:49:44.000Z</time>
      </trkpt>
      <trkpt lat="43.51211" lon="6.31772">
        <ele>329.3</ele>
        <time>2021-10-26T12:49:47.000Z</time>
      </trkpt>
      <trkpt lat="43.51209" lon="6.31766">
        <ele>329.1</ele>
        <time>2021-10-26T12:49:50.000Z</time>
      </trkpt>
      <trkpt lat="43.51206" lon="6.31759">
        <ele>328.8</ele>
        <time>2021-10-26T12:49:54.000Z</time>
      </trkpt>
      <trkpt lat="43.51204" lon="6.31753">
        <ele>328.6</ele>
        <time>2021-10-26T12:49:57.000Z</time>
      </trkpt>
      <trkpt lat="43.51202" lon="6.31746">
        <ele>328</ele>
        <time>2021-10-26T12:50:01.000Z</time>
      </trkpt>
      <trkpt lat="43.51198" lon="6.31744">
        <ele>327.6</ele>
        <time>2021-10-26T12:50:04.000Z</time>
      </trkpt>
      <trkpt lat="43.51194" lon="6.31739">
        <ele>327.5</ele>
        <time>2021-10-26T12:50:07.000Z</time>
      </trkpt>
      <trkpt lat="43.51191" lon="6.31734">
        <ele>327.5</ele>
        <time>2021-10-26T12:50:10.000Z</time>
      </trkpt>
      <trkpt lat="43.5119" lon="6.31726">
        <ele>327.4</ele>
        <time>2021-10-26T12:50:13.000Z</time>
      </trkpt>
      <trkpt lat="43.51189" lon="6.31718">
        <ele>327.3</ele>
        <time>2021-10-26T12:50:16.000Z</time>
      </trkpt>
      <trkpt lat="43.51188" lon="6.31711">
        <ele>327.5</ele>
        <time>2021-10-26T12:50:19.000Z</time>
      </trkpt>
      <trkpt lat="43.51188" lon="6.31702">
        <ele>327.5</ele>
        <time>2021-10-26T12:50:22.000Z</time>
      </trkpt>
      <trkpt lat="43.51187" lon="6.31694">
        <ele>327.5</ele>
        <time>2021-10-26T12:50:25.000Z</time>
      </trkpt>
      <trkpt lat="43.51187" lon="6.31686">
        <ele>327.3</ele>
        <time>2021-10-26T12:50:28.000Z</time>
      </trkpt>
      <trkpt lat="43.51186" lon="6.31679">
        <ele>327</ele>
        <time>2021-10-26T12:50:31.000Z</time>
      </trkpt>
      <trkpt lat="43.51185" lon="6.3167">
        <ele>326.8</ele>
        <time>2021-10-26T12:50:34.000Z</time>
      </trkpt>
      <trkpt lat="43.51184" lon="6.31662">
        <ele>326.6</ele>
        <time>2021-10-26T12:50:37.000Z</time>
      </trkpt>
      <trkpt lat="43.51183" lon="6.31655">
        <ele>326.5</ele>
        <time>2021-10-26T12:50:40.000Z</time>
      </trkpt>
      <trkpt lat="43.51182" lon="6.31648">
        <ele>326.3</ele>
        <time>2021-10-26T12:50:43.000Z</time>
      </trkpt>
      <trkpt lat="43.51182" lon="6.3164">
        <ele>325.9</ele>
        <time>2021-10-26T12:50:46.000Z</time>
      </trkpt>
      <trkpt lat="43.51181" lon="6.31633">
        <ele>325.6</ele>
        <time>2021-10-26T12:50:49.000Z</time>
      </trkpt>
      <trkpt lat="43.5118" lon="6.31626">
        <ele>325.6</ele>
        <time>2021-10-26T12:50:52.000Z</time>
      </trkpt>
      <trkpt lat="43.51179" lon="6.31619">
        <ele>325.7</ele>
        <time>2021-10-26T12:50:55.000Z</time>
      </trkpt>
      <trkpt lat="43.51178" lon="6.31612">
        <ele>325.7</ele>
        <time>2021-10-26T12:50:58.000Z</time>
      </trkpt>
      <trkpt lat="43.51176" lon="6.31606">
        <ele>325.8</ele>
        <time>2021-10-26T12:51:00.899Z</time>
      </trkpt>
      <trkpt lat="43.51175" lon="6.31599">
        <ele>325.9</ele>
        <time>2021-10-26T12:51:04.000Z</time>
      </trkpt>
      <trkpt lat="43.51174" lon="6.31593">
        <ele>325.9</ele>
        <time>2021-10-26T12:51:07.000Z</time>
      </trkpt>
      <trkpt lat="43.51173" lon="6.31587">
        <ele>325.8</ele>
        <time>2021-10-26T12:51:10.000Z</time>
      </trkpt>
      <trkpt lat="43.51172" lon="6.3158">
        <ele>325.6</ele>
        <time>2021-10-26T12:51:13.000Z</time>
      </trkpt>
      <trkpt lat="43.51171" lon="6.31573">
        <ele>325.4</ele>
        <time>2021-10-26T12:51:16.000Z</time>
      </trkpt>
      <trkpt lat="43.51169" lon="6.31567">
        <ele>325.5</ele>
        <time>2021-10-26T12:51:19.000Z</time>
      </trkpt>
      <trkpt lat="43.51168" lon="6.3156">
        <ele>325.5</ele>
        <time>2021-10-26T12:51:22.000Z</time>
      </trkpt>
      <trkpt lat="43.51167" lon="6.31554">
        <ele>325.6</ele>
        <time>2021-10-26T12:51:25.000Z</time>
      </trkpt>
      <trkpt lat="43.51165" lon="6.31546">
        <ele>325.5</ele>
        <time>2021-10-26T12:51:29.000Z</time>
      </trkpt>
      <trkpt lat="43.51164" lon="6.3154">
        <ele>325.3</ele>
        <time>2021-10-26T12:51:32.000Z</time>
      </trkpt>
      <trkpt lat="43.51161" lon="6.31533">
        <ele>325.1</ele>
        <time>2021-10-26T12:51:36.000Z</time>
      </trkpt>
      <trkpt lat="43.51158" lon="6.31526">
        <ele>325.1</ele>
        <time>2021-10-26T12:51:40.000Z</time>
      </trkpt>
      <trkpt lat="43.51157" lon="6.3152">
        <ele>325</ele>
        <time>2021-10-26T12:51:43.000Z</time>
      </trkpt>
      <trkpt lat="43.51156" lon="6.31513">
        <ele>324.8</ele>
        <time>2021-10-26T12:51:46.000Z</time>
      </trkpt>
      <trkpt lat="43.51155" lon="6.31506">
        <ele>324.6</ele>
        <time>2021-10-26T12:51:49.000Z</time>
      </trkpt>
      <trkpt lat="43.51154" lon="6.315">
        <ele>324.5</ele>
        <time>2021-10-26T12:51:52.000Z</time>
      </trkpt>
      <trkpt lat="43.51152" lon="6.31492">
        <ele>324.3</ele>
        <time>2021-10-26T12:51:56.000Z</time>
      </trkpt>
      <trkpt lat="43.5115" lon="6.31484">
        <ele>324</ele>
        <time>2021-10-26T12:52:00.000Z</time>
      </trkpt>
      <trkpt lat="43.51149" lon="6.31477">
        <ele>323.7</ele>
        <time>2021-10-26T12:52:03.000Z</time>
      </trkpt>
      <trkpt lat="43.51148" lon="6.3147">
        <ele>323.5</ele>
        <time>2021-10-26T12:52:06.000Z</time>
      </trkpt>
      <trkpt lat="43.51147" lon="6.31462">
        <ele>323.4</ele>
        <time>2021-10-26T12:52:10.000Z</time>
      </trkpt>
      <trkpt lat="43.51147" lon="6.31455">
        <ele>323.3</ele>
        <time>2021-10-26T12:52:13.000Z</time>
      </trkpt>
      <trkpt lat="43.51145" lon="6.31448">
        <ele>322.9</ele>
        <time>2021-10-26T12:52:17.000Z</time>
      </trkpt>
      <trkpt lat="43.51144" lon="6.31442">
        <ele>322.7</ele>
        <time>2021-10-26T12:52:21.000Z</time>
      </trkpt>
      <trkpt lat="43.51142" lon="6.31436">
        <ele>322.7</ele>
        <time>2021-10-26T12:52:24.000Z</time>
      </trkpt>
      <trkpt lat="43.5114" lon="6.31429">
        <ele>322.6</ele>
        <time>2021-10-26T12:52:28.000Z</time>
      </trkpt>
      <trkpt lat="43.51139" lon="6.31421">
        <ele>322.3</ele>
        <time>2021-10-26T12:52:32.000Z</time>
      </trkpt>
      <trkpt lat="43.51137" lon="6.31414">
        <ele>322</ele>
        <time>2021-10-26T12:52:35.000Z</time>
      </trkpt>
      <trkpt lat="43.51136" lon="6.31407">
        <ele>322</ele>
        <time>2021-10-26T12:52:39.000Z</time>
      </trkpt>
      <trkpt lat="43.51134" lon="6.314">
        <ele>322</ele>
        <time>2021-10-26T12:52:43.000Z</time>
      </trkpt>
      <trkpt lat="43.51131" lon="6.31392">
        <ele>322</ele>
        <time>2021-10-26T12:52:47.000Z</time>
      </trkpt>
      <trkpt lat="43.51128" lon="6.31386">
        <ele>322</ele>
        <time>2021-10-26T12:52:51.000Z</time>
      </trkpt>
      <trkpt lat="43.51127" lon="6.31379">
        <ele>321.7</ele>
        <time>2021-10-26T12:52:54.000Z</time>
      </trkpt>
      <trkpt lat="43.51125" lon="6.31373">
        <ele>321.7</ele>
        <time>2021-10-26T12:52:58.000Z</time>
      </trkpt>
      <trkpt lat="43.51124" lon="6.31367">
        <ele>321.6</ele>
        <time>2021-10-26T12:53:01.000Z</time>
      </trkpt>
      <trkpt lat="43.51124" lon="6.3136">
        <ele>321.5</ele>
        <time>2021-10-26T12:53:04.000Z</time>
      </trkpt>
      <trkpt lat="43.51123" lon="6.31354">
        <ele>321.3</ele>
        <time>2021-10-26T12:53:07.000Z</time>
      </trkpt>
      <trkpt lat="43.51121" lon="6.31347">
        <ele>321</ele>
        <time>2021-10-26T12:53:11.000Z</time>
      </trkpt>
      <trkpt lat="43.5112" lon="6.3134">
        <ele>321</ele>
        <time>2021-10-26T12:53:14.000Z</time>
      </trkpt>
      <trkpt lat="43.51121" lon="6.31332">
        <ele>320.8</ele>
        <time>2021-10-26T12:53:17.000Z</time>
      </trkpt>
      <trkpt lat="43.51121" lon="6.31324">
        <ele>320.5</ele>
        <time>2021-10-26T12:53:20.000Z</time>
      </trkpt>
      <trkpt lat="43.5112" lon="6.31318">
        <ele>319.8</ele>
        <time>2021-10-26T12:53:23.000Z</time>
      </trkpt>
      <trkpt lat="43.51119" lon="6.31311">
        <ele>319.5</ele>
        <time>2021-10-26T12:53:26.000Z</time>
      </trkpt>
      <trkpt lat="43.51118" lon="6.31305">
        <ele>319.3</ele>
        <time>2021-10-26T12:53:29.000Z</time>
      </trkpt>
      <trkpt lat="43.51116" lon="6.31298">
        <ele>319</ele>
        <time>2021-10-26T12:53:32.000Z</time>
      </trkpt>
      <trkpt lat="43.51115" lon="6.3129">
        <ele>318.8</ele>
        <time>2021-10-26T12:53:36.000Z</time>
      </trkpt>
      <trkpt lat="43.51114" lon="6.31282">
        <ele>318.6</ele>
        <time>2021-10-26T12:53:39.000Z</time>
      </trkpt>
      <trkpt lat="43.51113" lon="6.31275">
        <ele>318.5</ele>
        <time>2021-10-26T12:53:42.000Z</time>
      </trkpt>
      <trkpt lat="43.51111" lon="6.31269">
        <ele>318.2</ele>
        <time>2021-10-26T12:53:45.000Z</time>
      </trkpt>
      <trkpt lat="43.51109" lon="6.31262">
        <ele>318.1</ele>
        <time>2021-10-26T12:53:49.000Z</time>
      </trkpt>
      <trkpt lat="43.51108" lon="6.31254">
        <ele>317.9</ele>
        <time>2021-10-26T12:53:52.000Z</time>
      </trkpt>
      <trkpt lat="43.51108" lon="6.31245">
        <ele>317.7</ele>
        <time>2021-10-26T12:53:55.000Z</time>
      </trkpt>
      <trkpt lat="43.51107" lon="6.31239">
        <ele>317.6</ele>
        <time>2021-10-26T12:53:58.000Z</time>
      </trkpt>
      <trkpt lat="43.51102" lon="6.31233">
        <ele>317.8</ele>
        <time>2021-10-26T12:54:02.000Z</time>
      </trkpt>
      <trkpt lat="43.511" lon="6.31226">
        <ele>317.9</ele>
        <time>2021-10-26T12:54:06.000Z</time>
      </trkpt>
      <trkpt lat="43.51098" lon="6.31219">
        <ele>318.1</ele>
        <time>2021-10-26T12:54:10.000Z</time>
      </trkpt>
      <trkpt lat="43.51097" lon="6.31213">
        <ele>318.1</ele>
        <time>2021-10-26T12:54:13.000Z</time>
      </trkpt>
      <trkpt lat="43.51094" lon="6.31207">
        <ele>317.8</ele>
        <time>2021-10-26T12:54:17.000Z</time>
      </trkpt>
      <trkpt lat="43.51094" lon="6.312">
        <ele>317.8</ele>
        <time>2021-10-26T12:54:20.000Z</time>
      </trkpt>
      <trkpt lat="43.51093" lon="6.31191">
        <ele>317.9</ele>
        <time>2021-10-26T12:54:24.000Z</time>
      </trkpt>
      <trkpt lat="43.51091" lon="6.31184">
        <ele>317.9</ele>
        <time>2021-10-26T12:54:27.000Z</time>
      </trkpt>
      <trkpt lat="43.5109" lon="6.31178">
        <ele>317.9</ele>
        <time>2021-10-26T12:54:30.000Z</time>
      </trkpt>
      <trkpt lat="43.51087" lon="6.31173">
        <ele>318</ele>
        <time>2021-10-26T12:54:34.000Z</time>
      </trkpt>
      <trkpt lat="43.51084" lon="6.31167">
        <ele>317.8</ele>
        <time>2021-10-26T12:54:38.000Z</time>
      </trkpt>
      <trkpt lat="43.51084" lon="6.31159">
        <ele>317.6</ele>
        <time>2021-10-26T12:54:42.000Z</time>
      </trkpt>
      <trkpt lat="43.51081" lon="6.31152">
        <ele>317.1</ele>
        <time>2021-10-26T12:54:46.000Z</time>
      </trkpt>
      <trkpt lat="43.51081" lon="6.31145">
        <ele>316.9</ele>
        <time>2021-10-26T12:54:49.000Z</time>
      </trkpt>
      <trkpt lat="43.51078" lon="6.31137">
        <ele>316.7</ele>
        <time>2021-10-26T12:54:52.000Z</time>
      </trkpt>
      <trkpt lat="43.51078" lon="6.31131">
        <ele>316.4</ele>
        <time>2021-10-26T12:54:55.000Z</time>
      </trkpt>
      <trkpt lat="43.51076" lon="6.31124">
        <ele>315.9</ele>
        <time>2021-10-26T12:54:59.000Z</time>
      </trkpt>
      <trkpt lat="43.51073" lon="6.31117">
        <ele>315.8</ele>
        <time>2021-10-26T12:55:03.000Z</time>
      </trkpt>
      <trkpt lat="43.51071" lon="6.31111">
        <ele>315.5</ele>
        <time>2021-10-26T12:55:06.000Z</time>
      </trkpt>
      <trkpt lat="43.51069" lon="6.31105">
        <ele>315</ele>
        <time>2021-10-26T12:55:10.000Z</time>
      </trkpt>
      <trkpt lat="43.51068" lon="6.31097">
        <ele>314.6</ele>
        <time>2021-10-26T12:55:14.000Z</time>
      </trkpt>
      <trkpt lat="43.51068" lon="6.3109">
        <ele>314.3</ele>
        <time>2021-10-26T12:55:17.000Z</time>
      </trkpt>
      <trkpt lat="43.51067" lon="6.31082">
        <ele>313.8</ele>
        <time>2021-10-26T12:55:21.000Z</time>
      </trkpt>
      <trkpt lat="43.51067" lon="6.31075">
        <ele>313.7</ele>
        <time>2021-10-26T12:55:24.000Z</time>
      </trkpt>
      <trkpt lat="43.51065" lon="6.31069">
        <ele>313.2</ele>
        <time>2021-10-26T12:55:27.000Z</time>
      </trkpt>
      <trkpt lat="43.51064" lon="6.31063">
        <ele>312.7</ele>
        <time>2021-10-26T12:55:30.000Z</time>
      </trkpt>
      <trkpt lat="43.51061" lon="6.31056">
        <ele>311.9</ele>
        <time>2021-10-26T12:55:34.000Z</time>
      </trkpt>
      <trkpt lat="43.51059" lon="6.31051">
        <ele>311.3</ele>
        <time>2021-10-26T12:55:37.000Z</time>
      </trkpt>
      <trkpt lat="43.51058" lon="6.31043">
        <ele>310.4</ele>
        <time>2021-10-26T12:55:41.000Z</time>
      </trkpt>
      <trkpt lat="43.51059" lon="6.31036">
        <ele>309.7</ele>
        <time>2021-10-26T12:55:44.000Z</time>
      </trkpt>
      <trkpt lat="43.51056" lon="6.3103">
        <ele>308.9</ele>
        <time>2021-10-26T12:55:48.000Z</time>
      </trkpt>
      <trkpt lat="43.51055" lon="6.31023">
        <ele>308.2</ele>
        <time>2021-10-26T12:55:51.000Z</time>
      </trkpt>
      <trkpt lat="43.51055" lon="6.31016">
        <ele>307.8</ele>
        <time>2021-10-26T12:55:55.000Z</time>
      </trkpt>
      <trkpt lat="43.51051" lon="6.31011">
        <ele>307</ele>
        <time>2021-10-26T12:55:59.000Z</time>
      </trkpt>
      <trkpt lat="43.51048" lon="6.31005">
        <ele>306.6</ele>
        <time>2021-10-26T12:56:02.000Z</time>
      </trkpt>
      <trkpt lat="43.51044" lon="6.31">
        <ele>306.4</ele>
        <time>2021-10-26T12:56:05.000Z</time>
      </trkpt>
      <trkpt lat="43.5104" lon="6.30995">
        <ele>306.6</ele>
        <time>2021-10-26T12:56:08.000Z</time>
      </trkpt>
      <trkpt lat="43.51038" lon="6.30989">
        <ele>306.5</ele>
        <time>2021-10-26T12:56:11.000Z</time>
      </trkpt>
      <trkpt lat="43.51036" lon="6.30982">
        <ele>306.3</ele>
        <time>2021-10-26T12:56:14.000Z</time>
      </trkpt>
      <trkpt lat="43.51034" lon="6.30976">
        <ele>306</ele>
        <time>2021-10-26T12:56:17.000Z</time>
      </trkpt>
      <trkpt lat="43.51032" lon="6.30968">
        <ele>305.4</ele>
        <time>2021-10-26T12:56:21.000Z</time>
      </trkpt>
      <trkpt lat="43.51032" lon="6.30961">
        <ele>305.4</ele>
        <time>2021-10-26T12:56:24.000Z</time>
      </trkpt>
      <trkpt lat="43.5103" lon="6.30954">
        <ele>305.2</ele>
        <time>2021-10-26T12:56:28.000Z</time>
      </trkpt>
      <trkpt lat="43.51028" lon="6.30947">
        <ele>304.8</ele>
        <time>2021-10-26T12:56:33.000Z</time>
      </trkpt>
      <trkpt lat="43.51026" lon="6.30941">
        <ele>304.7</ele>
        <time>2021-10-26T12:56:37.000Z</time>
      </trkpt>
      <trkpt lat="43.51026" lon="6.30934">
        <ele>304.5</ele>
        <time>2021-10-26T12:56:41.000Z</time>
      </trkpt>
      <trkpt lat="43.51024" lon="6.30928">
        <ele>304.3</ele>
        <time>2021-10-26T12:56:44.000Z</time>
      </trkpt>
      <trkpt lat="43.51022" lon="6.30921">
        <ele>304</ele>
        <time>2021-10-26T12:56:48.000Z</time>
      </trkpt>
      <trkpt lat="43.51022" lon="6.30914">
        <ele>303.7</ele>
        <time>2021-10-26T12:56:51.000Z</time>
      </trkpt>
      <trkpt lat="43.5102" lon="6.30907">
        <ele>303.4</ele>
        <time>2021-10-26T12:56:55.000Z</time>
      </trkpt>
      <trkpt lat="43.51017" lon="6.30901">
        <ele>303.2</ele>
        <time>2021-10-26T12:56:59.000Z</time>
      </trkpt>
      <trkpt lat="43.51014" lon="6.30895">
        <ele>302.9</ele>
        <time>2021-10-26T12:57:03.000Z</time>
      </trkpt>
      <trkpt lat="43.5101" lon="6.3089">
        <ele>302.5</ele>
        <time>2021-10-26T12:57:07.000Z</time>
      </trkpt>
      <trkpt lat="43.51006" lon="6.30885">
        <ele>302.1</ele>
        <time>2021-10-26T12:57:10.000Z</time>
      </trkpt>
      <trkpt lat="43.51003" lon="6.3088">
        <ele>301.8</ele>
        <time>2021-10-26T12:57:13.000Z</time>
      </trkpt>
      <trkpt lat="43.50999" lon="6.30876">
        <ele>301.7</ele>
        <time>2021-10-26T12:57:17.000Z</time>
      </trkpt>
      <trkpt lat="43.50995" lon="6.30871">
        <ele>301.1</ele>
        <time>2021-10-26T12:57:22.000Z</time>
      </trkpt>
      <trkpt lat="43.50991" lon="6.30867">
        <ele>300.6</ele>
        <time>2021-10-26T12:57:26.000Z</time>
      </trkpt>
      <trkpt lat="43.50986" lon="6.30865">
        <ele>300.2</ele>
        <time>2021-10-26T12:57:29.000Z</time>
      </trkpt>
      <trkpt lat="43.50982" lon="6.30863">
        <ele>299.9</ele>
        <time>2021-10-26T12:57:32.000Z</time>
      </trkpt>
      <trkpt lat="43.50976" lon="6.30862">
        <ele>299.6</ele>
        <time>2021-10-26T12:57:36.000Z</time>
      </trkpt>
      <trkpt lat="43.50971" lon="6.30859">
        <ele>299.3</ele>
        <time>2021-10-26T12:57:41.000Z</time>
      </trkpt>
      <trkpt lat="43.50968" lon="6.30854">
        <ele>299</ele>
        <time>2021-10-26T12:57:46.000Z</time>
      </trkpt>
      <trkpt lat="43.50962" lon="6.30852">
        <ele>298.5</ele>
        <time>2021-10-26T12:57:50.000Z</time>
      </trkpt>
      <trkpt lat="43.50956" lon="6.3085">
        <ele>298.1</ele>
        <time>2021-10-26T12:57:53.000Z</time>
      </trkpt>
      <trkpt lat="43.5095" lon="6.3085">
        <ele>297.8</ele>
        <time>2021-10-26T12:57:56.000Z</time>
      </trkpt>
      <trkpt lat="43.50945" lon="6.30849">
        <ele>297.5</ele>
        <time>2021-10-26T12:58:00.000Z</time>
      </trkpt>
      <trkpt lat="43.5094" lon="6.30852">
        <ele>297.3</ele>
        <time>2021-10-26T12:58:04.000Z</time>
      </trkpt>
      <trkpt lat="43.50936" lon="6.30855">
        <ele>297.2</ele>
        <time>2021-10-26T12:58:07.000Z</time>
      </trkpt>
      <trkpt lat="43.50932" lon="6.30859">
        <ele>297</ele>
        <time>2021-10-26T12:58:10.000Z</time>
      </trkpt>
      <trkpt lat="43.50928" lon="6.30864">
        <ele>296.9</ele>
        <time>2021-10-26T12:58:13.000Z</time>
      </trkpt>
      <trkpt lat="43.50924" lon="6.30868">
        <ele>296.8</ele>
        <time>2021-10-26T12:58:16.000Z</time>
      </trkpt>
      <trkpt lat="43.50921" lon="6.30873">
        <ele>296.6</ele>
        <time>2021-10-26T12:58:19.000Z</time>
      </trkpt>
      <trkpt lat="43.50917" lon="6.30879">
        <ele>296.1</ele>
        <time>2021-10-26T12:58:23.000Z</time>
      </trkpt>
      <trkpt lat="43.50915" lon="6.30887">
        <ele>295.9</ele>
        <time>2021-10-26T12:58:27.000Z</time>
      </trkpt>
      <trkpt lat="43.50913" lon="6.30893">
        <ele>295.8</ele>
        <time>2021-10-26T12:58:30.000Z</time>
      </trkpt>
      <trkpt lat="43.5091" lon="6.30897">
        <ele>295.6</ele>
        <time>2021-10-26T12:58:33.000Z</time>
      </trkpt>
      <trkpt lat="43.50908" lon="6.30903">
        <ele>295.4</ele>
        <time>2021-10-26T12:58:36.000Z</time>
      </trkpt>
      <trkpt lat="43.50906" lon="6.30908">
        <ele>295.1</ele>
        <time>2021-10-26T12:58:39.000Z</time>
      </trkpt>
      <trkpt lat="43.50904" lon="6.30916">
        <ele>294.9</ele>
        <time>2021-10-26T12:58:43.000Z</time>
      </trkpt>
      <trkpt lat="43.50902" lon="6.30923">
        <ele>294.3</ele>
        <time>2021-10-26T12:58:47.000Z</time>
      </trkpt>
      <trkpt lat="43.50901" lon="6.3093">
        <ele>294.1</ele>
        <time>2021-10-26T12:58:50.000Z</time>
      </trkpt>
      <trkpt lat="43.50898" lon="6.30937">
        <ele>293.3</ele>
        <time>2021-10-26T12:58:54.000Z</time>
      </trkpt>
      <trkpt lat="43.50895" lon="6.30942">
        <ele>293</ele>
        <time>2021-10-26T12:58:58.000Z</time>
      </trkpt>
      <trkpt lat="43.50891" lon="6.30949">
        <ele>292.5</ele>
        <time>2021-10-26T12:59:02.000Z</time>
      </trkpt>
      <trkpt lat="43.50888" lon="6.30956">
        <ele>292</ele>
        <time>2021-10-26T12:59:06.000Z</time>
      </trkpt>
      <trkpt lat="43.50885" lon="6.30961">
        <ele>291.2</ele>
        <time>2021-10-26T12:59:10.000Z</time>
      </trkpt>
      <trkpt lat="43.50883" lon="6.30969">
        <ele>291.3</ele>
        <time>2021-10-26T12:59:14.000Z</time>
      </trkpt>
      <trkpt lat="43.50881" lon="6.30974">
        <ele>291</ele>
        <time>2021-10-26T12:59:17.000Z</time>
      </trkpt>
      <trkpt lat="43.50877" lon="6.30978">
        <ele>290.7</ele>
        <time>2021-10-26T12:59:20.000Z</time>
      </trkpt>
      <trkpt lat="43.50873" lon="6.30981">
        <ele>290.4</ele>
        <time>2021-10-26T12:59:23.000Z</time>
      </trkpt>
      <trkpt lat="43.5087" lon="6.30985">
        <ele>289.9</ele>
        <time>2021-10-26T12:59:26.000Z</time>
      </trkpt>
      <trkpt lat="43.50868" lon="6.30991">
        <ele>289.4</ele>
        <time>2021-10-26T12:59:29.000Z</time>
      </trkpt>
      <trkpt lat="43.50865" lon="6.30996">
        <ele>289.3</ele>
        <time>2021-10-26T12:59:32.000Z</time>
      </trkpt>
      <trkpt lat="43.50861" lon="6.31002">
        <ele>289.1</ele>
        <time>2021-10-26T12:59:36.000Z</time>
      </trkpt>
      <trkpt lat="43.50856" lon="6.31006">
        <ele>288.6</ele>
        <time>2021-10-26T12:59:40.000Z</time>
      </trkpt>
      <trkpt lat="43.50853" lon="6.31011">
        <ele>288.4</ele>
        <time>2021-10-26T12:59:43.000Z</time>
      </trkpt>
      <trkpt lat="43.5085" lon="6.31016">
        <ele>288.2</ele>
        <time>2021-10-26T12:59:46.000Z</time>
      </trkpt>
      <trkpt lat="43.50845" lon="6.3102">
        <ele>287.9</ele>
        <time>2021-10-26T12:59:50.000Z</time>
      </trkpt>
      <trkpt lat="43.50842" lon="6.31026">
        <ele>287.6</ele>
        <time>2021-10-26T12:59:53.000Z</time>
      </trkpt>
      <trkpt lat="43.50838" lon="6.31031">
        <ele>287.1</ele>
        <time>2021-10-26T12:59:57.000Z</time>
      </trkpt>
      <trkpt lat="43.50835" lon="6.31039">
        <ele>286.8</ele>
        <time>2021-10-26T13:00:02.000Z</time>
      </trkpt>
      <trkpt lat="43.50831" lon="6.31045">
        <ele>286.4</ele>
        <time>2021-10-26T13:00:05.000Z</time>
      </trkpt>
      <trkpt lat="43.50828" lon="6.31051">
        <ele>286.2</ele>
        <time>2021-10-26T13:00:08.000Z</time>
      </trkpt>
      <trkpt lat="43.50825" lon="6.31056">
        <ele>286</ele>
        <time>2021-10-26T13:00:11.000Z</time>
      </trkpt>
      <trkpt lat="43.50822" lon="6.31061">
        <ele>285.8</ele>
        <time>2021-10-26T13:00:14.000Z</time>
      </trkpt>
      <trkpt lat="43.50818" lon="6.31066">
        <ele>285.3</ele>
        <time>2021-10-26T13:00:18.000Z</time>
      </trkpt>
      <trkpt lat="43.50814" lon="6.31072">
        <ele>284.9</ele>
        <time>2021-10-26T13:00:22.000Z</time>
      </trkpt>
      <trkpt lat="43.50811" lon="6.31078">
        <ele>284.5</ele>
        <time>2021-10-26T13:00:26.000Z</time>
      </trkpt>
      <trkpt lat="43.50808" lon="6.31081">
        <ele>284.3</ele>
        <time>2021-10-26T13:00:30.000Z</time>
      </trkpt>
      <trkpt lat="43.50805" lon="6.31087">
        <ele>283.6</ele>
        <time>2021-10-26T13:00:33.000Z</time>
      </trkpt>
      <trkpt lat="43.50803" lon="6.31093">
        <ele>283.1</ele>
        <time>2021-10-26T13:00:36.000Z</time>
      </trkpt>
      <trkpt lat="43.508" lon="6.31098">
        <ele>282.7</ele>
        <time>2021-10-26T13:00:39.000Z</time>
      </trkpt>
      <trkpt lat="43.50796" lon="6.31104">
        <ele>282.6</ele>
        <time>2021-10-26T13:00:43.000Z</time>
      </trkpt>
      <trkpt lat="43.50792" lon="6.31107">
        <ele>282.2</ele>
        <time>2021-10-26T13:00:46.000Z</time>
      </trkpt>
      <trkpt lat="43.50787" lon="6.31111">
        <ele>281.9</ele>
        <time>2021-10-26T13:00:50.000Z</time>
      </trkpt>
      <trkpt lat="43.50782" lon="6.31113">
        <ele>281.1</ele>
        <time>2021-10-26T13:00:56.000Z</time>
      </trkpt>
      <trkpt lat="43.50777" lon="6.31115">
        <ele>280.8</ele>
        <time>2021-10-26T13:01:00.000Z</time>
      </trkpt>
      <trkpt lat="43.50773" lon="6.31117">
        <ele>280.4</ele>
        <time>2021-10-26T13:01:06.000Z</time>
      </trkpt>
      <trkpt lat="43.50769" lon="6.31122">
        <ele>280.4</ele>
        <time>2021-10-26T13:01:11.000Z</time>
      </trkpt>
      <trkpt lat="43.50766" lon="6.31126">
        <ele>280.2</ele>
        <time>2021-10-26T13:01:16.000Z</time>
      </trkpt>
      <trkpt lat="43.50763" lon="6.31132">
        <ele>280.2</ele>
        <time>2021-10-26T13:01:19.000Z</time>
      </trkpt>
      <trkpt lat="43.5076" lon="6.31137">
        <ele>280.1</ele>
        <time>2021-10-26T13:01:22.000Z</time>
      </trkpt>
      <trkpt lat="43.50758" lon="6.31143">
        <ele>280.1</ele>
        <time>2021-10-26T13:01:26.000Z</time>
      </trkpt>
      <trkpt lat="43.50755" lon="6.31149">
        <ele>280.3</ele>
        <time>2021-10-26T13:01:30.000Z</time>
      </trkpt>
      <trkpt lat="43.50752" lon="6.31155">
        <ele>280.1</ele>
        <time>2021-10-26T13:01:34.000Z</time>
      </trkpt>
      <trkpt lat="43.50748" lon="6.31161">
        <ele>279.9</ele>
        <time>2021-10-26T13:01:38.000Z</time>
      </trkpt>
      <trkpt lat="43.50745" lon="6.31167">
        <ele>280</ele>
        <time>2021-10-26T13:01:42.000Z</time>
      </trkpt>
      <trkpt lat="43.50741" lon="6.31173">
        <ele>279.9</ele>
        <time>2021-10-26T13:01:46.000Z</time>
      </trkpt>
      <trkpt lat="43.50737" lon="6.31178">
        <ele>279.6</ele>
        <time>2021-10-26T13:01:50.000Z</time>
      </trkpt>
      <trkpt lat="43.50733" lon="6.31184">
        <ele>279.6</ele>
        <time>2021-10-26T13:01:54.000Z</time>
      </trkpt>
      <trkpt lat="43.50729" lon="6.3119">
        <ele>279.7</ele>
        <time>2021-10-26T13:01:58.000Z</time>
      </trkpt>
      <trkpt lat="43.50726" lon="6.31196">
        <ele>279.8</ele>
        <time>2021-10-26T13:02:02.000Z</time>
      </trkpt>
      <trkpt lat="43.50721" lon="6.31201">
        <ele>280</ele>
        <time>2021-10-26T13:02:06.000Z</time>
      </trkpt>
      <trkpt lat="43.50718" lon="6.31206">
        <ele>280</ele>
        <time>2021-10-26T13:02:10.000Z</time>
      </trkpt>
      <trkpt lat="43.50715" lon="6.31211">
        <ele>280.2</ele>
        <time>2021-10-26T13:02:14.000Z</time>
      </trkpt>
      <trkpt lat="43.5071" lon="6.31216">
        <ele>280.2</ele>
        <time>2021-10-26T13:02:18.000Z</time>
      </trkpt>
      <trkpt lat="43.50706" lon="6.31221">
        <ele>280.1</ele>
        <time>2021-10-26T13:02:22.000Z</time>
      </trkpt>
      <trkpt lat="43.50702" lon="6.31226">
        <ele>279.9</ele>
        <time>2021-10-26T13:02:26.000Z</time>
      </trkpt>
      <trkpt lat="43.50698" lon="6.31231">
        <ele>280.2</ele>
        <time>2021-10-26T13:02:30.000Z</time>
      </trkpt>
      <trkpt lat="43.50694" lon="6.31237">
        <ele>280.1</ele>
        <time>2021-10-26T13:02:34.000Z</time>
      </trkpt>
      <trkpt lat="43.5069" lon="6.31242">
        <ele>280</ele>
        <time>2021-10-26T13:02:38.000Z</time>
      </trkpt>
      <trkpt lat="43.50687" lon="6.31248">
        <ele>279.8</ele>
        <time>2021-10-26T13:02:42.000Z</time>
      </trkpt>
      <trkpt lat="43.50684" lon="6.31254">
        <ele>279.9</ele>
        <time>2021-10-26T13:02:46.000Z</time>
      </trkpt>
      <trkpt lat="43.50681" lon="6.31258">
        <ele>279.8</ele>
        <time>2021-10-26T13:02:49.000Z</time>
      </trkpt>
      <trkpt lat="43.50677" lon="6.31264">
        <ele>279.8</ele>
        <time>2021-10-26T13:02:53.000Z</time>
      </trkpt>
      <trkpt lat="43.50673" lon="6.31269">
        <ele>279.8</ele>
        <time>2021-10-26T13:02:57.000Z</time>
      </trkpt>
      <trkpt lat="43.5067" lon="6.31276">
        <ele>279.6</ele>
        <time>2021-10-26T13:03:01.000Z</time>
      </trkpt>
      <trkpt lat="43.50666" lon="6.31282">
        <ele>279.4</ele>
        <time>2021-10-26T13:03:05.000Z</time>
      </trkpt>
      <trkpt lat="43.50662" lon="6.31287">
        <ele>279.7</ele>
        <time>2021-10-26T13:03:09.000Z</time>
      </trkpt>
      <trkpt lat="43.50659" lon="6.31292">
        <ele>279.9</ele>
        <time>2021-10-26T13:03:14.000Z</time>
      </trkpt>
      <trkpt lat="43.50657" lon="6.31298">
        <ele>279.8</ele>
        <time>2021-10-26T13:03:18.000Z</time>
      </trkpt>
      <trkpt lat="43.50653" lon="6.31304">
        <ele>279.4</ele>
        <time>2021-10-26T13:03:23.000Z</time>
      </trkpt>
      <trkpt lat="43.50651" lon="6.31311">
        <ele>279.8</ele>
        <time>2021-10-26T13:03:27.000Z</time>
      </trkpt>
      <trkpt lat="43.50649" lon="6.31318">
        <ele>279.7</ele>
        <time>2021-10-26T13:03:31.000Z</time>
      </trkpt>
      <trkpt lat="43.50646" lon="6.31325">
        <ele>279.4</ele>
        <time>2021-10-26T13:03:35.000Z</time>
      </trkpt>
      <trkpt lat="43.50644" lon="6.31331">
        <ele>279.2</ele>
        <time>2021-10-26T13:03:39.000Z</time>
      </trkpt>
      <trkpt lat="43.50642" lon="6.31338">
        <ele>279</ele>
        <time>2021-10-26T13:03:43.000Z</time>
      </trkpt>
      <trkpt lat="43.5064" lon="6.31345">
        <ele>279</ele>
        <time>2021-10-26T13:03:47.000Z</time>
      </trkpt>
      <trkpt lat="43.50637" lon="6.31351">
        <ele>279.2</ele>
        <time>2021-10-26T13:03:51.000Z</time>
      </trkpt>
      <trkpt lat="43.50635" lon="6.31357">
        <ele>279.1</ele>
        <time>2021-10-26T13:03:55.000Z</time>
      </trkpt>
      <trkpt lat="43.50634" lon="6.31363">
        <ele>279</ele>
        <time>2021-10-26T13:03:58.000Z</time>
      </trkpt>
      <trkpt lat="43.50633" lon="6.31369">
        <ele>279</ele>
        <time>2021-10-26T13:04:01.000Z</time>
      </trkpt>
      <trkpt lat="43.50633" lon="6.31378">
        <ele>279</ele>
        <time>2021-10-26T13:04:05.000Z</time>
      </trkpt>
      <trkpt lat="43.50632" lon="6.31384">
        <ele>278.7</ele>
        <time>2021-10-26T13:04:09.000Z</time>
      </trkpt>
      <trkpt lat="43.50633" lon="6.31391">
        <ele>278.5</ele>
        <time>2021-10-26T13:04:18.000Z</time>
      </trkpt>
      <trkpt lat="43.50632" lon="6.31397">
        <ele>278.4</ele>
        <time>2021-10-26T13:04:23.000Z</time>
      </trkpt>
      <trkpt lat="43.50631" lon="6.31405">
        <ele>278.2</ele>
        <time>2021-10-26T13:04:27.000Z</time>
      </trkpt>
      <trkpt lat="43.50631" lon="6.31413">
        <ele>278</ele>
        <time>2021-10-26T13:04:31.000Z</time>
      </trkpt>
      <trkpt lat="43.50629" lon="6.31418">
        <ele>278.4</ele>
        <time>2021-10-26T13:04:36.000Z</time>
      </trkpt>
      <trkpt lat="43.50626" lon="6.31424">
        <ele>278.8</ele>
        <time>2021-10-26T13:04:46.000Z</time>
      </trkpt>
      <trkpt lat="43.50631" lon="6.31423">
        <ele>278.6</ele>
        <time>2021-10-26T13:04:56.000Z</time>
      </trkpt>
      <trkpt lat="43.50636" lon="6.31422">
        <ele>278.3</ele>
        <time>2021-10-26T13:05:00.000Z</time>
      </trkpt>
      <trkpt lat="43.50633" lon="6.31426">
        <ele>278.5</ele>
        <time>2021-10-26T13:05:14.000Z</time>
      </trkpt>
      <trkpt lat="43.50628" lon="6.31424">
        <ele>278.4</ele>
        <time>2021-10-26T13:05:20.000Z</time>
      </trkpt>
      <trkpt lat="43.50625" lon="6.3142">
        <ele>278.6</ele>
        <time>2021-10-26T13:05:25.000Z</time>
      </trkpt>
      <trkpt lat="43.50621" lon="6.31416">
        <ele>278.6</ele>
        <time>2021-10-26T13:05:29.000Z</time>
      </trkpt>
      <trkpt lat="43.50624" lon="6.31421">
        <ele>279.1</ele>
        <time>2021-10-26T13:05:44.000Z</time>
      </trkpt>
      <trkpt lat="43.50625" lon="6.31428">
        <ele>279.1</ele>
        <time>2021-10-26T13:05:57.000Z</time>
      </trkpt>
      <trkpt lat="43.50626" lon="6.31434">
        <ele>278.8</ele>
        <time>2021-10-26T13:06:03.000Z</time>
      </trkpt>
      <trkpt lat="43.50628" lon="6.31441">
        <ele>278.5</ele>
        <time>2021-10-26T13:06:08.000Z</time>
      </trkpt>
      <trkpt lat="43.50628" lon="6.31449">
        <ele>278.8</ele>
        <time>2021-10-26T13:06:12.000Z</time>
      </trkpt>
      <trkpt lat="43.50626" lon="6.31456">
        <ele>279</ele>
        <time>2021-10-26T13:06:16.000Z</time>
      </trkpt>
      <trkpt lat="43.50626" lon="6.31464">
        <ele>279</ele>
        <time>2021-10-26T13:06:20.000Z</time>
      </trkpt>
      <trkpt lat="43.50625" lon="6.3147">
        <ele>279.2</ele>
        <time>2021-10-26T13:06:24.000Z</time>
      </trkpt>
      <trkpt lat="43.50624" lon="6.31477">
        <ele>279.4</ele>
        <time>2021-10-26T13:06:27.000Z</time>
      </trkpt>
      <trkpt lat="43.50624" lon="6.31484">
        <ele>279.8</ele>
        <time>2021-10-26T13:06:31.000Z</time>
      </trkpt>
      <trkpt lat="43.50622" lon="6.31491">
        <ele>280.2</ele>
        <time>2021-10-26T13:06:36.000Z</time>
      </trkpt>
      <trkpt lat="43.50622" lon="6.31498">
        <ele>280.6</ele>
        <time>2021-10-26T13:06:41.000Z</time>
      </trkpt>
      <trkpt lat="43.5062" lon="6.31505">
        <ele>281</ele>
        <time>2021-10-26T13:06:46.000Z</time>
      </trkpt>
      <trkpt lat="43.50619" lon="6.31512">
        <ele>281.6</ele>
        <time>2021-10-26T13:06:51.000Z</time>
      </trkpt>
      <trkpt lat="43.50616" lon="6.31519">
        <ele>282.1</ele>
        <time>2021-10-26T13:06:56.000Z</time>
      </trkpt>
      <trkpt lat="43.50615" lon="6.31525">
        <ele>282.2</ele>
        <time>2021-10-26T13:07:00.000Z</time>
      </trkpt>
      <trkpt lat="43.50617" lon="6.31533">
        <ele>282.7</ele>
        <time>2021-10-26T13:07:05.000Z</time>
      </trkpt>
      <trkpt lat="43.50618" lon="6.3154">
        <ele>283</ele>
        <time>2021-10-26T13:07:09.000Z</time>
      </trkpt>
      <trkpt lat="43.50618" lon="6.31547">
        <ele>283.4</ele>
        <time>2021-10-26T13:07:13.000Z</time>
      </trkpt>
      <trkpt lat="43.50618" lon="6.31554">
        <ele>284</ele>
        <time>2021-10-26T13:07:17.000Z</time>
      </trkpt>
      <trkpt lat="43.50616" lon="6.3156">
        <ele>284.3</ele>
        <time>2021-10-26T13:07:20.000Z</time>
      </trkpt>
      <trkpt lat="43.50614" lon="6.31566">
        <ele>284.9</ele>
        <time>2021-10-26T13:07:25.000Z</time>
      </trkpt>
      <trkpt lat="43.50615" lon="6.31573">
        <ele>285.4</ele>
        <time>2021-10-26T13:07:30.000Z</time>
      </trkpt>
      <trkpt lat="43.50617" lon="6.3158">
        <ele>286.3</ele>
        <time>2021-10-26T13:07:35.000Z</time>
      </trkpt>
      <trkpt lat="43.50617" lon="6.31586">
        <ele>287.1</ele>
        <time>2021-10-26T13:07:41.000Z</time>
      </trkpt>
      <trkpt lat="43.50616" lon="6.31594">
        <ele>287.9</ele>
        <time>2021-10-26T13:07:46.000Z</time>
      </trkpt>
      <trkpt lat="43.50615" lon="6.316">
        <ele>288.6</ele>
        <time>2021-10-26T13:07:50.000Z</time>
      </trkpt>
      <trkpt lat="43.50614" lon="6.31608">
        <ele>288.8</ele>
        <time>2021-10-26T13:07:54.000Z</time>
      </trkpt>
      <trkpt lat="43.50612" lon="6.31614">
        <ele>289.1</ele>
        <time>2021-10-26T13:07:58.000Z</time>
      </trkpt>
      <trkpt lat="43.50611" lon="6.31621">
        <ele>289.7</ele>
        <time>2021-10-26T13:08:03.000Z</time>
      </trkpt>
      <trkpt lat="43.5061" lon="6.31628">
        <ele>290.2</ele>
        <time>2021-10-26T13:08:07.000Z</time>
      </trkpt>
      <trkpt lat="43.5061" lon="6.31634">
        <ele>290.7</ele>
        <time>2021-10-26T13:08:11.000Z</time>
      </trkpt>
      <trkpt lat="43.50609" lon="6.31641">
        <ele>291.3</ele>
        <time>2021-10-26T13:08:15.000Z</time>
      </trkpt>
      <trkpt lat="43.50609" lon="6.31648">
        <ele>291.7</ele>
        <time>2021-10-26T13:08:19.000Z</time>
      </trkpt>
      <trkpt lat="43.5061" lon="6.31655">
        <ele>292.1</ele>
        <time>2021-10-26T13:08:24.000Z</time>
      </trkpt>
      <trkpt lat="43.5061" lon="6.31664">
        <ele>292.4</ele>
        <time>2021-10-26T13:08:29.000Z</time>
      </trkpt>
      <trkpt lat="43.50609" lon="6.3167">
        <ele>292.8</ele>
        <time>2021-10-26T13:08:33.000Z</time>
      </trkpt>
      <trkpt lat="43.50609" lon="6.31677">
        <ele>293.3</ele>
        <time>2021-10-26T13:08:38.000Z</time>
      </trkpt>
      <trkpt lat="43.50608" lon="6.31683">
        <ele>293.7</ele>
        <time>2021-10-26T13:08:42.000Z</time>
      </trkpt>
      <trkpt lat="43.50608" lon="6.3169">
        <ele>294.1</ele>
        <time>2021-10-26T13:08:46.000Z</time>
      </trkpt>
      <trkpt lat="43.50607" lon="6.31696">
        <ele>294.6</ele>
        <time>2021-10-26T13:08:51.000Z</time>
      </trkpt>
      <trkpt lat="43.50607" lon="6.31703">
        <ele>295.2</ele>
        <time>2021-10-26T13:08:57.000Z</time>
      </trkpt>
      <trkpt lat="43.5061" lon="6.31709">
        <ele>295.6</ele>
        <time>2021-10-26T13:09:02.000Z</time>
      </trkpt>
      <trkpt lat="43.50614" lon="6.31713">
        <ele>297.1</ele>
        <time>2021-10-26T13:09:11.000Z</time>
      </trkpt>
      <trkpt lat="43.50618" lon="6.31716">
        <ele>297.9</ele>
        <time>2021-10-26T13:09:18.000Z</time>
      </trkpt>
      <trkpt lat="43.50623" lon="6.31716">
        <ele>298.7</ele>
        <time>2021-10-26T13:09:25.000Z</time>
      </trkpt>
      <trkpt lat="43.50628" lon="6.31717">
        <ele>299.8</ele>
        <time>2021-10-26T13:09:31.000Z</time>
      </trkpt>
      <trkpt lat="43.50633" lon="6.31716">
        <ele>300.9</ele>
        <time>2021-10-26T13:09:39.000Z</time>
      </trkpt>
      <trkpt lat="43.50638" lon="6.31715">
        <ele>301.9</ele>
        <time>2021-10-26T13:09:45.000Z</time>
      </trkpt>
      <trkpt lat="43.50643" lon="6.31717">
        <ele>302.6</ele>
        <time>2021-10-26T13:09:51.000Z</time>
      </trkpt>
      <trkpt lat="43.50648" lon="6.31721">
        <ele>303.3</ele>
        <time>2021-10-26T13:09:57.000Z</time>
      </trkpt>
      <trkpt lat="43.50653" lon="6.31725">
        <ele>303.8</ele>
        <time>2021-10-26T13:10:01.000Z</time>
      </trkpt>
      <trkpt lat="43.50657" lon="6.31729">
        <ele>304.3</ele>
        <time>2021-10-26T13:10:05.000Z</time>
      </trkpt>
      <trkpt lat="43.50662" lon="6.31731">
        <ele>305.1</ele>
        <time>2021-10-26T13:10:09.000Z</time>
      </trkpt>
      <trkpt lat="43.50666" lon="6.31732">
        <ele>305.7</ele>
        <time>2021-10-26T13:10:13.000Z</time>
      </trkpt>
      <trkpt lat="43.50671" lon="6.31731">
        <ele>306</ele>
        <time>2021-10-26T13:10:17.000Z</time>
      </trkpt>
      <trkpt lat="43.50676" lon="6.31731">
        <ele>306.3</ele>
        <time>2021-10-26T13:10:21.000Z</time>
      </trkpt>
      <trkpt lat="43.50681" lon="6.31732">
        <ele>306.6</ele>
        <time>2021-10-26T13:10:25.000Z</time>
      </trkpt>
      <trkpt lat="43.50686" lon="6.31732">
        <ele>306.9</ele>
        <time>2021-10-26T13:10:29.000Z</time>
      </trkpt>
      <trkpt lat="43.50691" lon="6.31732">
        <ele>307.2</ele>
        <time>2021-10-26T13:10:33.000Z</time>
      </trkpt>
      <trkpt lat="43.50696" lon="6.31733">
        <ele>307.5</ele>
        <time>2021-10-26T13:10:38.000Z</time>
      </trkpt>
      <trkpt lat="43.50701" lon="6.31735">
        <ele>307.7</ele>
        <time>2021-10-26T13:10:43.000Z</time>
      </trkpt>
      <trkpt lat="43.50705" lon="6.3174">
        <ele>308</ele>
        <time>2021-10-26T13:10:48.000Z</time>
      </trkpt>
      <trkpt lat="43.5071" lon="6.31744">
        <ele>308.3</ele>
        <time>2021-10-26T13:10:54.000Z</time>
      </trkpt>
      <trkpt lat="43.50712" lon="6.31751">
        <ele>308.7</ele>
        <time>2021-10-26T13:10:59.000Z</time>
      </trkpt>
      <trkpt lat="43.50716" lon="6.31754">
        <ele>308.9</ele>
        <time>2021-10-26T13:11:03.000Z</time>
      </trkpt>
      <trkpt lat="43.50721" lon="6.31757">
        <ele>309.2</ele>
        <time>2021-10-26T13:11:08.000Z</time>
      </trkpt>
      <trkpt lat="43.50725" lon="6.31762">
        <ele>309.7</ele>
        <time>2021-10-26T13:11:13.000Z</time>
      </trkpt>
      <trkpt lat="43.50728" lon="6.31767">
        <ele>310.1</ele>
        <time>2021-10-26T13:11:18.000Z</time>
      </trkpt>
      <trkpt lat="43.50732" lon="6.31772">
        <ele>310.8</ele>
        <time>2021-10-26T13:11:24.000Z</time>
      </trkpt>
      <trkpt lat="43.50735" lon="6.31778">
        <ele>311.1</ele>
        <time>2021-10-26T13:11:28.000Z</time>
      </trkpt>
      <trkpt lat="43.50738" lon="6.31784">
        <ele>311.4</ele>
        <time>2021-10-26T13:11:33.000Z</time>
      </trkpt>
      <trkpt lat="43.5074" lon="6.3179">
        <ele>311.4</ele>
        <time>2021-10-26T13:11:37.000Z</time>
      </trkpt>
      <trkpt lat="43.50743" lon="6.31795">
        <ele>311.7</ele>
        <time>2021-10-26T13:11:42.000Z</time>
      </trkpt>
      <trkpt lat="43.50747" lon="6.318">
        <ele>311.9</ele>
        <time>2021-10-26T13:11:46.000Z</time>
      </trkpt>
      <trkpt lat="43.50749" lon="6.31805">
        <ele>311.9</ele>
        <time>2021-10-26T13:11:51.000Z</time>
      </trkpt>
      <trkpt lat="43.50753" lon="6.31809">
        <ele>312.5</ele>
        <time>2021-10-26T13:11:56.000Z</time>
      </trkpt>
      <trkpt lat="43.50756" lon="6.31814">
        <ele>312.7</ele>
        <time>2021-10-26T13:12:01.000Z</time>
      </trkpt>
      <trkpt lat="43.50759" lon="6.3182">
        <ele>312.9</ele>
        <time>2021-10-26T13:12:07.000Z</time>
      </trkpt>
      <trkpt lat="43.50761" lon="6.31826">
        <ele>313.7</ele>
        <time>2021-10-26T13:12:12.000Z</time>
      </trkpt>
      <trkpt lat="43.50764" lon="6.31832">
        <ele>314.1</ele>
        <time>2021-10-26T13:12:16.000Z</time>
      </trkpt>
      <trkpt lat="43.50766" lon="6.31837">
        <ele>314.7</ele>
        <time>2021-10-26T13:12:22.000Z</time>
      </trkpt>
      <trkpt lat="43.50769" lon="6.31842">
        <ele>315.3</ele>
        <time>2021-10-26T13:12:27.000Z</time>
      </trkpt>
      <trkpt lat="43.50774" lon="6.31846">
        <ele>315.5</ele>
        <time>2021-10-26T13:12:32.000Z</time>
      </trkpt>
      <trkpt lat="43.50778" lon="6.3185">
        <ele>315.6</ele>
        <time>2021-10-26T13:12:36.000Z</time>
      </trkpt>
      <trkpt lat="43.50782" lon="6.31853">
        <ele>315.8</ele>
        <time>2021-10-26T13:12:40.000Z</time>
      </trkpt>
      <trkpt lat="43.50786" lon="6.31857">
        <ele>316.5</ele>
        <time>2021-10-26T13:12:45.000Z</time>
      </trkpt>
      <trkpt lat="43.5079" lon="6.31862">
        <ele>317.1</ele>
        <time>2021-10-26T13:12:49.000Z</time>
      </trkpt>
      <trkpt lat="43.50795" lon="6.31865">
        <ele>317.6</ele>
        <time>2021-10-26T13:12:54.000Z</time>
      </trkpt>
      <trkpt lat="43.50799" lon="6.31868">
        <ele>317.8</ele>
        <time>2021-10-26T13:12:58.000Z</time>
      </trkpt>
      <trkpt lat="43.50804" lon="6.31869">
        <ele>318</ele>
        <time>2021-10-26T13:13:02.000Z</time>
      </trkpt>
      <trkpt lat="43.50809" lon="6.31871">
        <ele>318.4</ele>
        <time>2021-10-26T13:13:07.000Z</time>
      </trkpt>
      <trkpt lat="43.50813" lon="6.31875">
        <ele>318.7</ele>
        <time>2021-10-26T13:13:11.000Z</time>
      </trkpt>
      <trkpt lat="43.50818" lon="6.31878">
        <ele>319.4</ele>
        <time>2021-10-26T13:13:16.000Z</time>
      </trkpt>
      <trkpt lat="43.50821" lon="6.31883">
        <ele>319.8</ele>
        <time>2021-10-26T13:13:20.000Z</time>
      </trkpt>
      <trkpt lat="43.50825" lon="6.31886">
        <ele>320.2</ele>
        <time>2021-10-26T13:13:24.000Z</time>
      </trkpt>
      <trkpt lat="43.5083" lon="6.31889">
        <ele>320.2</ele>
        <time>2021-10-26T13:13:29.000Z</time>
      </trkpt>
      <trkpt lat="43.50834" lon="6.31892">
        <ele>320.2</ele>
        <time>2021-10-26T13:13:32.000Z</time>
      </trkpt>
      <trkpt lat="43.50838" lon="6.31893">
        <ele>320.4</ele>
        <time>2021-10-26T13:13:36.000Z</time>
      </trkpt>
      <trkpt lat="43.50843" lon="6.31897">
        <ele>320.4</ele>
        <time>2021-10-26T13:13:41.000Z</time>
      </trkpt>
      <trkpt lat="43.50848" lon="6.31898">
        <ele>320.6</ele>
        <time>2021-10-26T13:13:46.000Z</time>
      </trkpt>
      <trkpt lat="43.50853" lon="6.31898">
        <ele>320.2</ele>
        <time>2021-10-26T13:13:50.000Z</time>
      </trkpt>
      <trkpt lat="43.50858" lon="6.31899">
        <ele>320.5</ele>
        <time>2021-10-26T13:13:54.000Z</time>
      </trkpt>
      <trkpt lat="43.50862" lon="6.31898">
        <ele>320.6</ele>
        <time>2021-10-26T13:13:57.000Z</time>
      </trkpt>
      <trkpt lat="43.50868" lon="6.31899">
        <ele>320.6</ele>
        <time>2021-10-26T13:14:01.000Z</time>
      </trkpt>
      <trkpt lat="43.50874" lon="6.31899">
        <ele>320.8</ele>
        <time>2021-10-26T13:14:05.000Z</time>
      </trkpt>
      <trkpt lat="43.5088" lon="6.31898">
        <ele>320.8</ele>
        <time>2021-10-26T13:14:09.000Z</time>
      </trkpt>
      <trkpt lat="43.50884" lon="6.31901">
        <ele>320.9</ele>
        <time>2021-10-26T13:14:13.000Z</time>
      </trkpt>
      <trkpt lat="43.5089" lon="6.31903">
        <ele>320.9</ele>
        <time>2021-10-26T13:14:17.000Z</time>
      </trkpt>
      <trkpt lat="43.50894" lon="6.31906">
        <ele>320.8</ele>
        <time>2021-10-26T13:14:21.000Z</time>
      </trkpt>
      <trkpt lat="43.50899" lon="6.31906">
        <ele>321</ele>
        <time>2021-10-26T13:14:25.000Z</time>
      </trkpt>
      <trkpt lat="43.50904" lon="6.31907">
        <ele>321.1</ele>
        <time>2021-10-26T13:14:29.000Z</time>
      </trkpt>
      <trkpt lat="43.50909" lon="6.31908">
        <ele>321</ele>
        <time>2021-10-26T13:14:33.000Z</time>
      </trkpt>
      <trkpt lat="43.50915" lon="6.31908">
        <ele>321.1</ele>
        <time>2021-10-26T13:14:37.000Z</time>
      </trkpt>
      <trkpt lat="43.50921" lon="6.3191">
        <ele>321.4</ele>
        <time>2021-10-26T13:14:41.000Z</time>
      </trkpt>
      <trkpt lat="43.50926" lon="6.31911">
        <ele>321.8</ele>
        <time>2021-10-26T13:14:46.000Z</time>
      </trkpt>
      <trkpt lat="43.50932" lon="6.31914">
        <ele>321.6</ele>
        <time>2021-10-26T13:14:50.000Z</time>
      </trkpt>
      <trkpt lat="43.50936" lon="6.31915">
        <ele>321.6</ele>
        <time>2021-10-26T13:14:53.000Z</time>
      </trkpt>
      <trkpt lat="43.50941" lon="6.31917">
        <ele>321.6</ele>
        <time>2021-10-26T13:14:56.000Z</time>
      </trkpt>
      <trkpt lat="43.50946" lon="6.31917">
        <ele>321.4</ele>
        <time>2021-10-26T13:14:59.000Z</time>
      </trkpt>
      <trkpt lat="43.50951" lon="6.31918">
        <ele>321.4</ele>
        <time>2021-10-26T13:15:02.000Z</time>
      </trkpt>
      <trkpt lat="43.50956" lon="6.31917">
        <ele>321.4</ele>
        <time>2021-10-26T13:15:05.000Z</time>
      </trkpt>
      <trkpt lat="43.50961" lon="6.31918">
        <ele>321.1</ele>
        <time>2021-10-26T13:15:09.000Z</time>
      </trkpt>
      <trkpt lat="43.50965" lon="6.3192">
        <ele>321.1</ele>
        <time>2021-10-26T13:15:12.000Z</time>
      </trkpt>
      <trkpt lat="43.50971" lon="6.31922">
        <ele>321.1</ele>
        <time>2021-10-26T13:15:16.000Z</time>
      </trkpt>
      <trkpt lat="43.50977" lon="6.31925">
        <ele>321.3</ele>
        <time>2021-10-26T13:15:20.000Z</time>
      </trkpt>
      <trkpt lat="43.50981" lon="6.31929">
        <ele>321.1</ele>
        <time>2021-10-26T13:15:24.000Z</time>
      </trkpt>
      <trkpt lat="43.50984" lon="6.31936">
        <ele>321.2</ele>
        <time>2021-10-26T13:15:27.000Z</time>
      </trkpt>
      <trkpt lat="43.50987" lon="6.31942">
        <ele>321.2</ele>
        <time>2021-10-26T13:15:31.000Z</time>
      </trkpt>
      <trkpt lat="43.50989" lon="6.31947">
        <ele>321.4</ele>
        <time>2021-10-26T13:15:35.000Z</time>
      </trkpt>
      <trkpt lat="43.50992" lon="6.31954">
        <ele>321.3</ele>
        <time>2021-10-26T13:15:39.000Z</time>
      </trkpt>
      <trkpt lat="43.50993" lon="6.31962">
        <ele>321.6</ele>
        <time>2021-10-26T13:15:43.000Z</time>
      </trkpt>
      <trkpt lat="43.50995" lon="6.31968">
        <ele>321.6</ele>
        <time>2021-10-26T13:15:46.000Z</time>
      </trkpt>
      <trkpt lat="43.50997" lon="6.31975">
        <ele>321.6</ele>
        <time>2021-10-26T13:15:50.000Z</time>
      </trkpt>
      <trkpt lat="43.51" lon="6.31981">
        <ele>321.5</ele>
        <time>2021-10-26T13:15:54.000Z</time>
      </trkpt>
      <trkpt lat="43.51003" lon="6.31986">
        <ele>321.5</ele>
        <time>2021-10-26T13:15:58.000Z</time>
      </trkpt>
      <trkpt lat="43.51008" lon="6.3199">
        <ele>321.5</ele>
        <time>2021-10-26T13:16:02.000Z</time>
      </trkpt>
      <trkpt lat="43.51011" lon="6.31996">
        <ele>321.5</ele>
        <time>2021-10-26T13:16:05.000Z</time>
      </trkpt>
      <trkpt lat="43.51015" lon="6.32002">
        <ele>321.6</ele>
        <time>2021-10-26T13:16:09.000Z</time>
      </trkpt>
      <trkpt lat="43.51019" lon="6.32007">
        <ele>321.7</ele>
        <time>2021-10-26T13:16:13.000Z</time>
      </trkpt>
      <trkpt lat="43.51022" lon="6.32013">
        <ele>322</ele>
        <time>2021-10-26T13:16:17.000Z</time>
      </trkpt>
      <trkpt lat="43.51024" lon="6.32019">
        <ele>322.5</ele>
        <time>2021-10-26T13:16:21.000Z</time>
      </trkpt>
      <trkpt lat="43.51026" lon="6.32025">
        <ele>322.8</ele>
        <time>2021-10-26T13:16:25.000Z</time>
      </trkpt>
      <trkpt lat="43.51029" lon="6.32032">
        <ele>322.9</ele>
        <time>2021-10-26T13:16:30.000Z</time>
      </trkpt>
      <trkpt lat="43.5103" lon="6.32039">
        <ele>323</ele>
        <time>2021-10-26T13:16:34.000Z</time>
      </trkpt>
      <trkpt lat="43.51031" lon="6.32045">
        <ele>323</ele>
        <time>2021-10-26T13:16:38.000Z</time>
      </trkpt>
      <trkpt lat="43.51033" lon="6.32052">
        <ele>323.2</ele>
        <time>2021-10-26T13:16:42.000Z</time>
      </trkpt>
      <trkpt lat="43.51034" lon="6.32059">
        <ele>323.6</ele>
        <time>2021-10-26T13:16:46.000Z</time>
      </trkpt>
      <trkpt lat="43.51035" lon="6.32066">
        <ele>323.4</ele>
        <time>2021-10-26T13:16:50.000Z</time>
      </trkpt>
      <trkpt lat="43.51039" lon="6.32073">
        <ele>323.4</ele>
        <time>2021-10-26T13:16:55.000Z</time>
      </trkpt>
      <trkpt lat="43.51041" lon="6.32079">
        <ele>323.9</ele>
        <time>2021-10-26T13:16:59.000Z</time>
      </trkpt>
      <trkpt lat="43.51046" lon="6.32085">
        <ele>324.3</ele>
        <time>2021-10-26T13:17:02.000Z</time>
      </trkpt>
      <trkpt lat="43.5105" lon="6.32089">
        <ele>324.5</ele>
        <time>2021-10-26T13:17:06.000Z</time>
      </trkpt>
      <trkpt lat="43.51052" lon="6.32096">
        <ele>324.6</ele>
        <time>2021-10-26T13:17:10.000Z</time>
      </trkpt>
      <trkpt lat="43.51056" lon="6.32102">
        <ele>324.7</ele>
        <time>2021-10-26T13:17:14.000Z</time>
      </trkpt>
      <trkpt lat="43.51057" lon="6.32109">
        <ele>324.8</ele>
        <time>2021-10-26T13:17:18.000Z</time>
      </trkpt>
      <trkpt lat="43.5106" lon="6.32116">
        <ele>324.8</ele>
        <time>2021-10-26T13:17:22.000Z</time>
      </trkpt>
      <trkpt lat="43.51063" lon="6.32122">
        <ele>324.8</ele>
        <time>2021-10-26T13:17:26.000Z</time>
      </trkpt>
      <trkpt lat="43.51065" lon="6.32129">
        <ele>324.9</ele>
        <time>2021-10-26T13:17:30.000Z</time>
      </trkpt>
      <trkpt lat="43.51068" lon="6.32135">
        <ele>324.7</ele>
        <time>2021-10-26T13:17:34.000Z</time>
      </trkpt>
      <trkpt lat="43.51071" lon="6.32141">
        <ele>324.6</ele>
        <time>2021-10-26T13:17:37.000Z</time>
      </trkpt>
      <trkpt lat="43.51074" lon="6.32148">
        <ele>324.5</ele>
        <time>2021-10-26T13:17:40.000Z</time>
      </trkpt>
      <trkpt lat="43.51078" lon="6.32154">
        <ele>324.5</ele>
        <time>2021-10-26T13:17:43.000Z</time>
      </trkpt>
      <trkpt lat="43.51082" lon="6.32158">
        <ele>324.6</ele>
        <time>2021-10-26T13:17:46.000Z</time>
      </trkpt>
      <trkpt lat="43.51085" lon="6.32163">
        <ele>324.2</ele>
        <time>2021-10-26T13:17:51.000Z</time>
      </trkpt>
      <trkpt lat="43.51088" lon="6.32168">
        <ele>323.9</ele>
        <time>2021-10-26T13:17:54.000Z</time>
      </trkpt>
      <trkpt lat="43.51092" lon="6.32173">
        <ele>323.4</ele>
        <time>2021-10-26T13:17:57.000Z</time>
      </trkpt>
      <trkpt lat="43.51097" lon="6.32175">
        <ele>322.9</ele>
        <time>2021-10-26T13:18:00.000Z</time>
      </trkpt>
      <trkpt lat="43.51102" lon="6.32178">
        <ele>322.3</ele>
        <time>2021-10-26T13:18:04.000Z</time>
      </trkpt>
      <trkpt lat="43.51108" lon="6.32179">
        <ele>321.7</ele>
        <time>2021-10-26T13:18:08.000Z</time>
      </trkpt>
      <trkpt lat="43.51113" lon="6.32179">
        <ele>321.8</ele>
        <time>2021-10-26T13:18:11.000Z</time>
      </trkpt>
      <trkpt lat="43.51117" lon="6.32177">
        <ele>322</ele>
        <time>2021-10-26T13:18:15.000Z</time>
      </trkpt>
      <trkpt lat="43.51123" lon="6.32177">
        <ele>322</ele>
        <time>2021-10-26T13:18:19.000Z</time>
      </trkpt>
      <trkpt lat="43.51128" lon="6.32177">
        <ele>322.1</ele>
        <time>2021-10-26T13:18:22.000Z</time>
      </trkpt>
      <trkpt lat="43.51133" lon="6.32176">
        <ele>322.4</ele>
        <time>2021-10-26T13:18:26.000Z</time>
      </trkpt>
      <trkpt lat="43.51138" lon="6.32176">
        <ele>322.6</ele>
        <time>2021-10-26T13:18:29.000Z</time>
      </trkpt>
      <trkpt lat="43.51144" lon="6.32174">
        <ele>322.5</ele>
        <time>2021-10-26T13:18:33.000Z</time>
      </trkpt>
      <trkpt lat="43.51149" lon="6.32171">
        <ele>322.7</ele>
        <time>2021-10-26T13:18:37.000Z</time>
      </trkpt>
      <trkpt lat="43.51155" lon="6.32169">
        <ele>323.1</ele>
        <time>2021-10-26T13:18:42.000Z</time>
      </trkpt>
      <trkpt lat="43.5116" lon="6.32169">
        <ele>323.3</ele>
        <time>2021-10-26T13:18:46.000Z</time>
      </trkpt>
      <trkpt lat="43.51166" lon="6.32169">
        <ele>323.6</ele>
        <time>2021-10-26T13:18:51.000Z</time>
      </trkpt>
      <trkpt lat="43.51172" lon="6.32169">
        <ele>324</ele>
        <time>2021-10-26T13:18:55.000Z</time>
      </trkpt>
      <trkpt lat="43.51177" lon="6.32169">
        <ele>324.4</ele>
        <time>2021-10-26T13:19:01.000Z</time>
      </trkpt>
      <trkpt lat="43.51182" lon="6.32171">
        <ele>325.1</ele>
        <time>2021-10-26T13:19:07.000Z</time>
      </trkpt>
      <trkpt lat="43.51187" lon="6.32172">
        <ele>326.7</ele>
        <time>2021-10-26T13:19:15.000Z</time>
      </trkpt>
      <trkpt lat="43.51192" lon="6.3217">
        <ele>327</ele>
        <time>2021-10-26T13:19:19.000Z</time>
      </trkpt>
      <trkpt lat="43.51197" lon="6.32168">
        <ele>327.4</ele>
        <time>2021-10-26T13:19:24.000Z</time>
      </trkpt>
      <trkpt lat="43.51201" lon="6.32165">
        <ele>328.1</ele>
        <time>2021-10-26T13:19:31.000Z</time>
      </trkpt>
      <trkpt lat="43.51206" lon="6.32165">
        <ele>328.5</ele>
        <time>2021-10-26T13:19:38.000Z</time>
      </trkpt>
      <trkpt lat="43.51211" lon="6.32164">
        <ele>328.9</ele>
        <time>2021-10-26T13:19:43.000Z</time>
      </trkpt>
      <trkpt lat="43.51216" lon="6.32165">
        <ele>329.8</ele>
        <time>2021-10-26T13:19:49.000Z</time>
      </trkpt>
      <trkpt lat="43.51221" lon="6.32164">
        <ele>330.4</ele>
        <time>2021-10-26T13:19:54.000Z</time>
      </trkpt>
      <trkpt lat="43.51227" lon="6.32164">
        <ele>331.3</ele>
        <time>2021-10-26T13:19:59.000Z</time>
      </trkpt>
      <trkpt lat="43.51232" lon="6.32162">
        <ele>332</ele>
        <time>2021-10-26T13:20:04.000Z</time>
      </trkpt>
      <trkpt lat="43.51237" lon="6.32161">
        <ele>332.4</ele>
        <time>2021-10-26T13:20:08.000Z</time>
      </trkpt>
      <trkpt lat="43.51242" lon="6.32162">
        <ele>332.7</ele>
        <time>2021-10-26T13:20:12.000Z</time>
      </trkpt>
      <trkpt lat="43.51247" lon="6.32161">
        <ele>333.1</ele>
        <time>2021-10-26T13:20:16.000Z</time>
      </trkpt>
      <trkpt lat="43.51252" lon="6.3216">
        <ele>333.2</ele>
        <time>2021-10-26T13:20:20.000Z</time>
      </trkpt>
      <trkpt lat="43.51257" lon="6.32159">
        <ele>333.6</ele>
        <time>2021-10-26T13:20:25.000Z</time>
      </trkpt>
      <trkpt lat="43.51262" lon="6.32158">
        <ele>334.4</ele>
        <time>2021-10-26T13:20:31.000Z</time>
      </trkpt>
      <trkpt lat="43.51267" lon="6.32157">
        <ele>334.7</ele>
        <time>2021-10-26T13:20:35.000Z</time>
      </trkpt>
      <trkpt lat="43.51272" lon="6.32156">
        <ele>334.9</ele>
        <time>2021-10-26T13:20:40.000Z</time>
      </trkpt>
      <trkpt lat="43.51277" lon="6.32157">
        <ele>335.3</ele>
        <time>2021-10-26T13:20:46.000Z</time>
      </trkpt>
      <trkpt lat="43.5128" lon="6.3216">
        <ele>336.7</ele>
        <time>2021-10-26T13:21:06.000Z</time>
      </trkpt>
      <trkpt lat="43.51281" lon="6.32168">
        <ele>336.2</ele>
        <time>2021-10-26T13:21:13.000Z</time>
      </trkpt>
      <trkpt lat="43.51282" lon="6.32174">
        <ele>336.1</ele>
        <time>2021-10-26T13:21:17.000Z</time>
      </trkpt>
      <trkpt lat="43.51283" lon="6.32181">
        <ele>336</ele>
        <time>2021-10-26T13:21:22.000Z</time>
      </trkpt>
      <trkpt lat="43.51285" lon="6.32189">
        <ele>336</ele>
        <time>2021-10-26T13:21:26.000Z</time>
      </trkpt>
      <trkpt lat="43.51286" lon="6.32195">
        <ele>335.7</ele>
        <time>2021-10-26T13:21:30.000Z</time>
      </trkpt>
      <trkpt lat="43.51288" lon="6.32202">
        <ele>335.4</ele>
        <time>2021-10-26T13:21:34.000Z</time>
      </trkpt>
      <trkpt lat="43.51289" lon="6.32209">
        <ele>335.2</ele>
        <time>2021-10-26T13:21:38.000Z</time>
      </trkpt>
      <trkpt lat="43.51291" lon="6.32217">
        <ele>335.1</ele>
        <time>2021-10-26T13:21:42.000Z</time>
      </trkpt>
      <trkpt lat="43.51291" lon="6.32225">
        <ele>334.7</ele>
        <time>2021-10-26T13:21:46.000Z</time>
      </trkpt>
      <trkpt lat="43.51293" lon="6.32232">
        <ele>334.5</ele>
        <time>2021-10-26T13:21:50.000Z</time>
      </trkpt>
      <trkpt lat="43.51294" lon="6.32239">
        <ele>334.5</ele>
        <time>2021-10-26T13:21:54.000Z</time>
      </trkpt>
      <trkpt lat="43.51295" lon="6.32245">
        <ele>334.3</ele>
        <time>2021-10-26T13:21:57.000Z</time>
      </trkpt>
      <trkpt lat="43.51295" lon="6.32252">
        <ele>334.1</ele>
        <time>2021-10-26T13:22:01.000Z</time>
      </trkpt>
      <trkpt lat="43.51297" lon="6.3226">
        <ele>334</ele>
        <time>2021-10-26T13:22:04.000Z</time>
      </trkpt>
      <trkpt lat="43.51298" lon="6.32266">
        <ele>334</ele>
        <time>2021-10-26T13:22:07.000Z</time>
      </trkpt>
      <trkpt lat="43.51299" lon="6.32273">
        <ele>334</ele>
        <time>2021-10-26T13:22:10.000Z</time>
      </trkpt>
      <trkpt lat="43.513" lon="6.3228">
        <ele>334.1</ele>
        <time>2021-10-26T13:22:13.000Z</time>
      </trkpt>
      <trkpt lat="43.51301" lon="6.32288">
        <ele>334.5</ele>
        <time>2021-10-26T13:22:17.000Z</time>
      </trkpt>
      <trkpt lat="43.51301" lon="6.32295">
        <ele>334.6</ele>
        <time>2021-10-26T13:22:20.000Z</time>
      </trkpt>
      <trkpt lat="43.51303" lon="6.32301">
        <ele>334.7</ele>
        <time>2021-10-26T13:22:24.000Z</time>
      </trkpt>
      <trkpt lat="43.51304" lon="6.32309">
        <ele>334.5</ele>
        <time>2021-10-26T13:22:28.000Z</time>
      </trkpt>
      <trkpt lat="43.51303" lon="6.32316">
        <ele>334.5</ele>
        <time>2021-10-26T13:22:33.000Z</time>
      </trkpt>
      <trkpt lat="43.51301" lon="6.32322">
        <ele>334.5</ele>
        <time>2021-10-26T13:22:36.000Z</time>
      </trkpt>
      <trkpt lat="43.51302" lon="6.3233">
        <ele>334.2</ele>
        <time>2021-10-26T13:22:40.000Z</time>
      </trkpt>
      <trkpt lat="43.51304" lon="6.32336">
        <ele>333.8</ele>
        <time>2021-10-26T13:22:43.000Z</time>
      </trkpt>
      <trkpt lat="43.51307" lon="6.32344">
        <ele>333.3</ele>
        <time>2021-10-26T13:22:47.000Z</time>
      </trkpt>
      <trkpt lat="43.51308" lon="6.3235">
        <ele>332.8</ele>
        <time>2021-10-26T13:22:50.000Z</time>
      </trkpt>
      <trkpt lat="43.51309" lon="6.32357">
        <ele>332.4</ele>
        <time>2021-10-26T13:22:53.000Z</time>
      </trkpt>
      <trkpt lat="43.5131" lon="6.32366">
        <ele>332.3</ele>
        <time>2021-10-26T13:22:57.000Z</time>
      </trkpt>
      <trkpt lat="43.51311" lon="6.32374">
        <ele>332.1</ele>
        <time>2021-10-26T13:23:00.000Z</time>
      </trkpt>
      <trkpt lat="43.51313" lon="6.3238">
        <ele>332.1</ele>
        <time>2021-10-26T13:23:03.000Z</time>
      </trkpt>
      <trkpt lat="43.51315" lon="6.32386">
        <ele>331.8</ele>
        <time>2021-10-26T13:23:06.000Z</time>
      </trkpt>
      <trkpt lat="43.51316" lon="6.32392">
        <ele>331.5</ele>
        <time>2021-10-26T13:23:09.000Z</time>
      </trkpt>
      <trkpt lat="43.51318" lon="6.32399">
        <ele>331.4</ele>
        <time>2021-10-26T13:23:13.000Z</time>
      </trkpt>
      <trkpt lat="43.5132" lon="6.32406">
        <ele>330.9</ele>
        <time>2021-10-26T13:23:19.000Z</time>
      </trkpt>
      <trkpt lat="43.51321" lon="6.32413">
        <ele>330.9</ele>
        <time>2021-10-26T13:23:22.000Z</time>
      </trkpt>
      <trkpt lat="43.51322" lon="6.3242">
        <ele>330.7</ele>
        <time>2021-10-26T13:23:25.000Z</time>
      </trkpt>
      <trkpt lat="43.51323" lon="6.32427">
        <ele>330.5</ele>
        <time>2021-10-26T13:23:28.000Z</time>
      </trkpt>
      <trkpt lat="43.51325" lon="6.32435">
        <ele>330.5</ele>
        <time>2021-10-26T13:23:32.000Z</time>
      </trkpt>
      <trkpt lat="43.51326" lon="6.32442">
        <ele>330.6</ele>
        <time>2021-10-26T13:23:36.000Z</time>
      </trkpt>
      <trkpt lat="43.51328" lon="6.3245">
        <ele>330.7</ele>
        <time>2021-10-26T13:23:40.000Z</time>
      </trkpt>
      <trkpt lat="43.51331" lon="6.32457">
        <ele>330.6</ele>
        <time>2021-10-26T13:23:44.000Z</time>
      </trkpt>
      <trkpt lat="43.51332" lon="6.32464">
        <ele>330.6</ele>
        <time>2021-10-26T13:23:47.000Z</time>
      </trkpt>
      <trkpt lat="43.51333" lon="6.32471">
        <ele>330.7</ele>
        <time>2021-10-26T13:23:50.000Z</time>
      </trkpt>
      <trkpt lat="43.51335" lon="6.32478">
        <ele>330.9</ele>
        <time>2021-10-26T13:23:53.000Z</time>
      </trkpt>
      <trkpt lat="43.51337" lon="6.32485">
        <ele>330.8</ele>
        <time>2021-10-26T13:23:57.000Z</time>
      </trkpt>
      <trkpt lat="43.51338" lon="6.32492">
        <ele>331</ele>
        <time>2021-10-26T13:24:01.000Z</time>
      </trkpt>
      <trkpt lat="43.51338" lon="6.32499">
        <ele>331.4</ele>
        <time>2021-10-26T13:24:04.000Z</time>
      </trkpt>
      <trkpt lat="43.51338" lon="6.32505">
        <ele>331.9</ele>
        <time>2021-10-26T13:24:08.000Z</time>
      </trkpt>
      <trkpt lat="43.51338" lon="6.32512">
        <ele>332.1</ele>
        <time>2021-10-26T13:24:12.000Z</time>
      </trkpt>
      <trkpt lat="43.51342" lon="6.32518">
        <ele>332.5</ele>
        <time>2021-10-26T13:24:16.000Z</time>
      </trkpt>
      <trkpt lat="43.51347" lon="6.32522">
        <ele>332.6</ele>
        <time>2021-10-26T13:24:19.000Z</time>
      </trkpt>
      <trkpt lat="43.51351" lon="6.32525">
        <ele>332.7</ele>
        <time>2021-10-26T13:24:22.000Z</time>
      </trkpt>
      <trkpt lat="43.51356" lon="6.32528">
        <ele>333</ele>
        <time>2021-10-26T13:24:26.000Z</time>
      </trkpt>
      <trkpt lat="43.51361" lon="6.3253">
        <ele>333.5</ele>
        <time>2021-10-26T13:24:30.000Z</time>
      </trkpt>
      <trkpt lat="43.51366" lon="6.32533">
        <ele>333.8</ele>
        <time>2021-10-26T13:24:33.000Z</time>
      </trkpt>
      <trkpt lat="43.51372" lon="6.32534">
        <ele>334</ele>
        <time>2021-10-26T13:24:37.000Z</time>
      </trkpt>
      <trkpt lat="43.51377" lon="6.32534">
        <ele>334.3</ele>
        <time>2021-10-26T13:24:41.000Z</time>
      </trkpt>
      <trkpt lat="43.51381" lon="6.32535">
        <ele>334.8</ele>
        <time>2021-10-26T13:24:45.000Z</time>
      </trkpt>
      <trkpt lat="43.51387" lon="6.32537">
        <ele>335.1</ele>
        <time>2021-10-26T13:24:49.000Z</time>
      </trkpt>
      <trkpt lat="43.51392" lon="6.32539">
        <ele>335.6</ele>
        <time>2021-10-26T13:24:53.000Z</time>
      </trkpt>
      <trkpt lat="43.51397" lon="6.3254">
        <ele>335.9</ele>
        <time>2021-10-26T13:24:57.000Z</time>
      </trkpt>
      <trkpt lat="43.51402" lon="6.32541">
        <ele>336</ele>
        <time>2021-10-26T13:25:00.000Z</time>
      </trkpt>
      <trkpt lat="43.51407" lon="6.32542">
        <ele>336.4</ele>
        <time>2021-10-26T13:25:03.000Z</time>
      </trkpt>
      <trkpt lat="43.51411" lon="6.32544">
        <ele>336.6</ele>
        <time>2021-10-26T13:25:06.000Z</time>
      </trkpt>
      <trkpt lat="43.51416" lon="6.32547">
        <ele>337.1</ele>
        <time>2021-10-26T13:25:10.000Z</time>
      </trkpt>
      <trkpt lat="43.51421" lon="6.32549">
        <ele>337.3</ele>
        <time>2021-10-26T13:25:14.000Z</time>
      </trkpt>
      <trkpt lat="43.51426" lon="6.32549">
        <ele>337.4</ele>
        <time>2021-10-26T13:25:17.000Z</time>
      </trkpt>
      <trkpt lat="43.51432" lon="6.32551">
        <ele>337.6</ele>
        <time>2021-10-26T13:25:21.000Z</time>
      </trkpt>
      <trkpt lat="43.51437" lon="6.32553">
        <ele>338.1</ele>
        <time>2021-10-26T13:25:25.000Z</time>
      </trkpt>
      <trkpt lat="43.51442" lon="6.32556">
        <ele>338.1</ele>
        <time>2021-10-26T13:25:29.000Z</time>
      </trkpt>
      <trkpt lat="43.51448" lon="6.32558">
        <ele>338.1</ele>
        <time>2021-10-26T13:25:33.000Z</time>
      </trkpt>
      <trkpt lat="43.51453" lon="6.3256">
        <ele>338.8</ele>
        <time>2021-10-26T13:25:37.000Z</time>
      </trkpt>
      <trkpt lat="43.51458" lon="6.32564">
        <ele>339.3</ele>
        <time>2021-10-26T13:25:43.000Z</time>
      </trkpt>
      <trkpt lat="43.51462" lon="6.32564">
        <ele>339.7</ele>
        <time>2021-10-26T13:25:48.000Z</time>
      </trkpt>
      <trkpt lat="43.51467" lon="6.32563">
        <ele>340.1</ele>
        <time>2021-10-26T13:25:52.000Z</time>
      </trkpt>
      <trkpt lat="43.51473" lon="6.32561">
        <ele>340</ele>
        <time>2021-10-26T13:25:56.000Z</time>
      </trkpt>
      <trkpt lat="43.51478" lon="6.3256">
        <ele>340.2</ele>
        <time>2021-10-26T13:26:01.000Z</time>
      </trkpt>
      <trkpt lat="43.51483" lon="6.32559">
        <ele>340.5</ele>
        <time>2021-10-26T13:26:05.000Z</time>
      </trkpt>
      <trkpt lat="43.51488" lon="6.32558">
        <ele>341.4</ele>
        <time>2021-10-26T13:26:10.000Z</time>
      </trkpt>
      <trkpt lat="43.51493" lon="6.32556">
        <ele>342.1</ele>
        <time>2021-10-26T13:26:14.000Z</time>
      </trkpt>
      <trkpt lat="43.51497" lon="6.32552">
        <ele>342.7</ele>
        <time>2021-10-26T13:26:19.000Z</time>
      </trkpt>
      <trkpt lat="43.51502" lon="6.32549">
        <ele>343.2</ele>
        <time>2021-10-26T13:26:24.000Z</time>
      </trkpt>
      <trkpt lat="43.51506" lon="6.32545">
        <ele>343.6</ele>
        <time>2021-10-26T13:26:27.000Z</time>
      </trkpt>
      <trkpt lat="43.51511" lon="6.32543">
        <ele>344</ele>
        <time>2021-10-26T13:26:33.000Z</time>
      </trkpt>
      <trkpt lat="43.51516" lon="6.32542">
        <ele>344.7</ele>
        <time>2021-10-26T13:26:37.000Z</time>
      </trkpt>
      <trkpt lat="43.51521" lon="6.32539">
        <ele>345.3</ele>
        <time>2021-10-26T13:26:41.000Z</time>
      </trkpt>
      <trkpt lat="43.51527" lon="6.32536">
        <ele>345.6</ele>
        <time>2021-10-26T13:26:45.000Z</time>
      </trkpt>
      <trkpt lat="43.51531" lon="6.32534">
        <ele>345.9</ele>
        <time>2021-10-26T13:26:48.000Z</time>
      </trkpt>
      <trkpt lat="43.51536" lon="6.32532">
        <ele>346.5</ele>
        <time>2021-10-26T13:26:51.000Z</time>
      </trkpt>
      <trkpt lat="43.5154" lon="6.3253">
        <ele>347.3</ele>
        <time>2021-10-26T13:26:55.000Z</time>
      </trkpt>
      <trkpt lat="43.51546" lon="6.3253">
        <ele>347.8</ele>
        <time>2021-10-26T13:26:59.000Z</time>
      </trkpt>
      <trkpt lat="43.5155" lon="6.3253">
        <ele>347.9</ele>
        <time>2021-10-26T13:27:02.000Z</time>
      </trkpt>
      <trkpt lat="43.51556" lon="6.32532">
        <ele>348</ele>
        <time>2021-10-26T13:27:05.000Z</time>
      </trkpt>
      <trkpt lat="43.51561" lon="6.32533">
        <ele>348.3</ele>
        <time>2021-10-26T13:27:09.000Z</time>
      </trkpt>
      <trkpt lat="43.51566" lon="6.32537">
        <ele>348.6</ele>
        <time>2021-10-26T13:27:13.000Z</time>
      </trkpt>
      <trkpt lat="43.51571" lon="6.32537">
        <ele>348.7</ele>
        <time>2021-10-26T13:27:16.000Z</time>
      </trkpt>
      <trkpt lat="43.51576" lon="6.32536">
        <ele>348.8</ele>
        <time>2021-10-26T13:27:20.000Z</time>
      </trkpt>
      <trkpt lat="43.51581" lon="6.32536">
        <ele>348.9</ele>
        <time>2021-10-26T13:27:26.000Z</time>
      </trkpt>
      <trkpt lat="43.51586" lon="6.32538">
        <ele>349.1</ele>
        <time>2021-10-26T13:27:29.000Z</time>
      </trkpt>
      <trkpt lat="43.5159" lon="6.32543">
        <ele>349.3</ele>
        <time>2021-10-26T13:27:32.000Z</time>
      </trkpt>
      <trkpt lat="43.51596" lon="6.32543">
        <ele>349.8</ele>
        <time>2021-10-26T13:27:36.000Z</time>
      </trkpt>
      <trkpt lat="43.51601" lon="6.32544">
        <ele>350.2</ele>
        <time>2021-10-26T13:27:40.000Z</time>
      </trkpt>
      <trkpt lat="43.51606" lon="6.32542">
        <ele>350.5</ele>
        <time>2021-10-26T13:27:44.000Z</time>
      </trkpt>
      <trkpt lat="43.51611" lon="6.32543">
        <ele>350.6</ele>
        <time>2021-10-26T13:27:48.000Z</time>
      </trkpt>
      <trkpt lat="43.51616" lon="6.32546">
        <ele>350.7</ele>
        <time>2021-10-26T13:27:51.000Z</time>
      </trkpt>
      <trkpt lat="43.5162" lon="6.32549">
        <ele>351</ele>
        <time>2021-10-26T13:27:54.000Z</time>
      </trkpt>
      <trkpt lat="43.51624" lon="6.32552">
        <ele>351.2</ele>
        <time>2021-10-26T13:27:58.000Z</time>
      </trkpt>
      <trkpt lat="43.51629" lon="6.32554">
        <ele>351.4</ele>
        <time>2021-10-26T13:28:02.000Z</time>
      </trkpt>
      <trkpt lat="43.51634" lon="6.32555">
        <ele>351.4</ele>
        <time>2021-10-26T13:28:05.000Z</time>
      </trkpt>
      <trkpt lat="43.51639" lon="6.32558">
        <ele>351.7</ele>
        <time>2021-10-26T13:28:08.000Z</time>
      </trkpt>
      <trkpt lat="43.51644" lon="6.3256">
        <ele>351.6</ele>
        <time>2021-10-26T13:28:11.000Z</time>
      </trkpt>
      <trkpt lat="43.51649" lon="6.32563">
        <ele>351.4</ele>
        <time>2021-10-26T13:28:14.000Z</time>
      </trkpt>
      <trkpt lat="43.51654" lon="6.32565">
        <ele>351.2</ele>
        <time>2021-10-26T13:28:17.000Z</time>
      </trkpt>
      <trkpt lat="43.51659" lon="6.32565">
        <ele>351</ele>
        <time>2021-10-26T13:28:20.000Z</time>
      </trkpt>
      <trkpt lat="43.51663" lon="6.32566">
        <ele>351</ele>
        <time>2021-10-26T13:28:23.000Z</time>
      </trkpt>
      <trkpt lat="43.51668" lon="6.32568">
        <ele>351.1</ele>
        <time>2021-10-26T13:28:26.000Z</time>
      </trkpt>
      <trkpt lat="43.51674" lon="6.32571">
        <ele>351.1</ele>
        <time>2021-10-26T13:28:30.000Z</time>
      </trkpt>
      <trkpt lat="43.51679" lon="6.32573">
        <ele>351</ele>
        <time>2021-10-26T13:28:33.000Z</time>
      </trkpt>
      <trkpt lat="43.51684" lon="6.32577">
        <ele>351.3</ele>
        <time>2021-10-26T13:28:37.000Z</time>
      </trkpt>
      <trkpt lat="43.51687" lon="6.32581">
        <ele>351.5</ele>
        <time>2021-10-26T13:28:40.000Z</time>
      </trkpt>
      <trkpt lat="43.51692" lon="6.32586">
        <ele>351.7</ele>
        <time>2021-10-26T13:28:44.000Z</time>
      </trkpt>
      <trkpt lat="43.51695" lon="6.32593">
        <ele>352</ele>
        <time>2021-10-26T13:28:48.000Z</time>
      </trkpt>
      <trkpt lat="43.51699" lon="6.32599">
        <ele>351.9</ele>
        <time>2021-10-26T13:28:52.000Z</time>
      </trkpt>
      <trkpt lat="43.51702" lon="6.32606">
        <ele>351.9</ele>
        <time>2021-10-26T13:28:56.000Z</time>
      </trkpt>
      <trkpt lat="43.51705" lon="6.32612">
        <ele>351.7</ele>
        <time>2021-10-26T13:29:00.000Z</time>
      </trkpt>
      <trkpt lat="43.51708" lon="6.32619">
        <ele>351.9</ele>
        <time>2021-10-26T13:29:04.000Z</time>
      </trkpt>
      <trkpt lat="43.5171" lon="6.32625">
        <ele>352.1</ele>
        <time>2021-10-26T13:29:08.000Z</time>
      </trkpt>
      <trkpt lat="43.51713" lon="6.32631">
        <ele>352.6</ele>
        <time>2021-10-26T13:29:12.000Z</time>
      </trkpt>
      <trkpt lat="43.51716" lon="6.32637">
        <ele>352.9</ele>
        <time>2021-10-26T13:29:16.000Z</time>
      </trkpt>
      <trkpt lat="43.51719" lon="6.32643">
        <ele>353</ele>
        <time>2021-10-26T13:29:20.000Z</time>
      </trkpt>
      <trkpt lat="43.5172" lon="6.32649">
        <ele>353.1</ele>
        <time>2021-10-26T13:29:24.000Z</time>
      </trkpt>
      <trkpt lat="43.5172" lon="6.32655">
        <ele>353.3</ele>
        <time>2021-10-26T13:29:29.000Z</time>
      </trkpt>
      <trkpt lat="43.5172" lon="6.32662">
        <ele>353.6</ele>
        <time>2021-10-26T13:29:34.000Z</time>
      </trkpt>
      <trkpt lat="43.5172" lon="6.32669">
        <ele>353.7</ele>
        <time>2021-10-26T13:29:39.000Z</time>
      </trkpt>
      <trkpt lat="43.51721" lon="6.32676">
        <ele>353.9</ele>
        <time>2021-10-26T13:29:44.000Z</time>
      </trkpt>
      <trkpt lat="43.51724" lon="6.32681">
        <ele>353.7</ele>
        <time>2021-10-26T13:29:55.000Z</time>
      </trkpt>
      <trkpt lat="43.51725" lon="6.32682">
        <ele>354</ele>
        <time>2021-10-26T13:30:02.000Z</time>
      </trkpt>
    </trkseg>
  </trk>
</gpx>